Provisional Data: South Branch Tunkhannock Creek near La Plume, PA


Please select a monitoring station.
Please select start date.
Please select start date.

Toggle Unit: C/F Toggle Unit: C/F
Sample Time Temperature (C) Temperature (F) Specific Conductivity (mS/cm) pH   Turbidity (NTU+) DO (mg/L)
8/11/2023 12:00:00 AM 20.49 68.882 0.253 7.7 2.25 8.32
8/11/2023 12:15:00 AM 20.45 68.81 0.253 7.7 2.44 8.34
8/11/2023 12:30:00 AM 20.38 68.684 0.253 7.69 2.2 8.33
8/11/2023 12:45:00 AM 20.36 68.648 0.253 7.7 2.44 8.35
8/11/2023 1:00:00 AM 20.3 68.54 0.254 7.7 2.18 8.37
8/11/2023 1:15:00 AM 20.27 68.486 0.254 7.69 2.24 8.36
8/11/2023 1:30:00 AM 20.22 68.396 0.254 7.7 2.17 8.4
8/11/2023 1:45:00 AM 20.17 68.306 0.254 7.69 2.35 8.4
8/11/2023 2:00:00 AM 20.12 68.216 0.254 7.69 2.6 8.4
8/11/2023 2:15:00 AM 20.07 68.126 0.254 7.69 2.22 8.42
8/11/2023 2:30:00 AM 20.02 68.036 0.253 7.69 2.57 8.41
8/11/2023 2:45:00 AM 19.96 67.92799 0.253 7.69 2.31 8.42
8/11/2023 3:00:00 AM 19.92 67.856 0.254 7.69 2.24 8.44
8/11/2023 3:15:00 AM 19.88 67.784 0.253 7.69 2.27 8.46
8/11/2023 3:30:00 AM 19.81 67.658 0.253 7.69 2.44 8.47
8/11/2023 3:45:00 AM 19.74 67.532 0.253 7.69 2.31 8.49
8/11/2023 4:00:00 AM 19.68 67.424 0.253 7.69 2.21 8.49
8/11/2023 4:15:00 AM 19.65 67.37 0.253 7.69 2.4 8.52
8/11/2023 4:30:00 AM 19.6 67.28 0.253 7.69 2.54 8.51
8/11/2023 4:45:00 AM 19.56 67.208 0.254 7.69 2.3 8.53
8/11/2023 5:00:00 AM 19.51 67.118 0.253 7.69 2.27 8.53
8/11/2023 5:15:00 AM 19.47 67.046 0.254 7.69 2.21 8.56
8/11/2023 5:30:00 AM 19.41 66.938 0.254 7.68 2.09 8.55
8/11/2023 5:45:00 AM 19.36 66.848 0.254 7.68 2.17 8.58
8/11/2023 6:00:00 AM 19.33 66.794 0.253 7.69 2.33 8.6
8/11/2023 6:15:00 AM 19.28 66.704 0.253 7.69 2.26 8.61
8/11/2023 6:30:00 AM 19.25 66.65 0.253 7.69 2.26 8.62
8/11/2023 6:45:00 AM 19.18 66.524 0.253 7.69 2.03 8.67
8/11/2023 7:00:00 AM 19.13 66.434 0.253 7.7 1.99 8.73
8/11/2023 7:15:00 AM 19.11 66.398 0.253 7.71 1.94 8.83
8/11/2023 7:30:00 AM 19.09 66.362 0.253 7.73 1.79 8.95
8/11/2023 7:45:00 AM 19.09 66.362 0.253 7.75 1.91 9.05
8/11/2023 8:00:00 AM 19.09 66.362 0.253 7.77 2.41 9.18
8/11/2023 8:15:00 AM 19.07 66.326 0.253 7.79 1.92 9.27
8/11/2023 8:30:00 AM 19.08 66.344 0.253 7.81 1.91 9.36
8/11/2023 8:45:00 AM 19.09 66.362 0.253 7.82 1.83 9.41
8/11/2023 9:00:00 AM 19.11 66.398 0.253 7.84 1.91 9.47
8/11/2023 9:15:00 AM 19.16 66.488 0.253 7.87 1.66 9.61
8/11/2023 9:30:00 AM 19.24 66.632 0.253 7.91 1.65 9.73
8/11/2023 9:45:00 AM 19.29 66.722 0.253 7.92 1.76 9.74
8/11/2023 10:00:00 AM 19.37 66.866 0.253 7.96 1.64 9.87
8/11/2023 10:15:00 AM 19.47 67.046 0.253 8.01 1.62 10
8/11/2023 10:30:00 AM 19.54 67.172 0.253 8.03 1.8 10
8/11/2023 10:45:00 AM 19.59 67.262 0.253 8.04 1.71 9.96
8/11/2023 11:00:00 AM 19.7 67.46 0.253 8.09 1.5 10.12
8/11/2023 11:15:00 AM 19.75 67.55 0.253 8.09 1.66 10.08
8/11/2023 11:30:00 AM 19.91 67.838 0.253 8.14 1.51 10.19
8/11/2023 11:45:00 AM 20.1 68.18 0.253 8.17 1.74 10.25
8/11/2023 12:00:00 PM 20.24 68.432 0.253 8.18 1.68 10.23
8/11/2023 12:15:00 PM 20.33 68.594 0.253 8.18 1.77 10.14
8/11/2023 12:30:00 PM 20.44 68.792 0.253 8.17 1.83 10.08
8/11/2023 12:45:00 PM 20.45 68.81 0.254 8.16 1.58 9.96
8/11/2023 1:00:00 PM 20.63 69.134 0.253 8.17 1.6 10.03
8/11/2023 1:15:00 PM 20.84 69.512 0.253 8.2 1.75 10.06
8/11/2023 1:30:00 PM 21.1 69.98 0.254 8.23 1.57 10.08
8/11/2023 1:45:00 PM 21.38 70.484 0.254 8.24 1.46 10.07
8/11/2023 2:00:00 PM 21.66 70.988 0.254 8.27 1.62 10.09
8/11/2023 2:15:00 PM 21.88 71.384 0.254 8.28 1.53 10.02
8/11/2023 2:30:00 PM 22.08 71.744 0.254 8.27 1.55 9.95
8/11/2023 2:45:00 PM 22.31 72.158 0.254 8.29 1.47 9.95
8/11/2023 3:00:00 PM 22.48 72.464 0.254 8.3 1.51 9.87
8/11/2023 3:15:00 PM 22.61 72.698 0.254 8.29 1.6 9.79
8/11/2023 3:30:00 PM 22.73 72.914 0.255 8.29 1.56 9.76
8/11/2023 3:45:00 PM 22.78 73.004 0.255 8.27 1.49 9.69
8/11/2023 4:00:00 PM 22.79 73.022 0.255 8.26 1.73 9.63
8/11/2023 4:15:00 PM 22.82 73.076 0.255 8.24 1.74 9.56
8/11/2023 4:30:00 PM 22.83 73.094 0.255 8.2 1.54 9.45
8/11/2023 4:45:00 PM 22.82 73.076 0.255 8.17 1.55 9.35
8/11/2023 5:00:00 PM 22.81 73.058 0.256 8.16 1.8 9.28
8/11/2023 5:15:00 PM 22.77 72.986 0.256 8.12 1.56 9.18
8/11/2023 5:30:00 PM 22.76 72.968 0.256 8.1 1.58 9.1
8/11/2023 5:45:00 PM 22.73 72.914 0.261 8.05 1.56 8.99
8/11/2023 6:00:00 PM 22.71 72.878 0.263 8.03 1.58 8.91
8/11/2023 6:15:00 PM 22.67 72.806 0.282 8 2.13 8.82
8/11/2023 6:30:00 PM 22.62 72.716 0.282 7.97 1.41 8.73
8/11/2023 6:45:00 PM 22.58 72.644 0.278 7.94 1.54 8.63
8/11/2023 7:00:00 PM 22.52 72.536 0.261 7.89 1.61 8.48
8/11/2023 7:15:00 PM 22.47 72.446 0.258 7.86 1.53 8.38
8/11/2023 7:30:00 PM 22.41 72.338 0.258 7.84 1.59 8.32
8/11/2023 7:45:00 PM 22.36 72.248 0.256 7.81 1.56 8.26
8/11/2023 8:00:00 PM 22.29 72.122 0.258 7.78 1.61 8.15
8/11/2023 8:15:00 PM 22.19 71.942 0.258 7.76 1.54 8.09
8/11/2023 8:30:00 PM 22.13 71.834 0.258 7.74 1.66 8.02
8/11/2023 8:45:00 PM 22.05 71.69 0.257 7.73 1.76 8.03
8/11/2023 9:00:00 PM 21.99 71.582 0.258 7.72 1.87 8.01
8/11/2023 9:15:00 PM 21.95 71.51 0.259 7.72 1.75 8.01
8/11/2023 9:30:00 PM 21.84 71.312 0.258 7.71 1.5 7.99
8/11/2023 9:45:00 PM 21.77 71.186 0.26 7.7 2.14 7.99
8/11/2023 10:00:00 PM 21.69 71.042 0.26 7.7 1.95 8
8/11/2023 10:15:00 PM 21.64 70.952 0.26 7.7 1.99 8.03
8/11/2023 10:30:00 PM 21.54 70.772 0.261 7.69 1.84 8.04
8/11/2023 10:45:00 PM 21.46 70.628 0.263 7.69 1.79 8.07
8/11/2023 11:00:00 PM 21.35 70.43 0.263 7.68 2.01 8.06
8/11/2023 11:15:00 PM 21.23 70.214 0.267 7.69 1.78 8.11
8/11/2023 11:30:00 PM 21.12 70.016 0.27 7.68 1.79 8.1
8/11/2023 11:45:00 PM 21.02 69.836 0.272 7.68 1.79 8.15
8/12/2023 12:00:00 AM 20.91 69.638 0.273 7.68 1.66 8.16
8/12/2023 12:15:00 AM 20.81 69.458 0.274 7.68 1.77 8.2
8/12/2023 12:30:00 AM 20.7 69.26 0.276 7.68 1.69 8.21
8/12/2023 12:45:00 AM 20.59 69.062 0.277 7.68 1.94 8.24
8/12/2023 1:00:00 AM 20.49 68.882 0.277 7.68 1.96 8.28
8/12/2023 1:15:00 AM 20.37 68.666 0.276 7.68 1.73 8.3
8/12/2023 1:30:00 AM 20.28 68.504 0.276 7.67 1.6 8.3
8/12/2023 1:45:00 AM 20.16 68.288 0.275 7.68 1.96 8.35
8/12/2023 2:00:00 AM 20.06 68.108 0.275 7.67 1.98 8.37
8/12/2023 2:15:00 AM 19.96 67.92799 0.274 7.68 1.73 8.4
8/12/2023 2:30:00 AM 19.87 67.766 0.275 7.67 1.78 8.41
8/12/2023 2:45:00 AM 19.75 67.55 0.274 7.67 1.63 8.45
8/12/2023 3:00:00 AM 19.66 67.388 0.274 7.67 1.68 8.45
8/12/2023 3:15:00 AM 19.57 67.226 0.273 7.67 1.72 8.49
8/12/2023 3:30:00 AM 19.48 67.064 0.273 7.67 1.75 8.52
8/12/2023 3:45:00 AM 19.38 66.884 0.273 7.67 1.79 8.53
8/12/2023 4:00:00 AM 19.28 66.704 0.272 7.67 1.66 8.54
8/12/2023 4:15:00 AM 19.18 66.524 0.272 7.67 1.58 8.55
8/12/2023 4:30:00 AM 19.1 66.38 0.272 7.67 1.74 8.58
8/12/2023 4:45:00 AM 19.03 66.254 0.272 7.67 1.62 8.6
8/12/2023 5:00:00 AM 18.96 66.128 0.271 7.67 1.67 8.63
8/12/2023 5:15:00 AM 18.87 65.966 0.271 7.66 1.63 8.63
8/12/2023 5:30:00 AM 18.8 65.84 0.271 7.66 1.79 8.65
8/12/2023 5:45:00 AM 18.73 65.714 0.271 7.66 1.9 8.65
8/12/2023 6:00:00 AM 18.67 65.606 0.271 7.66 3.83 8.66
8/12/2023 6:15:00 AM 18.61 65.498 0.271 7.66 2.4 8.69
8/12/2023 6:30:00 AM 18.55 65.39 0.271 7.66 1.68 8.73
8/12/2023 6:45:00 AM 18.5 65.3 0.271 7.67 1.66 8.81
8/12/2023 7:00:00 AM 18.48 65.264 0.271 7.68 1.75 8.89
8/12/2023 7:15:00 AM 18.45 65.21 0.271 7.69 1.6 8.95
8/12/2023 7:30:00 AM 18.44 65.192 0.271 7.71 1.87 9.07
8/12/2023 7:45:00 AM 18.43 65.174 0.271 7.72 1.65 9.12
8/12/2023 8:00:00 AM 18.42 65.156 0.271 7.73 1.53 9.2
8/12/2023 8:15:00 AM 18.44 65.192 0.271 7.75 1.65 9.37
8/12/2023 8:30:00 AM 18.45 65.21 0.27 7.77 1.36 9.43
8/12/2023 8:45:00 AM 18.49 65.282 0.27 7.8 1.35 9.59
8/12/2023 9:00:00 AM 18.56 65.408 0.269 7.83 1.42 9.74
8/12/2023 9:15:00 AM 18.64 65.552 0.269 7.87 1.36 9.86
8/12/2023 9:30:00 AM 18.69 65.642 0.269 7.89 1.41 9.9
8/12/2023 9:45:00 AM 18.83 65.894 0.269 7.93 1.28 10.05
8/12/2023 10:00:00 AM 19.01 66.218 0.269 7.99 1.48 10.22
8/12/2023 10:15:00 AM 19.09 66.362 0.268 8.02 1.43 10.26
8/12/2023 10:30:00 AM 19.1 66.38 0.268 7.99 1.3 10
8/12/2023 10:45:00 AM 19.16 66.488 0.268 8.01 1.49 10.02
8/12/2023 11:00:00 AM 19.22 66.596 0.268 8.02 1.35 10.08
8/12/2023 11:15:00 AM 19.34 66.812 0.268 8.08 1.29 10.27
8/12/2023 11:30:00 AM 19.45 67.01 0.268 8.13 1.28 10.33
8/12/2023 11:45:00 AM 19.62 67.316 0.268 8.16 1.4 10.45
8/12/2023 12:00:00 PM 19.78 67.604 0.268 8.2 1.34 10.43
8/12/2023 12:15:00 PM 19.91 67.838 0.268 8.24 1.29 10.51
8/12/2023 12:30:00 PM 19.95 67.91 0.268 8.25 1.42 10.43
8/12/2023 12:45:00 PM 20.04 68.07201 0.267 8.27 1.34 10.5
8/12/2023 1:00:00 PM 20.17 68.306 0.267 8.32 1.3 10.59
8/12/2023 1:15:00 PM 20.23 68.414 0.267 8.31 1.28 10.49
8/12/2023 1:30:00 PM 20.45 68.81 0.267 8.37 1.18 10.57
8/12/2023 1:45:00 PM 20.52 68.936 0.266 8.37 1.23 10.52
8/12/2023 2:00:00 PM 20.79 69.422 0.266 8.38 1.29 10.54
8/12/2023 2:15:00 PM 21 69.8 0.266 8.41 1.18 10.53
8/12/2023 2:30:00 PM 21.14 70.052 0.265 8.43 1.23 10.51
8/12/2023 2:45:00 PM 21.34 70.412 0.265 8.45 1.28 10.52
8/12/2023 3:00:00 PM 21.59 70.862 0.265 8.43 1.16 10.39
8/12/2023 3:15:00 PM 21.78 71.204 0.265 8.43 1.23 10.33
8/12/2023 3:30:00 PM 21.96 71.528 0.265 8.44 1.33 10.27
8/12/2023 3:45:00 PM 22.1 71.78 0.265 8.42 1.25 10.16
8/12/2023 4:00:00 PM 22.24 72.032 0.265 8.41 1.29 10.09
8/12/2023 4:15:00 PM 22.36 72.248 0.265 8.4 1.2 9.99
8/12/2023 4:30:00 PM 22.4 72.32 0.265 8.36 1.25 9.88
8/12/2023 4:45:00 PM 22.47 72.446 0.265 8.35 1.26 9.79
8/12/2023 5:00:00 PM 22.47 72.446 0.265 8.33 1.2 9.74
8/12/2023 5:15:00 PM 22.44 72.392 0.265 8.29 1.35 9.65
8/12/2023 5:30:00 PM 22.4 72.32 0.265 8.26 1.28 9.57
8/12/2023 5:45:00 PM 22.46 72.42799 0.266 8.26 1.34 9.59
8/12/2023 6:00:00 PM 22.44 72.392 0.266 8.22 1.21 9.44
8/12/2023 6:15:00 PM 22.36 72.248 0.266 8.11 1.24 9.09
8/12/2023 6:30:00 PM 22.33 72.194 0.266 8.07 1.22 9.02
8/12/2023 6:45:00 PM 22.32 72.176 0.266 8.02 1.2 8.89
8/12/2023 7:00:00 PM 22.28 72.104 0.267 7.95 1.28 8.62
8/12/2023 7:15:00 PM 22.23 72.014 0.267 7.9 1.37 8.46
8/12/2023 7:30:00 PM 22.18 71.924 0.267 7.84 1.34 8.27
8/12/2023 7:45:00 PM 22.14 71.852 0.267 7.82 1.43 8.21
8/12/2023 8:00:00 PM 21.95 71.51 0.261 7.8 1.66 8.19
8/12/2023 8:15:00 PM 21.77 71.186 0.253 7.77 2.18 8.21
8/12/2023 8:30:00 PM 21.72 71.096 0.256 7.74 2.3 8.13
8/12/2023 8:45:00 PM 21.69 71.042 0.258 7.73 2.41 8.09
8/12/2023 9:00:00 PM 21.63 70.934 0.256 7.71 3 8.04
8/12/2023 9:15:00 PM 21.53 70.754 0.253 7.69 5.76 8.03
8/12/2023 9:30:00 PM 21.46 70.628 0.255 7.68 7.54 7.97
8/12/2023 9:45:00 PM 21.39 70.502 0.256 7.67 6.06 8
8/12/2023 10:00:00 PM 21.35 70.43 0.26 7.67 4.16 7.99
8/12/2023 10:15:00 PM 21.29 70.32201 0.264 7.67 3.66 8.02
8/12/2023 10:30:00 PM 21.24 70.232 0.266 7.67 4.81 8.04
8/12/2023 10:45:00 PM 20.99 69.782 0.311 7.69 11.09 8.2
8/12/2023 11:00:00 PM 20.61 69.098 0.342 7.71 21.81 8.26
8/12/2023 11:15:00 PM 20.16 68.288 0.344 7.73 56.82 8.46
8/12/2023 11:30:00 PM 19.88 67.784 0.271 7.68 106.3 8.58
8/12/2023 11:45:00 PM 19.75 67.55 0.258 7.63 115.33 8.64
8/13/2023 12:00:00 AM 19.79 67.622 0.281 7.62 135.65 8.64
8/13/2023 12:15:00 AM 19.72 67.496 0.264 7.62 135.46 8.67
8/13/2023 12:30:00 AM 19.69 67.442 0.255 7.62 106.82 8.69
8/13/2023 12:45:00 AM 19.69 67.442 0.25 7.62 84.62 8.69
8/13/2023 1:00:00 AM 19.68 67.424 0.243 7.62 73.86 8.69
8/13/2023 1:15:00 AM 19.65 67.37 0.238 7.61 64.74 8.69
8/13/2023 1:30:00 AM 19.63 67.334 0.233 7.6 53.77 8.68
8/13/2023 1:45:00 AM 19.6 67.28 0.23 7.6 52.83 8.67
8/13/2023 2:00:00 AM 19.57 67.226 0.227 7.59 46.06 8.67
8/13/2023 2:15:00 AM 19.55 67.19 0.224 7.59 45.12 8.66
8/13/2023 2:30:00 AM 19.52 67.136 0.221 7.58 42.42 8.66
8/13/2023 2:45:00 AM 19.49 67.082 0.219 7.58 35.58 8.66
8/13/2023 3:00:00 AM 19.46 67.028 0.218 7.58 33.91 8.67
8/13/2023 3:15:00 AM 19.44 66.992 0.217 7.58 29.47 8.67
8/13/2023 3:30:00 AM 19.41 66.938 0.217 7.58 28.57 8.67
8/13/2023 3:45:00 AM 19.38 66.884 0.217 7.58 27.3 8.68
8/13/2023 4:00:00 AM 19.36 66.848 0.218 7.58 24.59 8.67
8/13/2023 4:15:00 AM 19.33 66.794 0.22 7.58 22.54 8.68
8/13/2023 4:30:00 AM 19.31 66.758 0.222 7.58 21.99 8.67
8/13/2023 4:45:00 AM 19.3 66.74 0.223 7.58 21.14 8.68
8/13/2023 5:00:00 AM 19.28 66.704 0.225 7.58 19.1 8.68
8/13/2023 5:15:00 AM 19.27 66.686 0.226 7.58 17.38 8.67
8/13/2023 5:30:00 AM 19.25 66.65 0.227 7.59 17.58 8.67
8/13/2023 5:45:00 AM 19.24 66.632 0.229 7.59 15.57 8.67
8/13/2023 6:00:00 AM 19.22 66.596 0.23 7.59 15.06 8.68
8/13/2023 6:15:00 AM 19.21 66.578 0.231 7.59 13.98 8.67
8/13/2023 6:30:00 AM 19.2 66.56 0.231 7.6 12.75 8.69
8/13/2023 6:45:00 AM 19.18 66.524 0.232 7.6 12.33 8.7
8/13/2023 7:00:00 AM 19.18 66.524 0.232 7.61 11.7 8.75
8/13/2023 7:15:00 AM 19.17 66.506 0.233 7.62 10.97 8.79
8/13/2023 7:30:00 AM 19.18 66.524 0.234 7.62 10.11 8.82
8/13/2023 7:45:00 AM 19.18 66.524 0.234 7.64 9.85 8.87
8/13/2023 8:00:00 AM 19.21 66.578 0.234 7.65 8.67 9.01
8/13/2023 8:15:00 AM 19.21 66.578 0.235 7.67 8.34 9.03
8/13/2023 8:30:00 AM 19.25 66.65 0.235 7.68 8.21 9.11
8/13/2023 8:45:00 AM 19.31 66.758 0.235 7.7 7.44 9.2
8/13/2023 9:00:00 AM 19.34 66.812 0.235 7.72 7.31 9.23
8/13/2023 9:15:00 AM 19.41 66.938 0.236 7.73 6.77 9.3
8/13/2023 9:30:00 AM 19.47 67.046 0.236 7.75 6.37 9.33
8/13/2023 9:45:00 AM 19.54 67.172 0.237 7.78 6.37 9.43
8/13/2023 10:00:00 AM 19.57 67.226 0.237 7.78 5.59 9.42
8/13/2023 10:15:00 AM 19.61 67.298 0.237 7.8 5.36 9.45
8/13/2023 10:30:00 AM 19.72 67.496 0.238 7.83 4.92 9.59
8/13/2023 10:45:00 AM 19.86 67.748 0.238 7.86 4.64 9.64
8/13/2023 11:00:00 AM 20.01 68.018 0.239 7.89 4.5 9.7
8/13/2023 11:15:00 AM 20.13 68.234 0.239 7.91 4.47 9.72
8/13/2023 11:30:00 AM 20.2 68.36 0.24 7.91 4.2 9.67
8/13/2023 11:45:00 AM 20.32 68.576 0.241 7.94 6.74 9.72
8/13/2023 12:00:00 PM 20.44 68.792 0.265 7.95 4.31 9.74
8/13/2023 12:15:00 PM 20.68 69.224 0.261 7.99 5.11 9.91
8/13/2023 12:30:00 PM 20.88 69.584 0.262 8.02 3.55 9.89
8/13/2023 12:45:00 PM 21.09 69.962 0.263 8.05 3.71 9.89
8/13/2023 1:00:00 PM 21.24 70.232 0.262 8.06 4.98 9.82
8/13/2023 1:15:00 PM 21.51 70.718 0.266 8.1 3.3 9.94
8/13/2023 1:30:00 PM 21.61 70.898 0.265 8.09 3.58 9.8
8/13/2023 1:45:00 PM 21.71 71.078 0.266 8.1 3.26 9.78
8/13/2023 2:00:00 PM 21.84 71.312 0.267 8.12 2.81 9.74
8/13/2023 2:15:00 PM 22.02 71.636 0.267 8.13 2.87 9.76
8/13/2023 2:30:00 PM 22.25 72.05 0.268 8.17 2.95 9.86
8/13/2023 2:45:00 PM 22.43 72.374 0.268 8.22 3.04 9.91
8/13/2023 3:00:00 PM 22.56 72.608 0.267 8.2 2.86 9.77
8/13/2023 3:15:00 PM 22.69 72.842 0.269 8.19 2.77 9.69
8/13/2023 3:30:00 PM 22.79 73.022 0.269 8.18 3.04 9.61
8/13/2023 3:45:00 PM 22.85 73.13 0.269 8.2 2.69 9.61
8/13/2023 4:00:00 PM 22.85 73.13 0.27 8.16 2.63 9.47
8/13/2023 4:15:00 PM 22.91 73.238 0.27 8.15 4.44 9.41
8/13/2023 4:30:00 PM 22.96 73.328 0.27 8.15 2.88 9.44
8/13/2023 4:45:00 PM 22.96 73.328 0.271 8.13 2.45 9.32
8/13/2023 5:00:00 PM 22.97 73.346 0.271 8.1 2.77 9.23
8/13/2023 5:15:00 PM 22.97 73.346 0.271 8.07 2.55 9.13
8/13/2023 5:30:00 PM 22.91 73.238 0.272 8.05 2.33 9.04
8/13/2023 5:45:00 PM 22.87 73.166 0.272 8.01 2.41 8.92
8/13/2023 6:00:00 PM 22.83 73.094 0.271 7.98 2.38 8.84
8/13/2023 6:15:00 PM 22.78 73.004 0.272 7.94 2.32 8.74
8/13/2023 6:30:00 PM 22.73 72.914 0.272 7.91 2.34 8.65
8/13/2023 6:45:00 PM 22.7 72.86 0.272 7.88 2.23 8.56
8/13/2023 7:00:00 PM 22.62 72.716 0.272 7.84 2.53 8.41
8/13/2023 7:15:00 PM 22.57 72.626 0.273 7.81 2.16 8.32
8/13/2023 7:30:00 PM 22.54 72.57201 0.273 7.79 2.43 8.27
8/13/2023 7:45:00 PM 22.47 72.446 0.273 7.77 2.35 8.22
8/13/2023 8:00:00 PM 22.41 72.338 0.272 7.75 2.34 8.15
8/13/2023 8:15:00 PM 22.34 72.212 0.273 7.74 2.25 8.12
8/13/2023 8:30:00 PM 22.27 72.086 0.274 7.72 2.53 8.07
8/13/2023 8:45:00 PM 22.19 71.942 0.273 7.71 2.53 8.06
8/13/2023 9:00:00 PM 22.11 71.798 0.273 7.7 2.45 8.05
8/13/2023 9:15:00 PM 22.05 71.69 0.273 7.7 2.5 8.06
8/13/2023 9:30:00 PM 21.97 71.546 0.273 7.7 2.6 8.07
8/13/2023 9:45:00 PM 21.89 71.402 0.274 7.69 2.71 8.08
8/13/2023 10:00:00 PM 21.81 71.258 0.274 7.68 2.52 8.07
8/13/2023 10:15:00 PM 21.72 71.096 0.274 7.68 2.71 8.09
8/13/2023 10:30:00 PM 21.64 70.952 0.275 7.68 2.36 8.12
8/13/2023 10:45:00 PM 21.55 70.79 0.275 7.68 2.33 8.13
8/13/2023 11:00:00 PM 21.48 70.664 0.275 7.68 2.78 8.14
8/13/2023 11:15:00 PM 21.4 70.52 0.275 7.67 2.36 8.15
8/13/2023 11:30:00 PM 21.32 70.376 0.276 7.67 2.58 8.18
8/13/2023 11:45:00 PM 21.24 70.232 0.275 7.67 2.58 8.2
8/14/2023 12:00:00 AM 21.15 70.07 0.275 7.67 2.21 8.22
8/14/2023 12:15:00 AM 21.05 69.89 0.276 7.67 2.27 8.22
8/14/2023 12:30:00 AM 20.96 69.728 0.276 7.67 2.55 8.25
8/14/2023 12:45:00 AM 20.89 69.602 0.276 7.67 2.31 8.27
8/14/2023 1:00:00 AM 20.8 69.44 0.275 7.67 2.14 8.3
8/14/2023 1:15:00 AM 20.73 69.314 0.276 7.67 2.34 8.31
8/14/2023 1:30:00 AM 20.67 69.206 0.277 7.67 2.74 8.32
8/14/2023 1:45:00 AM 20.57 69.026 0.276 7.66 3.81 8.32
8/14/2023 2:00:00 AM 20.5 68.9 0.276 7.66 2.32 8.37
8/14/2023 2:15:00 AM 20.44 68.792 0.276 7.66 2.32 8.37
8/14/2023 2:30:00 AM 20.35 68.63 0.276 7.66 2.18 8.4
8/14/2023 2:45:00 AM 20.28 68.504 0.276 7.66 2.26 8.41
8/14/2023 3:00:00 AM 20.22 68.396 0.277 7.66 6.31 8.42
8/14/2023 3:15:00 AM 20.16 68.288 0.276 7.66 2.73 8.44
8/14/2023 3:30:00 AM 20.09 68.162 0.276 7.66 2.25 8.45
8/14/2023 3:45:00 AM 20.03 68.054 0.276 7.66 2.3 8.48
8/14/2023 4:00:00 AM 19.96 67.92799 0.276 7.66 2.14 8.48
8/14/2023 4:15:00 AM 19.89 67.802 0.276 7.66 2.14 8.48
8/14/2023 4:30:00 AM 19.83 67.694 0.276 7.66 2.14 8.49
8/14/2023 4:45:00 AM 19.78 67.604 0.276 7.66 2.13 8.52
8/14/2023 5:00:00 AM 19.73 67.514 0.277 7.66 2.2 8.53
8/14/2023 5:15:00 AM 19.67 67.406 0.277 7.65 2 8.55
8/14/2023 5:30:00 AM 19.63 67.334 0.276 7.65 2.35 8.56
8/14/2023 5:45:00 AM 19.58 67.244 0.276 7.65 2.31 8.57
8/14/2023 6:00:00 AM 19.54 67.172 0.277 7.65 2.73 8.57
8/14/2023 6:15:00 AM 19.49 67.082 0.276 7.65 2.59 8.56
8/14/2023 6:30:00 AM 19.46 67.028 0.277 7.65 2.18 8.59
8/14/2023 6:45:00 AM 19.41 66.938 0.277 7.66 2.07 8.63
8/14/2023 7:00:00 AM 19.39 66.902 0.277 7.67 2.01 8.73
8/14/2023 7:15:00 AM 19.36 66.848 0.277 7.68 2.4 8.81
8/14/2023 7:30:00 AM 19.35 66.83 0.277 7.69 1.87 8.9
8/14/2023 7:45:00 AM 19.35 66.83 0.277 7.72 1.82 9.03
8/14/2023 8:00:00 AM 19.35 66.83 0.277 7.73 1.72 9.13
8/14/2023 8:15:00 AM 19.35 66.83 0.277 7.75 1.98 9.19
8/14/2023 8:30:00 AM 19.35 66.83 0.277 7.75 1.74 9.21
8/14/2023 8:45:00 AM 19.37 66.866 0.277 7.77 1.8 9.31
8/14/2023 9:00:00 AM 19.39 66.902 0.277 7.79 1.76 9.38
8/14/2023 9:15:00 AM 19.43 66.974 0.277 7.82 1.73 9.52
8/14/2023 9:30:00 AM 19.49 67.082 0.277 7.86 1.53 9.73
8/14/2023 9:45:00 AM 19.55 67.19 0.277 7.9 1.6 9.85
8/14/2023 10:00:00 AM 19.61 67.298 0.277 7.94 1.64 9.94
8/14/2023 10:15:00 AM 19.67 67.406 0.276 7.97 1.52 10.05
8/14/2023 10:30:00 AM 19.75 67.55 0.276 8.02 1.84 10.18
8/14/2023 10:45:00 AM 19.8 67.64 0.276 8.03 1.54 10.13
8/14/2023 11:00:00 AM 19.89 67.802 0.276 8.09 1.71 10.28
8/14/2023 11:15:00 AM 20.01 68.018 0.276 8.15 1.57 10.45
8/14/2023 11:30:00 AM 20.12 68.216 0.275 8.19 1.57 10.5
8/14/2023 11:45:00 AM 20.29 68.522 0.275 8.23 1.45 10.53
8/14/2023 12:00:00 PM 20.44 68.792 0.275 8.26 1.59 10.57
8/14/2023 12:15:00 PM 20.6 69.08 0.275 8.31 1.55 10.6
8/14/2023 12:30:00 PM 20.74 69.332 0.275 8.31 1.48 10.57
8/14/2023 12:45:00 PM 20.9 69.62 0.275 8.35 1.41 10.61
8/14/2023 1:00:00 PM 21.06 69.908 0.275 8.4 1.54 10.67
8/14/2023 1:15:00 PM 21.17 70.106 0.275 8.43 1.57 10.66
8/14/2023 1:30:00 PM 21.35 70.43 0.275 8.46 1.51 10.69
8/14/2023 1:45:00 PM 21.56 70.808 0.276 8.46 1.56 10.61
8/14/2023 2:00:00 PM 21.76 71.168 0.275 8.5 1.63 10.67
8/14/2023 2:15:00 PM 21.92 71.456 0.276 8.54 1.54 10.71
8/14/2023 2:30:00 PM 22.1 71.78 0.276 8.58 1.49 10.72
8/14/2023 2:45:00 PM 22.15 71.87 0.276 8.58 1.62 10.59
8/14/2023 3:00:00 PM 22.18 71.924 0.276 8.57 1.4 10.54
8/14/2023 3:15:00 PM 22.23 72.014 0.276 8.57 1.41 10.47
8/14/2023 3:30:00 PM 22.26 72.068 0.276 8.55 1.46 10.34
8/14/2023 3:45:00 PM 22.27 72.086 0.276 8.51 1.34 10.21
8/14/2023 4:00:00 PM 22.25 72.05 0.276 8.43 1.37 9.93
8/14/2023 4:15:00 PM 22.27 72.086 0.276 8.4 1.31 9.87
8/14/2023 4:30:00 PM 22.38 72.284 0.276 8.44 1.56 10.02
8/14/2023 4:45:00 PM 22.36 72.248 0.276 8.37 1.43 9.76
8/14/2023 5:00:00 PM 22.35 72.23 0.276 8.28 1.58 9.54
8/14/2023 5:15:00 PM 22.37 72.266 0.277 8.23 1.44 9.39
8/14/2023 5:30:00 PM 22.34 72.212 0.276 8.14 1.51 9.17
8/14/2023 5:45:00 PM 22.34 72.212 0.277 8.09 1.58 9.05
8/14/2023 6:00:00 PM 22.33 72.194 0.277 8.05 1.5 8.97
8/14/2023 6:15:00 PM 22.31 72.158 0.277 8.01 1.43 8.89
8/14/2023 6:30:00 PM 22.27 72.086 0.277 7.93 1.53 8.61
8/14/2023 6:45:00 PM 22.28 72.104 0.277 7.9 1.47 8.55
8/14/2023 7:00:00 PM 22.26 72.068 0.277 7.86 1.5 8.44
8/14/2023 7:15:00 PM 22.22 71.996 0.278 7.82 1.37 8.32
8/14/2023 7:30:00 PM 22.21 71.978 0.278 7.79 1.34 8.22
8/14/2023 7:45:00 PM 22.18 71.924 0.278 7.76 1.79 8.14
8/14/2023 8:00:00 PM 22.14 71.852 0.278 7.74 1.43 8.07
8/14/2023 8:15:00 PM 22.13 71.834 0.278 7.73 1.39 8.03
8/14/2023 8:30:00 PM 22.1 71.78 0.278 7.71 1.58 8
8/14/2023 8:45:00 PM 22.07 71.726 0.278 7.7 1.5 7.96
8/14/2023 9:00:00 PM 22.06 71.708 0.278 7.7 1.62 7.97
8/14/2023 9:15:00 PM 22.04 71.672 0.278 7.69 1.63 7.96
8/14/2023 9:30:00 PM 22 71.6 0.278 7.68 1.49 7.94
8/14/2023 9:45:00 PM 21.97 71.546 0.278 7.67 1.56 7.93
8/14/2023 10:00:00 PM 21.96 71.528 0.278 7.67 1.58 7.97
8/14/2023 10:15:00 PM 21.93 71.474 0.278 7.66 1.57 7.95
8/14/2023 10:30:00 PM 21.91 71.438 0.278 7.66 1.57 7.96
8/14/2023 10:45:00 PM 21.89 71.402 0.278 7.66 1.59 7.96
8/14/2023 11:00:00 PM 21.86 71.348 0.278 7.65 1.59 7.97
8/14/2023 11:15:00 PM 21.82 71.276 0.278 7.65 1.45 7.95
8/14/2023 11:30:00 PM 21.81 71.258 0.277 7.66 1.67 7.99
8/14/2023 11:45:00 PM 21.75 71.15 0.276 7.65 1.62 7.96
8/15/2023 12:00:00 AM 21.71 71.078 0.274 7.66 1.8 8
8/15/2023 12:15:00 AM 21.64 70.952 0.272 7.67 2.04 8.06
8/15/2023 12:30:00 AM 21.57 70.826 0.269 7.67 2.35 8.09
8/15/2023 12:45:00 AM 21.49 70.682 0.266 7.67 2.75 8.14
8/15/2023 1:00:00 AM 21.39 70.502 0.263 7.67 4.39 8.21
8/15/2023 1:15:00 AM 21.24 70.232 0.255 7.68 7.79 8.31
8/15/2023 1:30:00 AM 21.08 69.944 0.239 7.67 17.53 8.4
8/15/2023 1:45:00 AM 20.84 69.512 0.215 7.66 44.38 8.53
8/15/2023 2:00:00 AM 20.59 69.062 0.211 7.62 82.08 8.59
8/15/2023 2:15:00 AM 20.33 68.594 0.227 7.6 82.52 8.59
8/15/2023 2:30:00 AM 20.18 68.324 0.206 7.57 127.61 8.66
8/15/2023 2:45:00 AM 20.21 68.378 0.172 7.53 145.86 8.69
8/15/2023 3:00:00 AM 20.31 68.558 0.157 7.51 130.22 8.71
8/15/2023 3:15:00 AM 20.29 68.522 0.153 7.49 115.78 8.73
8/15/2023 3:30:00 AM 20.18 68.324 0.156 7.48 112.5 8.76
8/15/2023 3:45:00 AM 20.07 68.126 0.171 7.49 123.76 8.78
8/15/2023 4:00:00 AM 19.95 67.91 0.195 7.5 128.07 8.82
8/15/2023 4:15:00 AM 19.9 67.82 0.189 7.51 133.57 8.83
8/15/2023 4:30:00 AM 19.96 67.92799 0.176 7.51 121.65 8.82
8/15/2023 4:45:00 AM 20 68 0.173 7.49 104.13 8.81
8/15/2023 5:00:00 AM 20.03 68.054 0.17 7.48 90.43 8.8
8/15/2023 5:15:00 AM 20.06 68.108 0.168 7.47 79.17 8.8
8/15/2023 5:30:00 AM 20.08 68.144 0.167 7.46 101.48 8.79
8/15/2023 5:45:00 AM 20.07 68.126 0.164 7.45 130.92 8.79
8/15/2023 6:00:00 AM 20.06 68.108 0.162 7.45 125.41 8.8
8/15/2023 6:15:00 AM 20.09 68.162 0.163 7.46 97.17 8.8
8/15/2023 6:30:00 AM 20.15 68.27 0.164 7.46 72.07 8.8
8/15/2023 6:45:00 AM 20.24 68.432 0.167 7.47 56.5 8.78
8/15/2023 7:00:00 AM 20.33 68.594 0.169 7.48 49.06 8.75
8/15/2023 7:15:00 AM 20.42 68.756 0.172 7.49 44.34 8.74
8/15/2023 7:30:00 AM 20.51 68.918 0.175 7.5 38.72 8.73
8/15/2023 7:45:00 AM 20.6 69.08 0.177 7.51 36.77 8.72
8/15/2023 8:00:00 AM 20.68 69.224 0.179 7.52 34.83 8.71
8/15/2023 8:15:00 AM 20.78 69.404 0.181 7.53 32.76 8.69
8/15/2023 8:30:00 AM 20.86 69.548 0.182 7.54 31.45 8.68
8/15/2023 8:45:00 AM 20.93 69.674 0.184 7.54 30.23 8.68
8/15/2023 9:00:00 AM 20.99 69.782 0.185 7.56 24.32 8.67
8/15/2023 9:15:00 AM 21.05 69.89 0.187 7.57 26.07 8.67
8/15/2023 9:30:00 AM 21.09 69.962 0.188 7.57 24.3 8.66
8/15/2023 9:45:00 AM 21.14 70.052 0.189 7.58 29.68 8.67
8/15/2023 10:00:00 AM 21.17 70.106 0.191 7.59 21.61 8.66
8/15/2023 10:15:00 AM 21.23 70.214 0.192 7.6 20.72 8.67
8/15/2023 10:30:00 AM 21.31 70.358 0.193 7.61 19.6 8.7
8/15/2023 10:45:00 AM 21.36 70.448 0.194 7.62 22.13 8.69
8/15/2023 11:00:00 AM 21.43 70.574 0.195 7.63 17.35 8.7
8/15/2023 11:15:00 AM 21.5 70.7 0.196 7.63 17.05 8.72
8/15/2023 11:30:00 AM 21.57 70.826 0.197 7.65 16.31 8.73
8/15/2023 11:45:00 AM 21.64 70.952 0.199 7.66 15.43 8.75
8/15/2023 12:00:00 PM 21.68 71.024 0.2 7.66 13.9 8.74
8/15/2023 12:15:00 PM 21.72 71.096 0.201 7.67 13.82 8.71
8/15/2023 12:30:00 PM 21.75 71.15 0.202 7.67 14.71 8.7
8/15/2023 12:45:00 PM 21.78 71.204 0.203 7.68 13.09 8.69
8/15/2023 1:00:00 PM 21.81 71.258 0.203 7.68 12 8.68
8/15/2023 1:15:00 PM 21.84 71.312 0.204 7.69 12.13 8.68
8/15/2023 1:30:00 PM 21.88 71.384 0.205 7.69 11.59 8.7
8/15/2023 1:45:00 PM 21.95 71.51 0.205 7.71 11.96 8.76
8/15/2023 2:00:00 PM 22.03 71.654 0.206 7.72 11.3 8.79
8/15/2023 2:15:00 PM 22.1 71.78 0.206 7.73 11.19 8.8
8/15/2023 2:30:00 PM 22.15 71.87 0.206 7.74 10.51 8.78
8/15/2023 2:45:00 PM 22.17 71.906 0.207 7.73 10.73 8.73
8/15/2023 3:00:00 PM 22.21 71.978 0.208 7.73 10.09 8.73
8/15/2023 3:15:00 PM 22.24 72.032 0.208 7.74 10.47 8.74
8/15/2023 3:30:00 PM 22.25 72.05 0.209 7.74 10.09 8.71
8/15/2023 3:45:00 PM 22.25 72.05 0.209 7.73 9.4 8.68
8/15/2023 4:00:00 PM 22.26 72.068 0.21 7.74 9.06 8.67
8/15/2023 4:15:00 PM 22.29 72.122 0.21 7.74 9.29 8.69
8/15/2023 4:30:00 PM 22.31 72.158 0.21 7.74 8.89 8.71
8/15/2023 4:45:00 PM 22.33 72.194 0.21 7.74 9.42 8.71
8/15/2023 5:00:00 PM 22.34 72.212 0.211 7.74 8.89 8.71
8/15/2023 5:15:00 PM 22.35 72.23 0.211 7.74 8.76 8.7
8/15/2023 5:30:00 PM 22.36 72.248 0.211 7.75 8.28 8.67
8/15/2023 5:45:00 PM 22.37 72.266 0.211 7.74 8.43 8.65
8/15/2023 6:00:00 PM 22.39 72.302 0.211 7.74 8.41 8.64
8/15/2023 6:15:00 PM 22.41 72.338 0.212 7.74 8.21 8.62
8/15/2023 6:30:00 PM 22.43 72.374 0.212 7.73 8.5 8.59
8/15/2023 6:45:00 PM 22.46 72.42799 0.212 7.73 8.45 8.56
8/15/2023 7:00:00 PM 22.46 72.42799 0.212 7.72 8.39 8.52
8/15/2023 7:15:00 PM 22.45 72.41 0.213 7.71 7.74 8.48
8/15/2023 7:30:00 PM 22.44 72.392 0.213 7.7 8.12 8.46
8/15/2023 7:45:00 PM 22.43 72.374 0.213 7.7 7.96 8.43
8/15/2023 8:00:00 PM 22.42 72.356 0.214 7.69 7.61 8.42
8/15/2023 8:15:00 PM 22.4 72.32 0.214 7.69 7.68 8.4
8/15/2023 8:30:00 PM 22.38 72.284 0.214 7.68 7.93 8.39
8/15/2023 8:45:00 PM 22.36 72.248 0.214 7.68 8.02 8.39
8/15/2023 9:00:00 PM 22.33 72.194 0.215 7.67 8.21 8.39
8/15/2023 9:15:00 PM 22.31 72.158 0.215 7.67 7.99 8.39
8/15/2023 9:30:00 PM 22.27 72.086 0.215 7.66 7.63 8.39
8/15/2023 9:45:00 PM 22.19 71.942 0.211 7.67 9.37 8.45
8/15/2023 10:00:00 PM 22.12 71.816 0.209 7.67 13.11 8.46
8/15/2023 10:15:00 PM 22.01 71.618 0.208 7.66 13.18 8.47
8/15/2023 10:30:00 PM 21.93 71.474 0.207 7.65 13.14 8.47
8/15/2023 10:45:00 PM 21.88 71.384 0.208 7.65 11.46 8.48
8/15/2023 11:00:00 PM 21.84 71.312 0.207 7.65 11.96 8.47
8/15/2023 11:15:00 PM 21.76 71.168 0.206 7.65 12.08 8.49
8/15/2023 11:30:00 PM 21.69 71.042 0.205 7.65 13.04 8.5
8/15/2023 11:45:00 PM 21.63 70.934 0.204 7.64 14.88 8.52
8/16/2023 12:00:00 AM 21.57 70.826 0.202 7.64 16.46 8.53
8/16/2023 12:15:00 AM 21.51 70.718 0.201 7.64 16.12 8.54
8/16/2023 12:30:00 AM 21.46 70.628 0.201 7.63 13.96 8.54
8/16/2023 12:45:00 AM 21.4 70.52 0.2 7.63 14.46 8.55
8/16/2023 1:00:00 AM 21.36 70.448 0.2 7.63 13.7 8.55
8/16/2023 1:15:00 AM 21.33 70.394 0.203 7.63 12.65 8.56
8/16/2023 1:30:00 AM 21.3 70.34 0.205 7.63 11.49 8.57
8/16/2023 1:45:00 AM 21.27 70.286 0.206 7.64 9.78 8.58
8/16/2023 2:00:00 AM 21.24 70.232 0.207 7.64 9.3 8.59
8/16/2023 2:15:00 AM 21.21 70.17799 0.208 7.63 8.72 8.6
8/16/2023 2:30:00 AM 21.19 70.142 0.209 7.64 8.4 8.6
8/16/2023 2:45:00 AM 21.18 70.124 0.209 7.64 8.27 8.61
8/16/2023 3:00:00 AM 21.17 70.106 0.21 7.64 7.84 8.61
8/16/2023 3:15:00 AM 21.16 70.088 0.211 7.64 7.51 8.61
8/16/2023 3:30:00 AM 21.15 70.07 0.212 7.63 7.41 8.62
8/16/2023 3:45:00 AM 21.13 70.034 0.213 7.64 7.16 8.61
8/16/2023 4:00:00 AM 21.13 70.034 0.214 7.63 7.17 8.61
8/16/2023 4:15:00 AM 21.13 70.034 0.213 7.63 7.4 8.61
8/16/2023 4:30:00 AM 21.13 70.034 0.214 7.63 7.21 8.61
8/16/2023 4:45:00 AM 21.13 70.034 0.214 7.64 7.01 8.61
8/16/2023 5:00:00 AM 21.13 70.034 0.215 7.63 7.37 8.61
8/16/2023 5:15:00 AM 21.13 70.034 0.215 7.63 7.22 8.61
8/16/2023 5:30:00 AM 21.13 70.034 0.215 7.63 6.79 8.61
8/16/2023 5:45:00 AM 21.13 70.034 0.215 7.63 7.08 8.61
8/16/2023 6:00:00 AM 21.14 70.052 0.215 7.63 7.12 8.61
8/16/2023 6:15:00 AM 21.14 70.052 0.215 7.63 6.72 8.61
8/16/2023 6:30:00 AM 21.14 70.052 0.215 7.63 6.99 8.61
8/16/2023 6:45:00 AM 21.14 70.052 0.215 7.63 6.81 8.62
8/16/2023 7:00:00 AM 21.14 70.052 0.215 7.63 6.71 8.64
8/16/2023 7:15:00 AM 21.15 70.07 0.215 7.64 6.58 8.65
8/16/2023 7:30:00 AM 21.15 70.07 0.215 7.64 6.83 8.66
8/16/2023 7:45:00 AM 21.16 70.088 0.214 7.64 6.37 8.67
8/16/2023 8:00:00 AM 21.18 70.124 0.214 7.65 6.19 8.68
8/16/2023 8:15:00 AM 21.19 70.142 0.214 7.66 5.85 8.7
8/16/2023 8:30:00 AM 21.2 70.16 0.214 7.67 5.97 8.74
8/16/2023 8:45:00 AM 21.23 70.214 0.214 7.68 5.63 8.78
8/16/2023 9:00:00 AM 21.26 70.268 0.214 7.69 5.73 8.83
8/16/2023 9:15:00 AM 21.29 70.32201 0.214 7.7 5.66 8.88
8/16/2023 9:30:00 AM 21.33 70.394 0.214 7.71 5.45 8.91
8/16/2023 9:45:00 AM 21.36 70.448 0.214 7.72 5.3 8.93
8/16/2023 10:00:00 AM 21.39 70.502 0.215 7.74 5.33 8.97
8/16/2023 10:15:00 AM 21.43 70.574 0.215 7.74 5.47 8.98
8/16/2023 10:30:00 AM 21.48 70.664 0.215 7.75 5.31 8.98
8/16/2023 10:45:00 AM 21.54 70.772 0.215 7.75 5.02 8.97
8/16/2023 11:00:00 AM 21.61 70.898 0.215 7.76 4.9 8.97
8/16/2023 11:15:00 AM 21.7 71.06 0.215 7.77 4.97 8.98
8/16/2023 11:30:00 AM 21.79 71.222 0.215 7.78 4.84 9
8/16/2023 11:45:00 AM 21.88 71.384 0.215 7.78 5.16 9
8/16/2023 12:00:00 PM 21.99 71.582 0.216 7.79 4.8 9.01
8/16/2023 12:15:00 PM 22.11 71.798 0.216 7.81 4.97 9.06
8/16/2023 12:30:00 PM 22.19 71.942 0.216 7.82 4.72 9.04
8/16/2023 12:45:00 PM 22.26 72.068 0.216 7.82 4.74 9.02
8/16/2023 1:00:00 PM 22.31 72.158 0.216 7.82 4.81 9
8/16/2023 1:15:00 PM 22.42 72.356 0.216 7.83 4.52 9.01
8/16/2023 1:30:00 PM 22.51 72.518 0.216 7.84 4.64 9.01
8/16/2023 1:45:00 PM 22.53 72.554 0.217 7.83 4.8 8.95
8/16/2023 2:00:00 PM 22.55 72.59 0.217 7.81 4.66 8.87
8/16/2023 2:15:00 PM 22.56 72.608 0.217 7.8 4.64 8.81
8/16/2023 2:30:00 PM 22.62 72.716 0.217 7.8 4.65 8.83
8/16/2023 2:45:00 PM 22.67 72.806 0.217 7.8 4.81 8.83
8/16/2023 3:00:00 PM 22.8 73.04 0.217 7.82 4.71 8.9
8/16/2023 3:15:00 PM 22.87 73.166 0.217 7.83 4.42 8.91
8/16/2023 3:30:00 PM 22.88 73.184 0.217 7.83 4.57 8.89
8/16/2023 3:45:00 PM 22.92 73.256 0.218 7.83 4.9 8.86
8/16/2023 4:00:00 PM 22.95 73.31 0.218 7.82 4.47 8.83
8/16/2023 4:15:00 PM 22.94 73.292 0.218 7.81 4.45 8.79
8/16/2023 4:30:00 PM 22.92 73.256 0.218 7.8 4.43 8.76
8/16/2023 4:45:00 PM 22.89 73.202 0.218 7.79 4.61 8.71
8/16/2023 5:00:00 PM 22.86 73.148 0.218 7.8 4.44 8.72
8/16/2023 5:15:00 PM 22.81 73.058 0.219 7.78 4.54 8.69
8/16/2023 5:30:00 PM 22.75 72.95 0.219 7.77 4.56 8.64
8/16/2023 5:45:00 PM 22.69 72.842 0.219 7.75 4.56 8.56
8/16/2023 6:00:00 PM 22.66 72.788 0.22 7.74 4.35 8.53
8/16/2023 6:15:00 PM 22.63 72.734 0.22 7.73 4.53 8.51
8/16/2023 6:30:00 PM 22.59 72.662 0.22 7.73 4.31 8.51
8/16/2023 6:45:00 PM 22.57 72.626 0.22 7.72 4.45 8.53
8/16/2023 7:00:00 PM 22.53 72.554 0.22 7.72 4.31 8.52
8/16/2023 7:15:00 PM 22.48 72.464 0.22 7.71 4.26 8.48
8/16/2023 7:30:00 PM 22.42 72.356 0.22 7.7 4.43 8.46
8/16/2023 7:45:00 PM 22.36 72.248 0.22 7.69 4.3 8.43
8/16/2023 8:00:00 PM 22.3 72.14 0.221 7.68 4.63 8.42
8/16/2023 8:15:00 PM 22.26 72.068 0.221 7.67 4.81 8.41
8/16/2023 8:30:00 PM 22.22 71.996 0.221 7.67 4.9 8.39
8/16/2023 8:45:00 PM 22.18 71.924 0.221 7.67 4.84 8.39
8/16/2023 9:00:00 PM 22.14 71.852 0.221 7.66 4.72 8.39
8/16/2023 9:15:00 PM 22.09 71.762 0.221 7.66 4.75 8.38
8/16/2023 9:30:00 PM 22.05 71.69 0.221 7.66 5.06 8.39
8/16/2023 9:45:00 PM 22.01 71.618 0.221 7.66 4.94 8.4
8/16/2023 10:00:00 PM 21.97 71.546 0.221 7.65 4.99 8.4
8/16/2023 10:15:00 PM 21.93 71.474 0.221 7.65 5.07 8.4
8/16/2023 10:30:00 PM 21.89 71.402 0.221 7.65 4.76 8.41
8/16/2023 10:45:00 PM 21.86 71.348 0.222 7.65 4.77 8.41
8/16/2023 11:00:00 PM 21.83 71.294 0.221 7.64 5.07 8.43
8/16/2023 11:15:00 PM 21.79 71.222 0.222 7.64 4.59 8.43
8/16/2023 11:30:00 PM 21.76 71.168 0.222 7.64 4.73 8.44
8/16/2023 11:45:00 PM 21.72 71.096 0.222 7.64 4.65 8.44
8/17/2023 12:00:00 AM 21.69 71.042 0.222 7.64 4.63 8.45
8/17/2023 12:15:00 AM 21.65 70.97 0.222 7.64 4.39 8.45
8/17/2023 12:30:00 AM 21.61 70.898 0.222 7.65 4.36 8.45
8/17/2023 12:45:00 AM 21.58 70.844 0.222 7.64 4.4 8.45
8/17/2023 1:00:00 AM 21.55 70.79 0.222 7.64 4.21 8.47
8/17/2023 1:15:00 AM 21.52 70.736 0.222 7.64 4.47 8.48
8/17/2023 1:30:00 AM 21.5 70.7 0.222 7.64 4.24 8.48
8/17/2023 1:45:00 AM 21.46 70.628 0.222 7.64 4.33 8.49
8/17/2023 2:00:00 AM 21.43 70.574 0.222 7.64 4.45 8.5
8/17/2023 2:15:00 AM 21.4 70.52 0.222 7.64 4.35 8.5
8/17/2023 2:30:00 AM 21.37 70.466 0.222 7.64 4.31 8.51
8/17/2023 2:45:00 AM 21.35 70.43 0.222 7.64 4.15 8.51
8/17/2023 3:00:00 AM 21.32 70.376 0.222 7.64 4.25 8.51
8/17/2023 3:15:00 AM 21.3 70.34 0.222 7.64 4.14 8.51
8/17/2023 3:30:00 AM 21.27 70.286 0.222 7.63 4.21 8.52
8/17/2023 3:45:00 AM 21.25 70.25 0.223 7.63 4.18 8.52
8/17/2023 4:00:00 AM 21.21 70.17799 0.223 7.64 4.06 8.52
8/17/2023 4:15:00 AM 21.18 70.124 0.223 7.64 4.17 8.53
8/17/2023 4:30:00 AM 21.15 70.07 0.222 7.64 4.08 8.54
8/17/2023 4:45:00 AM 21.12 70.016 0.222 7.63 3.94 8.54
8/17/2023 5:00:00 AM 21.08 69.944 0.223 7.64 3.76 8.55
8/17/2023 5:15:00 AM 21.05 69.89 0.222 7.63 4.09 8.56
8/17/2023 5:30:00 AM 21.01 69.818 0.223 7.63 3.95 8.57
8/17/2023 5:45:00 AM 20.97 69.746 0.223 7.63 4.17 8.58
8/17/2023 6:00:00 AM 20.93 69.674 0.229 7.63 4.14 8.58
8/17/2023 6:15:00 AM 20.89 69.602 0.226 7.63 4.37 8.59
8/17/2023 6:30:00 AM 20.84 69.512 0.225 7.63 4.03 8.59
8/17/2023 6:45:00 AM 20.81 69.458 0.225 7.63 4.03 8.62
8/17/2023 7:00:00 AM 20.78 69.404 0.224 7.64 3.82 8.64
8/17/2023 7:15:00 AM 20.75 69.35 0.224 7.64 3.84 8.67
8/17/2023 7:30:00 AM 20.74 69.332 0.223 7.65 3.48 8.71
8/17/2023 7:45:00 AM 20.72 69.296 0.223 7.65 3.67 8.76
8/17/2023 8:00:00 AM 20.72 69.296 0.223 7.66 3.88 8.79
8/17/2023 8:15:00 AM 20.73 69.314 0.223 7.67 3.55 8.83
8/17/2023 8:30:00 AM 20.74 69.332 0.223 7.68 3.33 8.86
8/17/2023 8:45:00 AM 20.77 69.386 0.223 7.69 3.43 8.89
8/17/2023 9:00:00 AM 20.81 69.458 0.223 7.71 3.3 8.92
8/17/2023 9:15:00 AM 20.83 69.494 0.222 7.72 3.44 8.93
8/17/2023 9:30:00 AM 20.87 69.566 0.223 7.73 3.3 8.94
8/17/2023 9:45:00 AM 20.94 69.692 0.224 7.74 3.04 9.01
8/17/2023 10:00:00 AM 21.03 69.854 0.223 7.76 3.11 9.08
8/17/2023 10:15:00 AM 21.12 70.016 0.223 7.78 3.27 9.1
8/17/2023 10:30:00 AM 21.2 70.16 0.223 7.79 3.22 9.1
8/17/2023 10:45:00 AM 21.32 70.376 0.223 7.81 3.3 9.19
8/17/2023 11:00:00 AM 21.42 70.556 0.224 7.84 3.15 9.25
8/17/2023 11:15:00 AM 21.54 70.772 0.223 7.86 3.1 9.3
8/17/2023 11:30:00 AM 21.67 71.006 0.224 7.88 2.94 9.34
8/17/2023 11:45:00 AM 21.76 71.168 0.226 7.91 2.99 9.37
8/17/2023 12:00:00 PM 21.84 71.312 0.226 7.92 2.99 9.36
8/17/2023 12:15:00 PM 21.92 71.456 0.226 7.93 3.01 9.34
8/17/2023 12:30:00 PM 22.02 71.636 0.226 7.94 3.4 9.37
8/17/2023 12:45:00 PM 22.09 71.762 0.226 7.95 3.01 9.37
8/17/2023 1:00:00 PM 22.14 71.852 0.226 7.95 3.14 9.31
8/17/2023 1:15:00 PM 22.17 71.906 0.226 7.93 3.12 9.2
8/17/2023 1:30:00 PM 22.23 72.014 0.226 7.92 3.11 9.15
8/17/2023 1:45:00 PM 22.27 72.086 0.226 7.92 3.17 9.13
8/17/2023 2:00:00 PM 22.34 72.212 0.226 7.92 3.08 9.13
8/17/2023 2:15:00 PM 22.47 72.446 0.226 7.94 2.92 9.21
8/17/2023 2:30:00 PM 22.57 72.626 0.226 7.94 3 9.18
8/17/2023 2:45:00 PM 22.69 72.842 0.226 7.95 2.87 9.17
8/17/2023 3:00:00 PM 22.73 72.914 0.226 7.94 2.94 9.11
8/17/2023 3:15:00 PM 22.71 72.878 0.226 7.9 3.01 8.95
8/17/2023 3:30:00 PM 22.71 72.878 0.226 7.89 2.9 8.91
8/17/2023 3:45:00 PM 22.75 72.95 0.226 7.89 2.95 8.93
8/17/2023 4:00:00 PM 22.76 72.968 0.227 7.88 2.78 8.92
8/17/2023 4:15:00 PM 22.84 73.112 0.227 7.9 3.73 9
8/17/2023 4:30:00 PM 22.84 73.112 0.227 7.9 2.97 8.95
8/17/2023 4:45:00 PM 22.84 73.112 0.227 7.89 2.84 8.9
8/17/2023 5:00:00 PM 22.81 73.058 0.227 7.88 2.83 8.86
8/17/2023 5:15:00 PM 22.78 73.004 0.227 7.86 2.72 8.79
8/17/2023 5:30:00 PM 22.74 72.932 0.227 7.85 2.78 8.74
8/17/2023 5:45:00 PM 22.7 72.86 0.227 7.83 2.88 8.71
8/17/2023 6:00:00 PM 22.65 72.77 0.227 7.82 2.99 8.64
8/17/2023 6:15:00 PM 22.59 72.662 0.227 7.81 2.79 8.62
8/17/2023 6:30:00 PM 22.53 72.554 0.227 7.79 3.17 8.55
8/17/2023 6:45:00 PM 22.5 72.5 0.227 7.78 2.86 8.54
8/17/2023 7:00:00 PM 22.46 72.42799 0.227 7.76 3.16 8.5
8/17/2023 7:15:00 PM 22.42 72.356 0.227 7.75 2.94 8.47
8/17/2023 7:30:00 PM 22.36 72.248 0.227 7.74 2.7 8.43
8/17/2023 7:45:00 PM 22.29 72.122 0.227 7.72 2.83 8.4
8/17/2023 8:00:00 PM 22.23 72.014 0.227 7.71 2.84 8.37
8/17/2023 8:15:00 PM 22.16 71.888 0.227 7.7 2.86 8.35
8/17/2023 8:30:00 PM 22.1 71.78 0.226 7.69 3.27 8.34
8/17/2023 8:45:00 PM 22.03 71.654 0.227 7.68 3.05 8.33
8/17/2023 9:00:00 PM 21.97 71.546 0.227 7.68 3.12 8.34
8/17/2023 9:15:00 PM 21.91 71.438 0.227 7.67 3.17 8.33
8/17/2023 9:30:00 PM 21.85 71.33 0.228 7.67 3.61 8.33
8/17/2023 9:45:00 PM 21.81 71.258 0.228 7.67 3.59 8.33
8/17/2023 10:00:00 PM 21.77 71.186 0.229 7.67 3.44 8.34
8/17/2023 10:15:00 PM 21.73 71.114 0.229 7.66 3.04 8.34
8/17/2023 10:30:00 PM 21.72 71.096 0.229 7.66 3.4 8.34
8/17/2023 10:45:00 PM 21.72 71.096 0.229 7.66 3.27 8.33
8/17/2023 11:00:00 PM 21.73 71.114 0.229 7.66 3.34 8.33
8/17/2023 11:15:00 PM 21.73 71.114 0.229 7.66 3.32 8.32
8/17/2023 11:30:00 PM 21.74 71.132 0.229 7.66 3.53 8.32
8/17/2023 11:45:00 PM 21.74 71.132 0.229 7.66 3.3 8.31
8/18/2023 12:00:00 AM 21.73 71.114 0.23 7.66 3.1 8.32
8/18/2023 12:15:00 AM 21.72 71.096 0.23 7.66 3.11 8.32
8/18/2023 12:30:00 AM 21.73 71.114 0.229 7.67 3.34 8.31
8/18/2023 12:45:00 AM 21.74 71.132 0.229 7.66 3.21 8.31
8/18/2023 1:00:00 AM 21.74 71.132 0.229 7.66 2.98 8.31
8/18/2023 1:15:00 AM 21.75 71.15 0.229 7.66 4.32 8.31
8/18/2023 1:30:00 AM 21.75 71.15 0.228 7.67 3.27 8.31
8/18/2023 1:45:00 AM 21.76 71.168 0.228 7.67 3.2 8.3
8/18/2023 2:00:00 AM 21.75 71.15 0.227 7.67 3.22 8.31
8/18/2023 2:15:00 AM 21.7 71.06 0.225 7.67 3.43 8.33
8/18/2023 2:30:00 AM 21.48 70.664 0.21 7.7 5.49 8.53
8/18/2023 2:45:00 AM 21.22 70.196 0.199 7.68 54.89 8.62
8/18/2023 3:00:00 AM 20.81 69.458 0.158 7.6 138.98 8.74
8/18/2023 3:15:00 AM 20.56 69.008 0.155 7.54 123.56 8.77
8/18/2023 3:30:00 AM 20.45 68.81 0.161 7.52 116.11 8.74
8/18/2023 3:45:00 AM 20.23 68.414 0.14 7.47 173.39 8.78
8/18/2023 4:00:00 AM 20.21 68.378 0.13 7.42 176.49 8.78
8/18/2023 4:15:00 AM 20.2 68.36 0.127 7.43 189.17 8.8
8/18/2023 4:30:00 AM 20.04 68.07201 0.115 7.43 190.27 8.84
8/18/2023 4:45:00 AM 19.88 67.784 0.111 7.41 178.34 8.87
8/18/2023 5:00:00 AM 19.78 67.604 0.114 7.41 135.68 8.88
8/18/2023 5:15:00 AM 19.75 67.55 0.116 7.42 100.95 8.89
8/18/2023 5:30:00 AM 19.76 67.568 0.123 7.42 79.62 8.88
8/18/2023 5:45:00 AM 19.77 67.586 0.134 7.44 62.71 8.89
8/18/2023 6:00:00 AM 19.77 67.586 0.145 7.46 52.7 8.88
8/18/2023 6:15:00 AM 19.74 67.532 0.155 7.48 50 8.9
8/18/2023 6:30:00 AM 19.7 67.46 0.161 7.49 50.95 8.91
8/18/2023 6:45:00 AM 19.68 67.424 0.162 7.5 52.7 8.92
8/18/2023 7:00:00 AM 19.7 67.46 0.161 7.5 49.06 8.9
8/18/2023 7:15:00 AM 19.72 67.496 0.161 7.51 43.37 8.89
8/18/2023 7:30:00 AM 19.73 67.514 0.161 7.51 37.02 8.9
8/18/2023 7:45:00 AM 19.72 67.496 0.16 7.51 33.54 8.9
8/18/2023 8:00:00 AM 19.71 67.478 0.16 7.52 29.42 8.91
8/18/2023 8:15:00 AM 19.71 67.478 0.16 7.52 26.86 8.92
8/18/2023 8:30:00 AM 19.71 67.478 0.16 7.52 24.71 8.93
8/18/2023 8:45:00 AM 19.72 67.496 0.161 7.53 22.54 8.93
8/18/2023 9:00:00 AM 19.74 67.532 0.161 7.54 21.05 8.94
8/18/2023 9:15:00 AM 19.77 67.586 0.162 7.54 19.76 8.94
8/18/2023 9:30:00 AM 19.81 67.658 0.163 7.56 18.4 8.95
8/18/2023 9:45:00 AM 19.87 67.766 0.164 7.57 17.46 8.97
8/18/2023 10:00:00 AM 19.95 67.91 0.166 7.58 16.88 8.97
8/18/2023 10:15:00 AM 20.05 68.09 0.167 7.58 14.95 8.97
8/18/2023 10:30:00 AM 20.16 68.288 0.168 7.6 15.43 8.96
8/18/2023 10:45:00 AM 20.25 68.45 0.169 7.6 14.7 8.96
8/18/2023 11:00:00 AM 20.34 68.612 0.17 7.61 13.79 8.96
8/18/2023 11:15:00 AM 20.45 68.81 0.171 7.62 14.08 8.95
8/18/2023 11:30:00 AM 20.53 68.954 0.171 7.62 13.06 8.95
8/18/2023 11:45:00 AM 20.59 69.062 0.172 7.62 12.42 8.94
8/18/2023 12:00:00 PM 20.64 69.152 0.173 7.63 12.2 8.96
8/18/2023 12:15:00 PM 20.73 69.314 0.174 7.64 11.3 9
8/18/2023 12:30:00 PM 20.74 69.332 0.175 7.64 11.41 8.97
8/18/2023 12:45:00 PM 20.73 69.314 0.176 7.64 10.9 8.94
8/18/2023 1:00:00 PM 20.71 69.278 0.177 7.64 10.15 8.96
8/18/2023 1:15:00 PM 20.75 69.35 0.178 7.65 10.21 9.01
8/18/2023 1:30:00 PM 20.77 69.386 0.177 7.66 10.37 9.04
8/18/2023 1:45:00 PM 20.78 69.404 0.178 7.67 9.66 9.04
8/18/2023 2:00:00 PM 20.84 69.512 0.178 7.67 9.02 9.07
8/18/2023 2:15:00 PM 20.88 69.584 0.178 7.68 8.92 9.08
8/18/2023 2:30:00 PM 20.88 69.584 0.178 7.68 8.45 9.05
8/18/2023 2:45:00 PM 20.9 69.62 0.178 7.69 8.57 9.06
8/18/2023 3:00:00 PM 20.94 69.692 0.179 7.69 8.17 9.06
8/18/2023 3:15:00 PM 20.98 69.764 0.179 7.69 7.94 9.05
8/18/2023 3:30:00 PM 20.98 69.764 0.179 7.69 8.11 9.02
8/18/2023 3:45:00 PM 21.01 69.818 0.18 7.7 7.69 9.02
8/18/2023 4:00:00 PM 21.03 69.854 0.18 7.7 7.57 9.02
8/18/2023 4:15:00 PM 21.03 69.854 0.181 7.7 7.04 8.98
8/18/2023 4:30:00 PM 21.02 69.836 0.181 7.69 7.43 8.96
8/18/2023 4:45:00 PM 21.01 69.818 0.182 7.69 7.24 8.93
8/18/2023 5:00:00 PM 20.96 69.728 0.182 7.68 6.96 8.9
8/18/2023 5:15:00 PM 20.91 69.638 0.182 7.67 7.12 8.87
8/18/2023 5:30:00 PM 20.86 69.548 0.183 7.67 7.01 8.85
8/18/2023 5:45:00 PM 20.82 69.476 0.183 7.67 6.77 8.83
8/18/2023 6:00:00 PM 20.78 69.404 0.183 7.66 7.07 8.81
8/18/2023 6:15:00 PM 20.75 69.35 0.183 7.65 6.81 8.8
8/18/2023 6:30:00 PM 20.72 69.296 0.183 7.65 6.69 8.81
8/18/2023 6:45:00 PM 20.69 69.242 0.183 7.65 7.07 8.82
8/18/2023 7:00:00 PM 20.64 69.152 0.184 7.64 6.9 8.81
8/18/2023 7:15:00 PM 20.58 69.044 0.184 7.64 6.6 8.8
8/18/2023 7:30:00 PM 20.52 68.936 0.184 7.64 6.49 8.79
8/18/2023 7:45:00 PM 20.46 68.828 0.184 7.63 6.6 8.79
8/18/2023 8:00:00 PM 20.42 68.756 0.184 7.63 6.47 8.79
8/18/2023 8:15:00 PM 20.39 68.702 0.184 7.62 6.5 8.78
8/18/2023 8:30:00 PM 20.38 68.684 0.184 7.63 6.51 8.78
8/18/2023 8:45:00 PM 20.37 68.666 0.184 7.63 6.65 8.77
8/18/2023 9:00:00 PM 20.37 68.666 0.184 7.62 6.92 8.76
8/18/2023 9:15:00 PM 20.38 68.684 0.185 7.62 6.74 8.75
8/18/2023 9:30:00 PM 20.39 68.702 0.185 7.62 6.72 8.75
8/18/2023 9:45:00 PM 20.39 68.702 0.185 7.62 6.59 8.74
8/18/2023 10:00:00 PM 20.39 68.702 0.185 7.63 6.63 8.75
8/18/2023 10:15:00 PM 20.39 68.702 0.185 7.62 6.53 8.74
8/18/2023 10:30:00 PM 20.39 68.702 0.186 7.63 6.46 8.74
8/18/2023 10:45:00 PM 20.39 68.702 0.186 7.63 6.42 8.75
8/18/2023 11:00:00 PM 20.38 68.684 0.186 7.63 6.02 8.75
8/18/2023 11:15:00 PM 20.37 68.666 0.187 7.63 6.32 8.75
8/18/2023 11:30:00 PM 20.37 68.666 0.187 7.63 5.84 8.75
8/18/2023 11:45:00 PM 20.36 68.648 0.187 7.63 5.82 8.75
8/19/2023 12:00:00 AM 20.36 68.648 0.188 7.63 5.98 8.76
8/19/2023 12:15:00 AM 20.35 68.63 0.188 7.63 5.98 8.75
8/19/2023 12:30:00 AM 20.34 68.612 0.188 7.63 5.84 8.76
8/19/2023 12:45:00 AM 20.32 68.576 0.188 7.63 5.72 8.77
8/19/2023 1:00:00 AM 20.3 68.54 0.188 7.63 5.9 8.78
8/19/2023 1:15:00 AM 20.27 68.486 0.188 7.63 5.76 8.79
8/19/2023 1:30:00 AM 20.22 68.396 0.188 7.63 5.42 8.79
8/19/2023 1:45:00 AM 20.18 68.324 0.188 7.63 5.66 8.8
8/19/2023 2:00:00 AM 20.13 68.234 0.188 7.63 5.84 8.8
8/19/2023 2:15:00 AM 20.09 68.162 0.188 7.63 5.15 8.81
8/19/2023 2:30:00 AM 20.04 68.07201 0.188 7.63 5.17 8.82
8/19/2023 2:45:00 AM 20 68 0.188 7.63 5.18 8.83
8/19/2023 3:00:00 AM 19.95 67.91 0.189 7.63 5.25 8.85
8/19/2023 3:15:00 AM 19.91 67.838 0.189 7.63 5.12 8.85
8/19/2023 3:30:00 AM 19.88 67.784 0.189 7.62 5.05 8.86
8/19/2023 3:45:00 AM 19.85 67.73 0.189 7.62 5.02 8.86
8/19/2023 4:00:00 AM 19.82 67.676 0.189 7.62 5.08 8.87
8/19/2023 4:15:00 AM 19.78 67.604 0.189 7.63 5.17 8.88
8/19/2023 4:30:00 AM 19.75 67.55 0.189 7.63 4.92 8.87
8/19/2023 4:45:00 AM 19.72 67.496 0.189 7.63 4.91 8.87
8/19/2023 5:00:00 AM 19.69 67.442 0.189 7.63 4.75 8.88
8/19/2023 5:15:00 AM 19.67 67.406 0.19 7.63 4.93 8.89
8/19/2023 5:30:00 AM 19.64 67.352 0.19 7.63 5.07 8.89
8/19/2023 5:45:00 AM 19.61 67.298 0.19 7.63 4.58 8.89
8/19/2023 6:00:00 AM 19.59 67.262 0.19 7.63 4.92 8.9
8/19/2023 6:15:00 AM 19.55 67.19 0.19 7.63 4.97 8.91
8/19/2023 6:30:00 AM 19.51 67.118 0.19 7.63 4.89 8.92
8/19/2023 6:45:00 AM 19.48 67.064 0.19 7.63 4.93 8.94
8/19/2023 7:00:00 AM 19.44 66.992 0.191 7.63 4.63 8.96
8/19/2023 7:15:00 AM 19.41 66.938 0.191 7.64 4.7 8.98
8/19/2023 7:30:00 AM 19.39 66.902 0.191 7.64 4.73 9.01
8/19/2023 7:45:00 AM 19.36 66.848 0.191 7.65 4.67 9.04
8/19/2023 8:00:00 AM 19.33 66.794 0.191 7.65 4.59 9.05
8/19/2023 8:15:00 AM 19.32 66.776 0.191 7.66 4.44 9.08
8/19/2023 8:30:00 AM 19.31 66.758 0.191 7.66 4.29 9.13
8/19/2023 8:45:00 AM 19.28 66.704 0.191 7.66 4.38 9.14
8/19/2023 9:00:00 AM 19.29 66.722 0.191 7.67 4.32 9.17
8/19/2023 9:15:00 AM 19.3 66.74 0.191 7.68 4.3 9.19
8/19/2023 9:30:00 AM 19.31 66.758 0.191 7.68 4.16 9.2
8/19/2023 9:45:00 AM 19.34 66.812 0.191 7.69 4.1 9.24
8/19/2023 10:00:00 AM 19.38 66.884 0.191 7.69 4.12 9.25
8/19/2023 10:15:00 AM 19.43 66.974 0.191 7.7 4.23 9.28
8/19/2023 10:30:00 AM 19.5 67.1 0.192 7.71 4.04 9.3
8/19/2023 10:45:00 AM 19.59 67.262 0.192 7.73 3.87 9.33
8/19/2023 11:00:00 AM 19.68 67.424 0.192 7.74 3.91 9.35
8/19/2023 11:15:00 AM 19.75 67.55 0.192 7.74 3.87 9.37
8/19/2023 11:30:00 AM 19.86 67.748 0.192 7.75 3.94 9.39
8/19/2023 11:45:00 AM 19.97 67.946 0.192 7.76 3.98 9.41
8/19/2023 12:00:00 PM 20.1 68.18 0.193 7.78 3.87 9.42
8/19/2023 12:15:00 PM 20.18 68.324 0.193 7.79 3.96 9.43
8/19/2023 12:30:00 PM 20.3 68.54 0.193 7.8 3.92 9.42
8/19/2023 12:45:00 PM 20.44 68.792 0.193 7.81 3.77 9.4
8/19/2023 1:00:00 PM 20.57 69.026 0.193 7.81 3.79 9.41
8/19/2023 1:15:00 PM 20.7 69.26 0.193 7.82 3.72 9.41
8/19/2023 1:30:00 PM 20.8 69.44 0.193 7.82 3.77 9.38
8/19/2023 1:45:00 PM 20.94 69.692 0.193 7.83 3.79 9.4
8/19/2023 2:00:00 PM 21.02 69.836 0.193 7.83 3.68 9.36
8/19/2023 2:15:00 PM 21.12 70.016 0.193 7.84 3.77 9.36
8/19/2023 2:30:00 PM 21.18 70.124 0.196 7.84 3.55 9.33
8/19/2023 2:45:00 PM 21.2 70.16 0.197 7.83 3.63 9.28
8/19/2023 3:00:00 PM 21.23 70.214 0.199 7.83 3.52 9.27
8/19/2023 3:15:00 PM 21.26 70.268 0.198 7.82 3.52 9.24
8/19/2023 3:30:00 PM 21.27 70.286 0.199 7.82 3.56 9.22
8/19/2023 3:45:00 PM 21.25 70.25 0.199 7.81 3.63 9.19
8/19/2023 4:00:00 PM 21.22 70.196 0.198 7.8 3.59 9.15
8/19/2023 4:15:00 PM 21.18 70.124 0.198 7.8 3.62 9.13
8/19/2023 4:30:00 PM 21.13 70.034 0.199 7.79 3.64 9.1
8/19/2023 4:45:00 PM 21.08 69.944 0.199 7.78 3.61 9.08
8/19/2023 5:00:00 PM 21.03 69.854 0.198 7.77 3.53 9.06
8/19/2023 5:15:00 PM 20.98 69.764 0.197 7.76 3.69 9.04
8/19/2023 5:30:00 PM 20.94 69.692 0.197 7.75 3.87 9.01
8/19/2023 5:45:00 PM 20.91 69.638 0.197 7.75 3.69 8.98
8/19/2023 6:00:00 PM 20.87 69.566 0.196 7.74 3.62 8.94
8/19/2023 6:15:00 PM 20.83 69.494 0.197 7.73 3.58 8.91
8/19/2023 6:30:00 PM 20.78 69.404 0.197 7.72 3.67 8.89
8/19/2023 6:45:00 PM 20.72 69.296 0.195 7.71 3.99 8.87
8/19/2023 7:00:00 PM 20.66 69.188 0.194 7.69 3.74 8.85
8/19/2023 7:15:00 PM 20.6 69.08 0.193 7.69 3.6 8.83
8/19/2023 7:30:00 PM 20.54 68.972 0.193 7.68 3.66 8.81
8/19/2023 7:45:00 PM 20.48 68.864 0.193 7.67 4.06 8.79
8/19/2023 8:00:00 PM 20.43 68.774 0.194 7.66 3.79 8.77
8/19/2023 8:15:00 PM 20.39 68.702 0.194 7.66 3.95 8.75
8/19/2023 8:30:00 PM 20.34 68.612 0.195 7.66 3.98 8.74
8/19/2023 8:45:00 PM 20.3 68.54 0.195 7.65 4.14 8.74
8/19/2023 9:00:00 PM 20.25 68.45 0.195 7.65 3.99 8.75
8/19/2023 9:15:00 PM 20.19 68.342 0.196 7.64 3.97 8.76
8/19/2023 9:30:00 PM 20.12 68.216 0.196 7.64 3.88 8.76
8/19/2023 9:45:00 PM 20.06 68.108 0.196 7.63 3.93 8.76
8/19/2023 10:00:00 PM 19.99 67.982 0.196 7.63 4.02 8.77
8/19/2023 10:15:00 PM 19.93 67.874 0.196 7.63 3.83 8.79
8/19/2023 10:30:00 PM 19.87 67.766 0.197 7.63 3.95 8.81
8/19/2023 10:45:00 PM 19.81 67.658 0.197 7.63 4.1 8.82
8/19/2023 11:00:00 PM 19.76 67.568 0.197 7.62 3.81 8.83
8/19/2023 11:15:00 PM 19.71 67.478 0.197 7.63 3.93 8.83
8/19/2023 11:30:00 PM 19.67 67.406 0.198 7.62 4.17 8.84
8/19/2023 11:45:00 PM 19.63 67.334 0.198 7.62 4.05 8.85
8/20/2023 12:00:00 AM 19.6 67.28 0.198 7.63 4.03 8.84
8/20/2023 12:15:00 AM 19.57 67.226 0.198 7.62 3.88 8.85
8/20/2023 12:30:00 AM 19.54 67.172 0.199 7.63 3.64 8.88
8/20/2023 12:45:00 AM 19.5 67.1 0.199 7.62 3.77 8.88
8/20/2023 1:00:00 AM 19.47 67.046 0.199 7.62 3.89 8.89
8/20/2023 1:15:00 AM 19.44 66.992 0.199 7.62 3.7 8.89
8/20/2023 1:30:00 AM 19.4 66.92 0.199 7.62 3.93 8.91
8/20/2023 1:45:00 AM 19.37 66.866 0.199 7.62 3.68 8.92
8/20/2023 2:00:00 AM 19.33 66.794 0.199 7.62 3.95 8.91
8/20/2023 2:15:00 AM 19.29 66.722 0.199 7.62 4.27 8.91
8/20/2023 2:30:00 AM 19.26 66.668 0.2 7.62 3.64 8.93
8/20/2023 2:45:00 AM 19.22 66.596 0.2 7.61 3.63 8.93
8/20/2023 3:00:00 AM 19.19 66.542 0.2 7.62 3.72 8.94
8/20/2023 3:15:00 AM 19.15 66.47 0.201 7.62 3.56 8.95
8/20/2023 3:30:00 AM 19.12 66.416 0.201 7.62 3.62 8.96
8/20/2023 3:45:00 AM 19.08 66.344 0.201 7.62 3.52 8.97
8/20/2023 4:00:00 AM 19.03 66.254 0.201 7.62 3.76 8.98
8/20/2023 4:15:00 AM 18.99 66.182 0.201 7.61 3.83 8.99
8/20/2023 4:30:00 AM 18.95 66.11 0.202 7.62 3.77 9
8/20/2023 4:45:00 AM 18.9 66.02 0.202 7.62 3.6 9
8/20/2023 5:00:00 AM 18.85 65.93 0.202 7.61 3.6 9.01
8/20/2023 5:15:00 AM 18.8 65.84 0.202 7.61 3.59 9.02
8/20/2023 5:30:00 AM 18.76 65.768 0.202 7.61 3.71 9.04
8/20/2023 5:45:00 AM 18.71 65.67799 0.202 7.61 3.62 9.04
8/20/2023 6:00:00 AM 18.66 65.588 0.202 7.61 3.58 9.06
8/20/2023 6:15:00 AM 18.62 65.516 0.202 7.61 3.83 9.07
8/20/2023 6:30:00 AM 18.57 65.426 0.202 7.61 3.57 9.09
8/20/2023 6:45:00 AM 18.53 65.354 0.202 7.61 3.49 9.11
8/20/2023 7:00:00 AM 18.49 65.282 0.202 7.61 3.67 9.14
8/20/2023 7:15:00 AM 18.46 65.228 0.202 7.62 3.45 9.16
8/20/2023 7:30:00 AM 18.44 65.192 0.202 7.62 3.28 9.22
8/20/2023 7:45:00 AM 18.43 65.174 0.202 7.63 3.36 9.27
8/20/2023 8:00:00 AM 18.43 65.174 0.202 7.64 3.25 9.33
8/20/2023 8:15:00 AM 18.43 65.174 0.202 7.65 3.31 9.36
8/20/2023 8:30:00 AM 18.45 65.21 0.202 7.66 3.13 9.41
8/20/2023 8:45:00 AM 18.48 65.264 0.202 7.67 3.26 9.46
8/20/2023 9:00:00 AM 18.54 65.372 0.202 7.69 3.09 9.54
8/20/2023 9:15:00 AM 18.57 65.426 0.203 7.7 2.99 9.57
8/20/2023 9:30:00 AM 18.64 65.552 0.203 7.71 3.06 9.61
8/20/2023 9:45:00 AM 18.72 65.696 0.203 7.73 3.1 9.65
8/20/2023 10:00:00 AM 18.79 65.82201 0.203 7.74 3.16 9.65
8/20/2023 10:15:00 AM 18.87 65.966 0.203 7.75 3.06 9.67
8/20/2023 10:30:00 AM 19 66.2 0.203 7.77 2.92 9.74
8/20/2023 10:45:00 AM 19.11 66.398 0.203 7.79 3.04 9.77
8/20/2023 11:00:00 AM 19.25 66.65 0.204 7.81 3.08 9.81
8/20/2023 11:15:00 AM 19.41 66.938 0.206 7.83 3.01 9.86
8/20/2023 11:30:00 AM 19.56 67.208 0.207 7.85 3.02 9.85
8/20/2023 11:45:00 AM 19.73 67.514 0.206 7.87 3.11 9.85
8/20/2023 12:00:00 PM 19.89 67.802 0.206 7.88 2.79 9.83
8/20/2023 12:15:00 PM 20.07 68.126 0.209 7.89 2.91 9.81
8/20/2023 12:30:00 PM 20.24 68.432 0.207 7.9 2.92 9.82
8/20/2023 12:45:00 PM 20.42 68.756 0.206 7.92 2.84 9.81
8/20/2023 1:00:00 PM 20.6 69.08 0.206 7.93 3.1 9.79
8/20/2023 1:15:00 PM 20.77 69.386 0.206 7.93 2.86 9.74
8/20/2023 1:30:00 PM 20.93 69.674 0.206 7.94 2.79 9.72
8/20/2023 1:45:00 PM 21.11 69.998 0.205 7.95 2.81 9.68
8/20/2023 2:00:00 PM 21.29 70.32201 0.205 7.95 2.85 9.66
8/20/2023 2:15:00 PM 21.45 70.61 0.206 7.95 2.84 9.62
8/20/2023 2:30:00 PM 21.61 70.898 0.205 7.96 2.77 9.59
8/20/2023 2:45:00 PM 21.72 71.096 0.205 7.96 2.64 9.56
8/20/2023 3:00:00 PM 21.83 71.294 0.205 7.96 2.63 9.53
8/20/2023 3:15:00 PM 21.91 71.438 0.206 7.96 2.76 9.49
8/20/2023 3:30:00 PM 21.99 71.582 0.207 7.96 2.8 9.47
8/20/2023 3:45:00 PM 22.06 71.708 0.207 7.96 2.76 9.43
8/20/2023 4:00:00 PM 22.11 71.798 0.208 7.94 2.82 9.36
8/20/2023 4:15:00 PM 22.13 71.834 0.208 7.94 2.77 9.33
8/20/2023 4:30:00 PM 22.15 71.87 0.208 7.92 2.77 9.28
8/20/2023 4:45:00 PM 22.13 71.834 0.209 7.91 2.7 9.23
8/20/2023 5:00:00 PM 22.15 71.87 0.209 7.91 2.91 9.22
8/20/2023 5:15:00 PM 22.14 71.852 0.209 7.89 2.96 9.15
8/20/2023 5:30:00 PM 22.11 71.798 0.209 7.87 2.76 9.08
8/20/2023 5:45:00 PM 22.06 71.708 0.208 7.85 2.94 9.02
8/20/2023 6:00:00 PM 22 71.6 0.208 7.83 2.85 8.95
8/20/2023 6:15:00 PM 21.94 71.492 0.208 7.8 2.73 8.89
8/20/2023 6:30:00 PM 21.87 71.366 0.208 7.78 2.87 8.83
8/20/2023 6:45:00 PM 21.79 71.222 0.208 7.76 2.69 8.78
8/20/2023 7:00:00 PM 21.71 71.078 0.208 7.74 2.63 8.72
8/20/2023 7:15:00 PM 21.63 70.934 0.208 7.73 2.56 8.68
8/20/2023 7:30:00 PM 21.56 70.808 0.208 7.71 2.83 8.64
8/20/2023 7:45:00 PM 21.48 70.664 0.209 7.69 2.77 8.6
8/20/2023 8:00:00 PM 21.39 70.502 0.211 7.68 2.59 8.57
8/20/2023 8:15:00 PM 21.31 70.358 0.214 7.67 2.82 8.56
8/20/2023 8:30:00 PM 21.23 70.214 0.214 7.66 2.97 8.54
8/20/2023 8:45:00 PM 21.15 70.07 0.214 7.65 2.77 8.54
8/20/2023 9:00:00 PM 21.07 69.926 0.214 7.65 2.88 8.54
8/20/2023 9:15:00 PM 21 69.8 0.214 7.64 2.94 8.55
8/20/2023 9:30:00 PM 20.92 69.656 0.214 7.64 2.76 8.55
8/20/2023 9:45:00 PM 20.85 69.53 0.212 7.63 2.8 8.57
8/20/2023 10:00:00 PM 20.77 69.386 0.212 7.63 2.86 8.57
8/20/2023 10:15:00 PM 20.69 69.242 0.212 7.63 3.21 8.58
8/20/2023 10:30:00 PM 20.61 69.098 0.212 7.63 2.96 8.59
8/20/2023 10:45:00 PM 20.55 68.99 0.213 7.63 2.86 8.62
8/20/2023 11:00:00 PM 20.49 68.882 0.215 7.62 2.84 8.64
8/20/2023 11:15:00 PM 20.43 68.774 0.249 7.62 2.91 8.64
8/20/2023 11:30:00 PM 20.39 68.702 0.211 7.62 2.85 8.64
8/20/2023 11:45:00 PM 20.34 68.612 0.206 7.62 2.84 8.65
8/21/2023 12:00:00 AM 20.28 68.504 0.206 7.61 2.76 8.67
8/21/2023 12:15:00 AM 20.24 68.432 0.207 7.61 2.91 8.67
8/21/2023 12:30:00 AM 20.2 68.36 0.206 7.61 2.89 8.69
8/21/2023 12:45:00 AM 20.16 68.288 0.208 7.6 2.83 8.7
8/21/2023 1:00:00 AM 20.12 68.216 0.208 7.61 2.87 8.7
8/21/2023 1:15:00 AM 20.08 68.144 0.208 7.61 2.79 8.71
8/21/2023 1:30:00 AM 20.04 68.07201 0.208 7.61 2.79 8.71
8/21/2023 1:45:00 AM 20.01 68.018 0.209 7.61 2.84 8.71
8/21/2023 2:00:00 AM 19.98 67.964 0.212 7.61 2.75 8.72
8/21/2023 2:15:00 AM 19.94 67.892 0.218 7.61 3.08 8.72
8/21/2023 2:30:00 AM 19.92 67.856 0.235 7.61 2.68 8.73
8/21/2023 2:45:00 AM 19.9 67.82 0.236 7.6 2.72 8.73
8/21/2023 3:00:00 AM 19.89 67.802 0.235 7.6 2.75 8.73
8/21/2023 3:15:00 AM 19.88 67.784 0.235 7.6 3.04 8.74
8/21/2023 3:30:00 AM 19.87 67.766 0.237 7.6 2.63 8.75
8/21/2023 3:45:00 AM 19.87 67.766 0.24 7.6 2.74 8.75
8/21/2023 4:00:00 AM 19.86 67.748 0.243 7.61 2.72 8.74
8/21/2023 4:15:00 AM 19.86 67.748 0.238 7.6 2.64 8.74
8/21/2023 4:30:00 AM 19.86 67.748 0.237 7.6 2.77 8.74
8/21/2023 4:45:00 AM 19.86 67.748 0.235 7.6 2.64 8.75
8/21/2023 5:00:00 AM 19.85 67.73 0.233 7.6 2.66 8.74
8/21/2023 5:15:00 AM 19.85 67.73 0.233 7.6 2.86 8.74
8/21/2023 5:30:00 AM 19.85 67.73 0.232 7.6 2.76 8.75
8/21/2023 5:45:00 AM 19.85 67.73 0.232 7.6 2.68 8.75
8/21/2023 6:00:00 AM 19.84 67.712 0.232 7.6 2.63 8.75
8/21/2023 6:15:00 AM 19.84 67.712 0.231 7.6 2.8 8.76
8/21/2023 6:30:00 AM 19.84 67.712 0.231 7.6 2.63 8.76
8/21/2023 6:45:00 AM 19.84 67.712 0.231 7.6 2.79 8.77
8/21/2023 7:00:00 AM 19.85 67.73 0.231 7.61 2.66 8.82
8/21/2023 7:15:00 AM 19.87 67.766 0.23 7.61 2.48 8.83
8/21/2023 7:30:00 AM 19.88 67.784 0.229 7.61 2.48 8.86
8/21/2023 7:45:00 AM 19.89 67.802 0.229 7.62 2.51 8.88
8/21/2023 8:00:00 AM 19.92 67.856 0.229 7.63 2.43 8.96
8/21/2023 8:15:00 AM 19.95 67.91 0.228 7.64 2.36 9
8/21/2023 8:30:00 AM 19.97 67.946 0.228 7.65 2.39 9.02
8/21/2023 8:45:00 AM 20 68 0.228 7.66 2.36 9.1
8/21/2023 9:00:00 AM 20.03 68.054 0.227 7.66 2.23 9.07
8/21/2023 9:15:00 AM 20.05 68.09 0.227 7.66 2.39 9.05
8/21/2023 9:30:00 AM 20.07 68.126 0.226 7.66 2.42 9.04
8/21/2023 9:45:00 AM 20.11 68.198 0.226 7.67 2.41 9.11
8/21/2023 10:00:00 AM 20.15 68.27 0.226 7.68 2.33 9.2
8/21/2023 10:15:00 AM 20.22 68.396 0.225 7.71 2.21 9.31
8/21/2023 10:30:00 AM 20.29 68.522 0.225 7.73 2.17 9.41
8/21/2023 10:45:00 AM 20.39 68.702 0.224 7.76 2.25 9.54
8/21/2023 11:00:00 AM 20.49 68.882 0.224 7.79 2.2 9.63
8/21/2023 11:15:00 AM 20.61 69.098 0.222 7.82 2.22 9.69
8/21/2023 11:30:00 AM 20.64 69.152 0.221 7.83 2.19 9.64
8/21/2023 11:45:00 AM 20.71 69.278 0.221 7.85 2.24 9.68
8/21/2023 12:00:00 PM 20.82 69.476 0.219 7.87 2.25 9.71
8/21/2023 12:15:00 PM 20.99 69.782 0.216 7.9 2.15 9.79
8/21/2023 12:30:00 PM 21.17 70.106 0.211 7.91 2.19 9.75
8/21/2023 12:45:00 PM 21.38 70.484 0.208 7.95 2.19 9.8
8/21/2023 1:00:00 PM 21.37 70.466 0.213 7.93 10.49 9.72
8/21/2023 1:15:00 PM 21.32 70.376 0.218 7.93 2.32 9.68
8/21/2023 1:30:00 PM 21.41 70.538 0.218 7.96 2.25 9.76
8/21/2023 1:45:00 PM 21.53 70.754 0.218 7.98 2.24 9.78
8/21/2023 2:00:00 PM 21.66 70.988 0.217 8 2.23 9.81
8/21/2023 2:15:00 PM 21.8 71.24 0.217 8.02 2.45 9.8
8/21/2023 2:30:00 PM 21.93 71.474 0.216 8.03 2.59 9.79
8/21/2023 2:45:00 PM 22.05 71.69 0.216 8.04 2.22 9.75
8/21/2023 3:00:00 PM 22.09 71.762 0.216 8.03 2.17 9.67
8/21/2023 3:15:00 PM 22.14 71.852 0.217 8.03 2.27 9.63
8/21/2023 3:30:00 PM 22.2 71.96 0.218 8.02 2.06 9.6
8/21/2023 3:45:00 PM 22.27 72.086 0.217 8.03 2.1 9.58
8/21/2023 4:00:00 PM 22.36 72.248 0.217 8.03 2.22 9.55
8/21/2023 4:15:00 PM 22.45 72.41 0.217 8.03 2.34 9.51
8/21/2023 4:30:00 PM 22.48 72.464 0.216 8.01 2.14 9.39
8/21/2023 4:45:00 PM 22.54 72.57201 0.215 8 2.12 9.39
8/21/2023 5:00:00 PM 22.58 72.644 0.215 7.99 2.12 9.33
8/21/2023 5:15:00 PM 22.61 72.698 0.214 7.97 2.05 9.26
8/21/2023 5:30:00 PM 22.61 72.698 0.214 7.95 2.04 9.17
8/21/2023 5:45:00 PM 22.6 72.68 0.214 7.91 2.02 9.04
8/21/2023 6:00:00 PM 22.59 72.662 0.215 7.89 2.16 9
8/21/2023 6:15:00 PM 22.59 72.662 0.214 7.86 2.01 8.92
8/21/2023 6:30:00 PM 22.57 72.626 0.213 7.85 2.08 8.86
8/21/2023 6:45:00 PM 22.55 72.59 0.213 7.82 2.11 8.77
8/21/2023 7:00:00 PM 22.52 72.536 0.213 7.79 2.11 8.66
8/21/2023 7:15:00 PM 22.47 72.446 0.214 7.77 2.06 8.6
8/21/2023 7:30:00 PM 22.42 72.356 0.215 7.75 2 8.51
8/21/2023 7:45:00 PM 22.36 72.248 0.215 7.72 2.07 8.45
8/21/2023 8:00:00 PM 22.3 72.14 0.214 7.7 2.05 8.39
8/21/2023 8:15:00 PM 22.25 72.05 0.214 7.69 2.2 8.36
8/21/2023 8:30:00 PM 22.2 71.96 0.214 7.68 2.1 8.32
8/21/2023 8:45:00 PM 22.16 71.888 0.214 7.67 2.33 8.3
8/21/2023 9:00:00 PM 22.13 71.834 0.212 7.66 2.25 8.28
8/21/2023 9:15:00 PM 22.1 71.78 0.213 7.66 2.13 8.29
8/21/2023 9:30:00 PM 22.06 71.708 0.213 7.65 2.24 8.28
8/21/2023 9:45:00 PM 22.01 71.618 0.213 7.65 2.24 8.29
8/21/2023 10:00:00 PM 21.96 71.528 0.213 7.65 2.29 8.29
8/21/2023 10:15:00 PM 21.91 71.438 0.213 7.65 2.21 8.3
8/21/2023 10:30:00 PM 21.86 71.348 0.214 7.64 2.27 8.31
8/21/2023 10:45:00 PM 21.8 71.24 0.213 7.64 2.21 8.32
8/21/2023 11:00:00 PM 21.75 71.15 0.213 7.64 2.27 8.32
8/21/2023 11:15:00 PM 21.69 71.042 0.214 7.64 2.17 8.33
8/21/2023 11:30:00 PM 21.63 70.934 0.213 7.64 2.28 8.34
8/21/2023 11:45:00 PM 21.58 70.844 0.214 7.64 2.11 8.35
8/22/2023 12:00:00 AM 21.52 70.736 0.214 7.64 2.24 8.37
8/22/2023 12:15:00 AM 21.46 70.628 0.214 7.64 2.41 8.37
8/22/2023 12:30:00 AM 21.41 70.538 0.214 7.64 2.31 8.39
8/22/2023 12:45:00 AM 21.37 70.466 0.214 7.64 2.48 8.39
8/22/2023 1:00:00 AM 21.32 70.376 0.214 7.64 2.28 8.39
8/22/2023 1:15:00 AM 21.28 70.304 0.213 7.64 2.22 8.4
8/22/2023 1:30:00 AM 21.24 70.232 0.213 7.64 2.22 8.42
8/22/2023 1:45:00 AM 21.19 70.142 0.213 7.64 2.21 8.43
8/22/2023 2:00:00 AM 21.14 70.052 0.213 7.64 2.22 8.45
8/22/2023 2:15:00 AM 21.09 69.962 0.213 7.64 2.26 8.44
8/22/2023 2:30:00 AM 21.04 69.872 0.213 7.64 2.39 8.46
8/22/2023 2:45:00 AM 20.99 69.782 0.213 7.64 2.22 8.47
8/22/2023 3:00:00 AM 20.94 69.692 0.213 7.64 2.25 8.48
8/22/2023 3:15:00 AM 20.88 69.584 0.213 7.64 2.14 8.48
8/22/2023 3:30:00 AM 20.84 69.512 0.213 7.64 2.33 8.51
8/22/2023 3:45:00 AM 20.77 69.386 0.213 7.64 2.16 8.51
8/22/2023 4:00:00 AM 20.72 69.296 0.213 7.64 2.17 8.53
8/22/2023 4:15:00 AM 20.67 69.206 0.213 7.64 2.19 8.54
8/22/2023 4:30:00 AM 20.6 69.08 0.213 7.64 2.19 8.54
8/22/2023 4:45:00 AM 20.53 68.954 0.213 7.64 2.1 8.55
8/22/2023 5:00:00 AM 20.46 68.828 0.213 7.64 2.29 8.58
8/22/2023 5:15:00 AM 20.39 68.702 0.213 7.64 2.18 8.59
8/22/2023 5:30:00 AM 20.31 68.558 0.213 7.64 2.16 8.6
8/22/2023 5:45:00 AM 20.24 68.432 0.214 7.64 2.24 8.62
8/22/2023 6:00:00 AM 20.15 68.27 0.214 7.64 2.2 8.62
8/22/2023 6:15:00 AM 20.08 68.144 0.214 7.64 2.27 8.66
8/22/2023 6:30:00 AM 19.99 67.982 0.214 7.64 2.27 8.69
8/22/2023 6:45:00 AM 19.91 67.838 0.214 7.64 2.15 8.73
8/22/2023 7:00:00 AM 19.84 67.712 0.214 7.65 2.29 8.77
8/22/2023 7:15:00 AM 19.77 67.586 0.214 7.66 2.17 8.84
8/22/2023 7:30:00 AM 19.72 67.496 0.214 7.67 2.1 8.93
8/22/2023 7:45:00 AM 19.68 67.424 0.214 7.68 2.1 9.04
8/22/2023 8:00:00 AM 19.64 67.352 0.214 7.7 2.13 9.12
8/22/2023 8:15:00 AM 19.6 67.28 0.213 7.71 2.05 9.2
8/22/2023 8:30:00 AM 19.59 67.262 0.214 7.74 2.11 9.35
8/22/2023 8:45:00 AM 19.58 67.244 0.213 7.76 1.98 9.41
8/22/2023 9:00:00 AM 19.56 67.208 0.214 7.77 2.01 9.48
8/22/2023 9:15:00 AM 19.55 67.19 0.214 7.79 2 9.53
8/22/2023 9:30:00 AM 19.56 67.208 0.214 7.81 1.96 9.6
8/22/2023 9:45:00 AM 19.58 67.244 0.214 7.82 2.15 9.62
8/22/2023 10:00:00 AM 19.61 67.298 0.214 7.83 1.96 9.66
8/22/2023 10:15:00 AM 19.66 67.388 0.214 7.84 2.16 9.7
8/22/2023 10:30:00 AM 19.69 67.442 0.214 7.86 1.88 9.74
8/22/2023 10:45:00 AM 19.76 67.568 0.214 7.88 2.06 9.78
8/22/2023 11:00:00 AM 19.83 67.694 0.215 7.89 1.92 9.77
8/22/2023 11:15:00 AM 19.93 67.874 0.215 7.91 3.34 9.81
8/22/2023 11:30:00 AM 20.02 68.036 0.214 7.92 1.95 9.83
8/22/2023 11:45:00 AM 20.13 68.234 0.214 7.93 1.96 9.85
8/22/2023 12:00:00 PM 20.27 68.486 0.214 7.95 1.96 9.85
8/22/2023 12:15:00 PM 20.4 68.72 0.214 7.97 1.95 9.89
8/22/2023 12:30:00 PM 20.55 68.99 0.214 7.98 1.81 9.89
8/22/2023 12:45:00 PM 20.72 69.296 0.214 8 1.86 9.91
8/22/2023 1:00:00 PM 20.88 69.584 0.214 8.02 1.91 9.91
8/22/2023 1:15:00 PM 21.06 69.908 0.214 8.04 1.9 9.93
8/22/2023 1:30:00 PM 21.25 70.25 0.214 8.06 1.83 9.93
8/22/2023 1:45:00 PM 21.4 70.52 0.214 8.08 1.9 9.92
8/22/2023 2:00:00 PM 21.57 70.826 0.215 8.09 1.9 9.92
8/22/2023 2:15:00 PM 21.73 71.114 0.214 8.12 1.97 9.96
8/22/2023 2:30:00 PM 21.82 71.276 0.214 8.14 1.94 9.94
8/22/2023 2:45:00 PM 21.88 71.384 0.214 8.13 1.94 9.88
8/22/2023 3:00:00 PM 21.95 71.51 0.214 8.14 1.87 9.88
8/22/2023 3:15:00 PM 22.04 71.672 0.214 8.15 1.85 9.83
8/22/2023 3:30:00 PM 22.1 71.78 0.215 8.13 1.82 9.75
8/22/2023 3:45:00 PM 22.12 71.816 0.215 8.11 1.83 9.67
8/22/2023 4:00:00 PM 22.15 71.87 0.215 8.1 1.97 9.62
8/22/2023 4:15:00 PM 22.19 71.942 0.215 8.09 1.9 9.6
8/22/2023 4:30:00 PM 22.19 71.942 0.215 8.07 1.79 9.52
8/22/2023 4:45:00 PM 22.18 71.924 0.215 8.05 1.82 9.47
8/22/2023 5:00:00 PM 22.2 71.96 0.216 8.03 2.1 9.39
8/22/2023 5:15:00 PM 22 71.6 0.232 7.99 2.16 9.29
8/22/2023 5:30:00 PM 21.8 71.24 0.245 7.96 2.57 9.19
8/22/2023 5:45:00 PM 21.72 71.096 0.251 7.94 3.01 9.1
8/22/2023 6:00:00 PM 21.66 70.988 0.254 7.92 4.01 9.06
8/22/2023 6:15:00 PM 21.57 70.826 0.257 7.91 3.54 9.02
8/22/2023 6:30:00 PM 21.48 70.664 0.26 7.89 3.61 8.98
8/22/2023 6:45:00 PM 21.37 70.466 0.264 7.87 3.55 8.92
8/22/2023 7:00:00 PM 21.27 70.286 0.267 7.84 3.77 8.85
8/22/2023 7:15:00 PM 21.19 70.142 0.272 7.82 4.57 8.79
8/22/2023 7:30:00 PM 21.13 70.034 0.274 7.8 4.09 8.75
8/22/2023 7:45:00 PM 21.08 69.944 0.269 7.79 4.09 8.7
8/22/2023 8:00:00 PM 21 69.8 0.261 7.77 3.87 8.66
8/22/2023 8:15:00 PM 20.91 69.638 0.257 7.76 3.86 8.63
8/22/2023 8:30:00 PM 20.81 69.458 0.256 7.74 3.98 8.63
8/22/2023 8:45:00 PM 20.7 69.26 0.257 7.73 4.17 8.64
8/22/2023 9:00:00 PM 20.6 69.08 0.258 7.72 4.31 8.64
8/22/2023 9:15:00 PM 20.49 68.882 0.259 7.72 4.38 8.65
8/22/2023 9:30:00 PM 20.38 68.684 0.26 7.71 4.21 8.67
8/22/2023 9:45:00 PM 20.28 68.504 0.262 7.7 4.38 8.68
8/22/2023 10:00:00 PM 20.17 68.306 0.263 7.7 4.37 8.69
8/22/2023 10:15:00 PM 20.07 68.126 0.264 7.69 4.35 8.72
8/22/2023 10:30:00 PM 19.97 67.946 0.266 7.69 4.48 8.74
8/22/2023 10:45:00 PM 19.88 67.784 0.267 7.69 4.23 8.75
8/22/2023 11:00:00 PM 19.78 67.604 0.268 7.68 4.21 8.77
8/22/2023 11:15:00 PM 19.69 67.442 0.27 7.68 4.36 8.79
8/22/2023 11:30:00 PM 19.6 67.28 0.27 7.68 3.95 8.81
8/22/2023 11:45:00 PM 19.52 67.136 0.271 7.67 4.02 8.83
8/23/2023 12:00:00 AM 19.43 66.974 0.271 7.67 4.3 8.83
8/23/2023 12:15:00 AM 19.36 66.848 0.271 7.67 3.95 8.85
8/23/2023 12:30:00 AM 19.28 66.704 0.271 7.67 3.72 8.88
8/23/2023 12:45:00 AM 19.2 66.56 0.272 7.66 3.85 8.89
8/23/2023 1:00:00 AM 19.13 66.434 0.272 7.66 3.86 8.9
8/23/2023 1:15:00 AM 19.06 66.308 0.272 7.66 3.75 8.91
8/23/2023 1:30:00 AM 18.99 66.182 0.272 7.66 3.91 8.92
8/23/2023 1:45:00 AM 18.91 66.038 0.272 7.65 3.79 8.94
8/23/2023 2:00:00 AM 18.84 65.912 0.272 7.65 3.75 8.96
8/23/2023 2:15:00 AM 18.77 65.786 0.272 7.65 3.45 8.97
8/23/2023 2:30:00 AM 18.7 65.66 0.272 7.65 3.52 8.99
8/23/2023 2:45:00 AM 18.62 65.516 0.272 7.64 3.47 8.99
8/23/2023 3:00:00 AM 18.56 65.408 0.272 7.65 3.43 9.01
8/23/2023 3:15:00 AM 18.49 65.282 0.272 7.64 3.32 9.03
8/23/2023 3:30:00 AM 18.43 65.174 0.272 7.64 3.26 9.04
8/23/2023 3:45:00 AM 18.37 65.066 0.272 7.64 3.3 9.05
8/23/2023 4:00:00 AM 18.31 64.958 0.272 7.64 3.26 9.07
8/23/2023 4:15:00 AM 18.25 64.85 0.271 7.64 3.38 9.08
8/23/2023 4:30:00 AM 18.19 64.742 0.271 7.64 3.1 9.09
8/23/2023 4:45:00 AM 18.13 64.634 0.271 7.64 3.22 9.1
8/23/2023 5:00:00 AM 18.08 64.544 0.27 7.64 3.49 9.12
8/23/2023 5:15:00 AM 18.03 64.454 0.27 7.64 3.15 9.13
8/23/2023 5:30:00 AM 17.99 64.382 0.27 7.64 3.1 9.14
8/23/2023 5:45:00 AM 17.95 64.31 0.269 7.64 3.14 9.16
8/23/2023 6:00:00 AM 17.91 64.238 0.269 7.63 3.92 9.16
8/23/2023 6:15:00 AM 17.88 64.184 0.268 7.64 3.05 9.18
8/23/2023 6:30:00 AM 17.84 64.112 0.268 7.63 3.14 9.19
8/23/2023 6:45:00 AM 17.81 64.058 0.268 7.64 2.93 9.21
8/23/2023 7:00:00 AM 17.79 64.022 0.268 7.64 2.78 9.25
8/23/2023 7:15:00 AM 17.77 63.986 0.267 7.65 2.78 9.32
8/23/2023 7:30:00 AM 17.76 63.968 0.267 7.66 2.67 9.38
8/23/2023 7:45:00 AM 17.75 63.95 0.267 7.67 2.56 9.43
8/23/2023 8:00:00 AM 17.76 63.968 0.267 7.68 2.75 9.55
8/23/2023 8:15:00 AM 17.79 64.022 0.266 7.71 2.49 9.69
8/23/2023 8:30:00 AM 17.79 64.022 0.268 7.73 2.37 9.75
8/23/2023 8:45:00 AM 17.81 64.058 0.267 7.74 2.36 9.79
8/23/2023 9:00:00 AM 17.84 64.112 0.266 7.75 2.34 9.85
8/23/2023 9:15:00 AM 17.87 64.166 0.267 7.77 2.42 9.92
8/23/2023 9:30:00 AM 17.93 64.274 0.267 7.81 2.22 10.1
8/23/2023 9:45:00 AM 18.01 64.418 0.266 7.84 2.23 10.18
8/23/2023 10:00:00 AM 18.09 64.562 0.264 7.86 2.25 10.23
8/23/2023 10:15:00 AM 18.18 64.724 0.264 7.9 2.16 10.33
8/23/2023 10:30:00 AM 18.24 64.832 0.265 7.9 2.29 10.25
8/23/2023 10:45:00 AM 18.35 65.03 0.265 7.91 2.31 10.26
8/23/2023 11:00:00 AM 18.46 65.228 0.265 7.94 2.36 10.31
8/23/2023 11:15:00 AM 18.57 65.426 0.264 7.95 2.09 10.3
8/23/2023 11:30:00 AM 18.69 65.642 0.264 7.95 2.2 10.23
8/23/2023 11:45:00 AM 18.79 65.82201 0.264 7.94 2.29 10.15
8/23/2023 12:00:00 PM 18.9 66.02 0.264 7.94 2.06 10.13
8/23/2023 12:15:00 PM 19.14 66.452 0.264 8 2 10.32
8/23/2023 12:30:00 PM 19.31 66.758 0.264 8.03 2.12 10.36
8/23/2023 12:45:00 PM 19.48 67.064 0.263 8.07 2.02 10.43
8/23/2023 1:00:00 PM 19.64 67.352 0.263 8.11 2.28 10.48
8/23/2023 1:15:00 PM 19.83 67.694 0.263 8.16 2.02 10.56
8/23/2023 1:30:00 PM 19.96 67.92799 0.262 8.19 1.96 10.57
8/23/2023 1:45:00 PM 20.1 68.18 0.262 8.24 1.98 10.65
8/23/2023 2:00:00 PM 20.22 68.396 0.262 8.27 2.02 10.62
8/23/2023 2:15:00 PM 20.33 68.594 0.262 8.3 2.09 10.64
8/23/2023 2:30:00 PM 20.41 68.738 0.262 8.32 2.02 10.62
8/23/2023 2:45:00 PM 20.48 68.864 0.261 8.31 2.01 10.51
8/23/2023 3:00:00 PM 20.52 68.936 0.261 8.28 1.97 10.38
8/23/2023 3:15:00 PM 20.54 68.972 0.261 8.24 2.01 10.22
8/23/2023 3:30:00 PM 20.57 69.026 0.261 8.21 1.95 10.11
8/23/2023 3:45:00 PM 20.65 69.17 0.261 8.23 2.01 10.21
8/23/2023 4:00:00 PM 20.69 69.242 0.261 8.23 1.91 10.21
8/23/2023 4:15:00 PM 20.74 69.332 0.26 8.24 1.95 10.21
8/23/2023 4:30:00 PM 20.78 69.404 0.26 8.25 1.92 10.2
8/23/2023 4:45:00 PM 20.83 69.494 0.26 8.24 1.89 10.16
8/23/2023 5:00:00 PM 20.83 69.494 0.26 8.2 1.92 10.01
8/23/2023 5:15:00 PM 20.85 69.53 0.259 8.17 1.99 9.91
8/23/2023 5:30:00 PM 20.9 69.62 0.259 8.16 2.07 9.91
8/23/2023 5:45:00 PM 20.9 69.62 0.259 8.13 1.86 9.79
8/23/2023 6:00:00 PM 20.91 69.638 0.259 8.07 1.9 9.63
8/23/2023 6:15:00 PM 20.9 69.62 0.259 8.02 1.83 9.48
8/23/2023 6:30:00 PM 20.88 69.584 0.259 7.97 1.86 9.31
8/23/2023 6:45:00 PM 20.86 69.548 0.259 7.92 1.87 9.15
8/23/2023 7:00:00 PM 20.84 69.512 0.259 7.87 1.96 9.01
8/23/2023 7:15:00 PM 20.81 69.458 0.259 7.83 2.71 8.89
8/23/2023 7:30:00 PM 20.78 69.404 0.259 7.79 1.91 8.78
8/23/2023 7:45:00 PM 20.75 69.35 0.258 7.77 1.81 8.7
8/23/2023 8:00:00 PM 20.72 69.296 0.259 7.75 1.86 8.64
8/23/2023 8:15:00 PM 20.69 69.242 0.258 7.73 1.86 8.59
8/23/2023 8:30:00 PM 20.65 69.17 0.258 7.71 2.11 8.55
8/23/2023 8:45:00 PM 20.6 69.08 0.258 7.69 1.93 8.52
8/23/2023 9:00:00 PM 20.57 69.026 0.258 7.68 2.17 8.52
8/23/2023 9:15:00 PM 20.52 68.936 0.258 7.68 1.9 8.5
8/23/2023 9:30:00 PM 20.48 68.864 0.258 7.67 1.89 8.5
8/23/2023 9:45:00 PM 20.43 68.774 0.258 7.66 1.89 8.51
8/23/2023 10:00:00 PM 20.39 68.702 0.258 7.66 2 8.5
8/23/2023 10:15:00 PM 20.35 68.63 0.258 7.66 2.01 8.52
8/23/2023 10:30:00 PM 20.3 68.54 0.258 7.65 1.98 8.52
8/23/2023 10:45:00 PM 20.26 68.468 0.258 7.65 1.89 8.54
8/23/2023 11:00:00 PM 20.21 68.378 0.257 7.65 2.15 8.54
8/23/2023 11:15:00 PM 20.17 68.306 0.257 7.64 1.84 8.53
8/23/2023 11:30:00 PM 20.12 68.216 0.257 7.64 2.09 8.53
8/23/2023 11:45:00 PM 20.08 68.144 0.257 7.64 1.86 8.55
8/24/2023 12:00:00 AM 20.03 68.054 0.256 7.64 1.85 8.56
8/24/2023 12:15:00 AM 20 68 0.256 7.64 1.85 8.58
8/24/2023 12:30:00 AM 19.94 67.892 0.256 7.63 1.85 8.58
8/24/2023 12:45:00 AM 19.91 67.838 0.255 7.63 1.75 8.59
8/24/2023 1:00:00 AM 19.86 67.748 0.255 7.63 1.82 8.61
8/24/2023 1:15:00 AM 19.82 67.676 0.255 7.63 1.81 8.6
8/24/2023 1:30:00 AM 19.79 67.622 0.255 7.63 2.04 8.61
8/24/2023 1:45:00 AM 19.75 67.55 0.254 7.63 1.84 8.61
8/24/2023 2:00:00 AM 19.71 67.478 0.254 7.63 1.81 8.63
8/24/2023 2:15:00 AM 19.68 67.424 0.254 7.63 1.79 8.63
8/24/2023 2:30:00 AM 19.64 67.352 0.254 7.62 1.75 8.64
8/24/2023 2:45:00 AM 19.6 67.28 0.254 7.62 1.86 8.66
8/24/2023 3:00:00 AM 19.57 67.226 0.253 7.62 1.86 8.68
8/24/2023 3:15:00 AM 19.53 67.154 0.253 7.62 1.83 8.66
8/24/2023 3:30:00 AM 19.49 67.082 0.252 7.62 1.74 8.69
8/24/2023 3:45:00 AM 19.45 67.01 0.252 7.63 1.77 8.69
8/24/2023 4:00:00 AM 19.4 66.92 0.252 7.63 1.73 8.69
8/24/2023 4:15:00 AM 19.36 66.848 0.252 7.63 1.85 8.69
8/24/2023 4:30:00 AM 19.33 66.794 0.252 7.63 1.87 8.7
8/24/2023 4:45:00 AM 19.28 66.704 0.252 7.63 1.9 8.71
8/24/2023 5:00:00 AM 19.24 66.632 0.251 7.63 1.78 8.72
8/24/2023 5:15:00 AM 19.2 66.56 0.251 7.63 1.75 8.73
8/24/2023 5:30:00 AM 19.16 66.488 0.251 7.63 1.65 8.75
8/24/2023 5:45:00 AM 19.12 66.416 0.25 7.64 1.69 8.74
8/24/2023 6:00:00 AM 19.09 66.362 0.25 7.64 1.83 8.76
8/24/2023 6:15:00 AM 19.05 66.29 0.25 7.64 1.72 8.77
8/24/2023 6:30:00 AM 19.02 66.236 0.25 7.64 1.92 8.77
8/24/2023 6:45:00 AM 18.99 66.182 0.249 7.64 1.92 8.77
8/24/2023 7:00:00 AM 18.97 66.146 0.249 7.64 1.68 8.8
8/24/2023 7:15:00 AM 18.94 66.092 0.249 7.64 1.8 8.83
8/24/2023 7:30:00 AM 18.92 66.056 0.249 7.65 1.66 8.86
8/24/2023 7:45:00 AM 18.9 66.02 0.248 7.66 1.65 8.91
8/24/2023 8:00:00 AM 18.88 65.984 0.248 7.66 1.65 8.94
8/24/2023 8:15:00 AM 18.87 65.966 0.248 7.67 1.63 9.01
8/24/2023 8:30:00 AM 18.87 65.966 0.248 7.69 1.57 9.14
8/24/2023 8:45:00 AM 18.86 65.948 0.247 7.7 1.69 9.16
8/24/2023 9:00:00 AM 18.85 65.93 0.247 7.71 1.52 9.2
8/24/2023 9:15:00 AM 18.84 65.912 0.247 7.71 1.63 9.2
8/24/2023 9:30:00 AM 18.83 65.894 0.247 7.71 1.57 9.21
8/24/2023 9:45:00 AM 18.82 65.876 0.246 7.72 1.58 9.24
8/24/2023 10:00:00 AM 18.82 65.876 0.246 7.73 1.5 9.25
8/24/2023 10:15:00 AM 18.81 65.858 0.245 7.72 1.55 9.24
8/24/2023 10:30:00 AM 18.8 65.84 0.245 7.73 1.52 9.27
8/24/2023 10:45:00 AM 18.8 65.84 0.244 7.74 1.55 9.34
8/24/2023 11:00:00 AM 18.8 65.84 0.244 7.73 1.53 9.3
8/24/2023 11:15:00 AM 18.8 65.84 0.244 7.74 1.47 9.31
8/24/2023 11:30:00 AM 18.8 65.84 0.243 7.74 1.48 9.34
8/24/2023 11:45:00 AM 18.8 65.84 0.243 7.74 1.59 9.38
8/24/2023 12:00:00 PM 18.8 65.84 0.243 7.75 1.5 9.4
8/24/2023 12:15:00 PM 18.82 65.876 0.242 7.77 1.52 9.49
8/24/2023 12:30:00 PM 18.81 65.858 0.242 7.76 1.53 9.42
8/24/2023 12:45:00 PM 18.81 65.858 0.242 7.77 1.53 9.44
8/24/2023 1:00:00 PM 18.83 65.894 0.242 7.78 1.49 9.5
8/24/2023 1:15:00 PM 18.84 65.912 0.242 7.78 1.47 9.53
8/24/2023 1:30:00 PM 18.84 65.912 0.241 7.79 1.47 9.57
8/24/2023 1:45:00 PM 18.87 65.966 0.241 7.81 1.44 9.66
8/24/2023 2:00:00 PM 18.88 65.984 0.24 7.85 1.46 9.77
8/24/2023 2:15:00 PM 18.88 65.984 0.24 7.82 1.47 9.58
8/24/2023 2:30:00 PM 18.86 65.948 0.238 7.81 1.53 9.52
8/24/2023 2:45:00 PM 18.88 65.984 0.239 7.82 1.53 9.56
8/24/2023 3:00:00 PM 18.87 65.966 0.24 7.8 1.52 9.44
8/24/2023 3:15:00 PM 18.86 65.948 0.242 7.8 1.5 9.47
8/24/2023 3:30:00 PM 18.86 65.948 0.241 7.8 1.56 9.5
8/24/2023 3:45:00 PM 18.9 66.02 0.239 7.82 1.58 9.58
8/24/2023 4:00:00 PM 18.91 66.038 0.238 7.8 1.57 9.47
8/24/2023 4:15:00 PM 18.91 66.038 0.237 7.79 1.48 9.42
8/24/2023 4:30:00 PM 18.92 66.056 0.237 7.78 1.6 9.36
8/24/2023 4:45:00 PM 18.92 66.056 0.236 7.77 1.57 9.33
8/24/2023 5:00:00 PM 18.93 66.074 0.236 7.76 1.56 9.29
8/24/2023 5:15:00 PM 18.93 66.074 0.236 7.76 1.49 9.28
8/24/2023 5:30:00 PM 18.95 66.11 0.234 7.75 1.55 9.25
8/24/2023 5:45:00 PM 18.99 66.182 0.232 7.75 1.51 9.21
8/24/2023 6:00:00 PM 18.97 66.146 0.234 7.75 1.51 9.26
8/24/2023 6:15:00 PM 18.96 66.128 0.236 7.75 1.61 9.19
8/24/2023 6:30:00 PM 18.95 66.11 0.236 7.73 1.52 9.12
8/24/2023 6:45:00 PM 18.95 66.11 0.235 7.72 1.63 9.09
8/24/2023 7:00:00 PM 18.95 66.11 0.235 7.71 1.6 9.03
8/24/2023 7:15:00 PM 18.95 66.11 0.234 7.7 1.61 9
8/24/2023 7:30:00 PM 18.95 66.11 0.234 7.69 1.56 8.95
8/24/2023 7:45:00 PM 18.94 66.092 0.234 7.68 1.82 8.91
8/24/2023 8:00:00 PM 18.93 66.074 0.234 7.67 1.79 8.89
8/24/2023 8:15:00 PM 18.92 66.056 0.234 7.66 1.85 8.87
8/24/2023 8:30:00 PM 18.92 66.056 0.234 7.66 1.89 8.86
8/24/2023 8:45:00 PM 18.92 66.056 0.234 7.66 1.83 8.86
8/24/2023 9:00:00 PM 18.91 66.038 0.234 7.66 1.74 8.85
8/24/2023 9:15:00 PM 18.9 66.02 0.234 7.66 1.76 8.86
8/24/2023 9:30:00 PM 18.89 66.002 0.234 7.66 1.73 8.85
8/24/2023 9:45:00 PM 18.88 65.984 0.234 7.66 1.85 8.87
8/24/2023 10:00:00 PM 18.87 65.966 0.236 7.66 1.86 8.88
8/24/2023 10:15:00 PM 18.85 65.93 0.236 7.66 1.75 8.87
8/24/2023 10:30:00 PM 18.85 65.93 0.235 7.66 1.78 8.88
8/24/2023 10:45:00 PM 18.85 65.93 0.235 7.66 1.8 8.87
8/24/2023 11:00:00 PM 18.84 65.912 0.234 7.66 1.8 8.87
8/24/2023 11:15:00 PM 18.84 65.912 0.234 7.66 2.12 8.88
8/24/2023 11:30:00 PM 18.84 65.912 0.235 7.66 1.78 8.88
8/24/2023 11:45:00 PM 18.83 65.894 0.235 7.66 1.77 8.88
8/25/2023 12:00:00 AM 18.83 65.894 0.235 7.66 1.83 8.88
8/25/2023 12:15:00 AM 18.83 65.894 0.234 7.66 1.82 8.88
8/25/2023 12:30:00 AM 18.83 65.894 0.234 7.66 1.77 8.88
8/25/2023 12:45:00 AM 18.82 65.876 0.235 7.66 1.78 8.89
8/25/2023 1:00:00 AM 18.81 65.858 0.235 7.66 1.86 8.89
8/25/2023 1:15:00 AM 18.81 65.858 0.236 7.66 1.82 8.89
8/25/2023 1:30:00 AM 18.8 65.84 0.236 7.66 1.8 8.91
8/25/2023 1:45:00 AM 18.79 65.82201 0.237 7.66 1.8 8.91
8/25/2023 2:00:00 AM 18.78 65.804 0.237 7.66 1.77 8.91
8/25/2023 2:15:00 AM 18.76 65.768 0.235 7.66 1.97 8.93
8/25/2023 2:30:00 AM 18.75 65.75 0.234 7.66 1.9 8.95
8/25/2023 2:45:00 AM 18.73 65.714 0.231 7.66 2.18 8.98
8/25/2023 3:00:00 AM 18.72 65.696 0.23 7.66 3.08 8.97
8/25/2023 3:15:00 AM 18.69 65.642 0.221 7.66 7.47 9.06
8/25/2023 3:30:00 AM 18.65 65.57 0.216 7.67 11.68 9.1
8/25/2023 3:45:00 AM 18.57 65.426 0.2 7.66 43.82 9.15
8/25/2023 4:00:00 AM 18.54 65.372 0.168 7.64 68.11 9.24
8/25/2023 4:15:00 AM 18.41 65.138 0.173 7.6 69.75 9.26
8/25/2023 4:30:00 AM 18.31 64.958 0.168 7.57 91.58 9.26
8/25/2023 4:45:00 AM 18.09 64.562 0.166 7.52 131.21 9.31
8/25/2023 5:00:00 AM 18.18 64.724 0.148 7.45 120.91 9.32
8/25/2023 5:15:00 AM 18.24 64.832 0.124 7.41 142.24 9.32
8/25/2023 5:30:00 AM 18.25 64.85 0.121 7.38 145.37 9.31
8/25/2023 5:45:00 AM 18.22 64.796 0.125 7.37 125.53 9.32
8/25/2023 6:00:00 AM 18.19 64.742 0.137 7.39 109.52 9.33
8/25/2023 6:15:00 AM 18.16 64.688 0.148 7.41 95.27 9.34
8/25/2023 6:30:00 AM 18.18 64.724 0.147 7.41 98.04 9.34
8/25/2023 6:45:00 AM 18.21 64.778 0.149 7.44 114.77 9.32
8/25/2023 7:00:00 AM 18.24 64.832 0.144 7.43 106.66 9.31
8/25/2023 7:15:00 AM 18.29 64.922 0.139 7.43 101.33 9.3
8/25/2023 7:30:00 AM 18.34 65.012 0.137 7.42 89.39 9.29
8/25/2023 7:45:00 AM 18.41 65.138 0.137 7.42 77.55 9.27
8/25/2023 8:00:00 AM 18.5 65.3 0.138 7.42 67.08 9.24
8/25/2023 8:15:00 AM 18.62 65.516 0.139 7.43 57.09 9.22
8/25/2023 8:30:00 AM 18.75 65.75 0.14 7.44 50.02 9.21
8/25/2023 8:45:00 AM 18.87 65.966 0.141 7.45 45.22 9.18
8/25/2023 9:00:00 AM 18.98 66.164 0.143 7.47 40.91 9.16
8/25/2023 9:15:00 AM 19.09 66.362 0.145 7.47 37.16 9.17
8/25/2023 9:30:00 AM 19.18 66.524 0.147 7.49 34.25 9.16
8/25/2023 9:45:00 AM 19.28 66.704 0.149 7.5 32.3 9.14
8/25/2023 10:00:00 AM 19.37 66.866 0.148 7.51 29.61 9.12
8/25/2023 10:15:00 AM 19.45 67.01 0.152 7.52 26.46 9.13
8/25/2023 10:30:00 AM 19.52 67.136 0.153 7.53 26.59 9.13
8/25/2023 10:45:00 AM 19.56 67.208 0.154 7.53 24.35 9.12
8/25/2023 11:00:00 AM 19.63 67.334 0.155 7.54 23.48 9.11
8/25/2023 11:15:00 AM 19.7 67.46 0.156 7.55 21.63 9.12
8/25/2023 11:30:00 AM 19.75 67.55 0.157 7.55 20.29 9.11
8/25/2023 11:45:00 AM 19.78 67.604 0.157 7.56 19.12 9.12
8/25/2023 12:00:00 PM 19.84 67.712 0.158 7.56 17.82 9.13
8/25/2023 12:15:00 PM 19.89 67.802 0.159 7.57 16.87 9.15
8/25/2023 12:30:00 PM 19.96 67.92799 0.16 7.59 15.29 9.17
8/25/2023 12:45:00 PM 19.96 67.92799 0.161 7.59 14.44 9.14
8/25/2023 1:00:00 PM 19.97 67.946 0.161 7.58 14.24 9.11
8/25/2023 1:15:00 PM 20.02 68.036 0.162 7.59 13.43 9.1
8/25/2023 1:30:00 PM 20.12 68.216 0.162 7.6 13.44 9.13
8/25/2023 1:45:00 PM 20.2 68.36 0.163 7.61 12.12 9.16
8/25/2023 2:00:00 PM 20.22 68.396 0.164 7.61 11.58 9.16
8/25/2023 2:15:00 PM 20.24 68.432 0.164 7.61 11.48 9.16
8/25/2023 2:30:00 PM 20.25 68.45 0.165 7.62 11.2 9.16
8/25/2023 2:45:00 PM 20.26 68.468 0.165 7.63 10.49 9.16
8/25/2023 3:00:00 PM 20.26 68.468 0.166 7.62 10.18 9.13
8/25/2023 3:15:00 PM 20.28 68.504 0.166 7.62 9.93 9.13
8/25/2023 3:30:00 PM 20.3 68.54 0.166 7.62 9.52 9.13
8/25/2023 3:45:00 PM 20.33 68.594 0.166 7.62 9.06 9.11
8/25/2023 4:00:00 PM 20.34 68.612 0.166 7.61 9.06 9.08
8/25/2023 4:15:00 PM 20.36 68.648 0.166 7.61 8.9 9.07
8/25/2023 4:30:00 PM 20.38 68.684 0.166 7.61 8.71 9.06
8/25/2023 4:45:00 PM 20.39 68.702 0.166 7.62 8.64 9.06
8/25/2023 5:00:00 PM 20.38 68.684 0.166 7.61 8.96 9.05
8/25/2023 5:15:00 PM 20.38 68.684 0.166 7.62 8.59 9.04
8/25/2023 5:30:00 PM 20.37 68.666 0.166 7.61 8.65 9.02
8/25/2023 5:45:00 PM 20.38 68.684 0.166 7.61 8.64 9.01
8/25/2023 6:00:00 PM 20.37 68.666 0.166 7.62 8.66 8.99
8/25/2023 6:15:00 PM 20.37 68.666 0.166 7.61 8.35 8.97
8/25/2023 6:30:00 PM 20.38 68.684 0.167 7.62 8.22 8.95
8/25/2023 6:45:00 PM 20.39 68.702 0.167 7.61 8.13 8.93
8/25/2023 7:00:00 PM 20.39 68.702 0.167 7.61 7.79 8.91
8/25/2023 7:15:00 PM 20.4 68.72 0.167 7.61 7.77 8.89
8/25/2023 7:30:00 PM 20.41 68.738 0.168 7.6 7.7 8.87
8/25/2023 7:45:00 PM 20.4 68.72 0.168 7.59 7.97 8.85
8/25/2023 8:00:00 PM 20.39 68.702 0.168 7.58 7.68 8.84
8/25/2023 8:15:00 PM 20.37 68.666 0.168 7.57 7.6 8.83
8/25/2023 8:30:00 PM 20.34 68.612 0.168 7.56 7.97 8.83
8/25/2023 8:45:00 PM 20.32 68.576 0.168 7.56 7.77 8.83
8/25/2023 9:00:00 PM 20.3 68.54 0.169 7.55 7.77 8.82
8/25/2023 9:15:00 PM 20.29 68.522 0.169 7.54 7.21 8.83
8/25/2023 9:30:00 PM 20.29 68.522 0.17 7.53 7.33 8.83
8/25/2023 9:45:00 PM 20.28 68.504 0.17 7.53 7.22 8.82
8/25/2023 10:00:00 PM 20.26 68.468 0.17 7.53 7.05 8.83
8/25/2023 10:15:00 PM 20.25 68.45 0.17 7.53 7.3 8.84
8/25/2023 10:30:00 PM 20.23 68.414 0.17 7.53 7.29 8.84
8/25/2023 10:45:00 PM 20.22 68.396 0.17 7.53 7.34 8.84
8/25/2023 11:00:00 PM 20.21 68.378 0.17 7.52 7.08 8.84
8/25/2023 11:15:00 PM 20.21 68.378 0.17 7.52 7.38 8.84
8/25/2023 11:30:00 PM 20.21 68.378 0.17 7.52 7.1 8.85
8/25/2023 11:45:00 PM 20.2 68.36 0.17 7.52 6.93 8.84
8/26/2023 12:00:00 AM 20.2 68.36 0.17 7.52 6.8 8.85
8/26/2023 12:15:00 AM 20.2 68.36 0.17 7.52 7.12 8.84
8/26/2023 12:30:00 AM 20.2 68.36 0.171 7.52 6.77 8.84
8/26/2023 12:45:00 AM 20.21 68.378 0.171 7.52 6.67 8.84
8/26/2023 1:00:00 AM 20.22 68.396 0.171 7.52 6.51 8.83
8/26/2023 1:15:00 AM 20.23 68.414 0.171 7.52 6.43 8.83
8/26/2023 1:30:00 AM 20.24 68.432 0.171 7.52 6.3 8.82
8/26/2023 1:45:00 AM 20.26 68.468 0.172 7.52 6.23 8.82
8/26/2023 2:00:00 AM 20.27 68.486 0.172 7.53 5.95 8.81
8/26/2023 2:15:00 AM 20.28 68.504 0.172 7.53 6.2 8.81
8/26/2023 2:30:00 AM 20.29 68.522 0.172 7.53 6.08 8.81
8/26/2023 2:45:00 AM 20.29 68.522 0.173 7.53 6.09 8.81
8/26/2023 3:00:00 AM 20.29 68.522 0.173 7.53 6.04 8.81
8/26/2023 3:15:00 AM 20.28 68.504 0.173 7.53 5.98 8.81
8/26/2023 3:30:00 AM 20.27 68.486 0.173 7.53 5.8 8.81
8/26/2023 3:45:00 AM 20.26 68.468 0.173 7.53 5.84 8.81
8/26/2023 4:00:00 AM 20.25 68.45 0.173 7.53 5.91 8.81
8/26/2023 4:15:00 AM 20.23 68.414 0.173 7.53 5.9 8.81
8/26/2023 4:30:00 AM 20.22 68.396 0.174 7.53 6.05 8.81
8/26/2023 4:45:00 AM 20.2 68.36 0.174 7.53 6.64 8.81
8/26/2023 5:00:00 AM 20.19 68.342 0.174 7.54 5.51 8.82
8/26/2023 5:15:00 AM 20.18 68.324 0.174 7.53 5.72 8.82
8/26/2023 5:30:00 AM 20.17 68.306 0.174 7.53 5.48 8.82
8/26/2023 5:45:00 AM 20.16 68.288 0.174 7.54 5.39 8.83
8/26/2023 6:00:00 AM 20.16 68.288 0.174 7.53 5.39 8.83
8/26/2023 6:15:00 AM 20.15 68.27 0.174 7.53 5.7 8.83
8/26/2023 6:30:00 AM 20.15 68.27 0.175 7.54 5.44 8.83
8/26/2023 6:45:00 AM 20.15 68.27 0.175 7.54 5.49 8.83
8/26/2023 7:00:00 AM 20.15 68.27 0.175 7.55 5.47 8.83
8/26/2023 7:15:00 AM 20.15 68.27 0.175 7.55 5.38 8.85
8/26/2023 7:30:00 AM 20.15 68.27 0.175 7.55 5.18 8.87
8/26/2023 7:45:00 AM 20.16 68.288 0.176 7.56 5.05 8.89
8/26/2023 8:00:00 AM 20.17 68.306 0.176 7.57 4.98 8.9
8/26/2023 8:15:00 AM 20.19 68.342 0.176 7.58 4.92 8.93
8/26/2023 8:30:00 AM 20.2 68.36 0.176 7.59 4.91 8.96
8/26/2023 8:45:00 AM 20.23 68.414 0.176 7.6 4.96 9.02
8/26/2023 9:00:00 AM 20.24 68.432 0.176 7.61 4.85 9.02
8/26/2023 9:15:00 AM 20.27 68.486 0.176 7.63 4.64 9.06
8/26/2023 9:30:00 AM 20.29 68.522 0.176 7.64 4.67 9.08
8/26/2023 9:45:00 AM 20.31 68.558 0.176 7.65 4.45 9.09
8/26/2023 10:00:00 AM 20.32 68.576 0.176 7.65 4.6 9.09
8/26/2023 10:15:00 AM 20.37 68.666 0.176 7.67 4.57 9.13
8/26/2023 10:30:00 AM 20.43 68.774 0.176 7.69 4.61 9.18
8/26/2023 10:45:00 AM 20.47 68.846 0.176 7.69 4.44 9.18
8/26/2023 11:00:00 AM 20.49 68.882 0.177 7.7 4.38 9.2
8/26/2023 11:15:00 AM 20.51 68.918 0.177 7.71 4.47 9.2
8/26/2023 11:30:00 AM 20.53 68.954 0.177 7.72 4.49 9.21
8/26/2023 11:45:00 AM 20.56 69.008 0.177 7.72 4.37 9.24
8/26/2023 12:00:00 PM 20.59 69.062 0.177 7.74 4.25 9.27
8/26/2023 12:15:00 PM 20.63 69.134 0.177 7.75 4.25 9.29
8/26/2023 12:30:00 PM 20.65 69.17 0.177 7.75 4.39 9.27
8/26/2023 12:45:00 PM 20.73 69.314 0.177 7.75 4.42 9.31
8/26/2023 1:00:00 PM 20.76 69.368 0.177 7.75 4.44 9.28
8/26/2023 1:15:00 PM 20.83 69.494 0.177 7.76 4.38 9.25
8/26/2023 1:30:00 PM 20.96 69.728 0.177 7.77 4.09 9.29
8/26/2023 1:45:00 PM 21.08 69.944 0.177 7.79 4.2 9.3
8/26/2023 2:00:00 PM 21.1 69.98 0.178 7.78 4.19 9.24
8/26/2023 2:15:00 PM 21.16 70.088 0.178 7.77 4.31 9.19
8/26/2023 2:30:00 PM 21.3 70.34 0.178 7.78 4.14 9.19
8/26/2023 2:45:00 PM 21.56 70.808 0.178 7.8 4.19 9.24
8/26/2023 3:00:00 PM 21.74 71.132 0.178 7.81 4.25 9.22
8/26/2023 3:15:00 PM 21.73 71.114 0.179 7.79 4.18 9.08
8/26/2023 3:30:00 PM 21.79 71.222 0.179 7.79 4.09 9.07
8/26/2023 3:45:00 PM 21.82 71.276 0.179 7.78 3.94 9.01
8/26/2023 4:00:00 PM 21.82 71.276 0.179 7.78 3.98 8.96
8/26/2023 4:15:00 PM 21.8 71.24 0.179 7.76 4.08 8.9
8/26/2023 4:30:00 PM 21.79 71.222 0.18 7.75 3.86 8.88
8/26/2023 4:45:00 PM 21.8 71.24 0.18 7.75 4.12 8.89
8/26/2023 5:00:00 PM 21.75 71.15 0.18 7.74 4.09 8.82
8/26/2023 5:15:00 PM 21.68 71.024 0.18 7.72 3.97 8.77
8/26/2023 5:30:00 PM 21.67 71.006 0.18 7.72 4.07 8.8
8/26/2023 5:45:00 PM 21.66 70.988 0.18 7.72 4.19 8.78
8/26/2023 6:00:00 PM 21.66 70.988 0.18 7.72 4.08 8.76
8/26/2023 6:15:00 PM 21.66 70.988 0.18 7.71 3.89 8.73
8/26/2023 6:30:00 PM 21.64 70.952 0.18 7.7 3.98 8.7
8/26/2023 6:45:00 PM 21.61 70.898 0.18 7.69 4.05 8.67
8/26/2023 7:00:00 PM 21.56 70.808 0.18 7.68 4.04 8.65
8/26/2023 7:15:00 PM 21.5 70.7 0.181 7.67 4 8.64
8/26/2023 7:30:00 PM 21.44 70.592 0.181 7.66 4.16 8.62
8/26/2023 7:45:00 PM 21.38 70.484 0.181 7.66 4.15 8.61
8/26/2023 8:00:00 PM 21.33 70.394 0.181 7.65 4.07 8.6
8/26/2023 8:15:00 PM 21.28 70.304 0.181 7.65 4.1 8.58
8/26/2023 8:30:00 PM 21.25 70.25 0.181 7.64 4.35 8.57
8/26/2023 8:45:00 PM 21.23 70.214 0.182 7.64 4.46 8.57
8/26/2023 9:00:00 PM 21.22 70.196 0.182 7.64 4.23 8.56
8/26/2023 9:15:00 PM 21.21 70.17799 0.182 7.64 4.52 8.56
8/26/2023 9:30:00 PM 21.19 70.142 0.182 7.63 4.44 8.56
8/26/2023 9:45:00 PM 21.18 70.124 0.182 7.63 4.18 8.56
8/26/2023 10:00:00 PM 21.17 70.106 0.182 7.63 4.55 8.56
8/26/2023 10:15:00 PM 21.17 70.106 0.182 7.63 4.24 8.56
8/26/2023 10:30:00 PM 21.17 70.106 0.183 7.63 4.27 8.56
8/26/2023 10:45:00 PM 21.17 70.106 0.182 7.62 30.25 8.56
8/26/2023 11:00:00 PM 21.16 70.088 0.182 7.63 39.87 8.56
8/26/2023 11:15:00 PM 21.14 70.052 0.183 7.63 4.1 8.56
8/26/2023 11:30:00 PM 21.13 70.034 0.183 7.62 3.95 8.57
8/26/2023 11:45:00 PM 21.09 69.962 0.183 7.62 4.09 8.58
8/27/2023 12:00:00 AM 21.05 69.89 0.184 7.62 4 8.59
8/27/2023 12:15:00 AM 21 69.8 0.184 7.62 4 8.59
8/27/2023 12:30:00 AM 20.94 69.692 0.184 7.62 4.01 8.6
8/27/2023 12:45:00 AM 20.9 69.62 0.184 7.62 3.81 8.62
8/27/2023 1:00:00 AM 20.85 69.53 0.184 7.62 3.87 8.62
8/27/2023 1:15:00 AM 20.8 69.44 0.184 7.62 3.78 8.63
8/27/2023 1:30:00 AM 20.75 69.35 0.184 7.62 3.87 8.65
8/27/2023 1:45:00 AM 20.7 69.26 0.185 7.61 3.86 8.66
8/27/2023 2:00:00 AM 20.64 69.152 0.185 7.61 3.76 8.67
8/27/2023 2:15:00 AM 20.58 69.044 0.185 7.61 3.59 8.68
8/27/2023 2:30:00 AM 20.52 68.936 0.185 7.61 3.72 8.69
8/27/2023 2:45:00 AM 20.45 68.81 0.185 7.61 3.66 8.7
8/27/2023 3:00:00 AM 20.39 68.702 0.185 7.61 3.71 8.71
8/27/2023 3:15:00 AM 20.33 68.594 0.185 7.6 3.63 8.73
8/27/2023 3:30:00 AM 20.28 68.504 0.185 7.6 3.61 8.74
8/27/2023 3:45:00 AM 20.24 68.432 0.185 7.6 3.73 8.75
8/27/2023 4:00:00 AM 20.2 68.36 0.185 7.6 3.63 8.75
8/27/2023 4:15:00 AM 20.17 68.306 0.185 7.6 3.59 8.76
8/27/2023 4:30:00 AM 20.13 68.234 0.185 7.6 3.6 8.76
8/27/2023 4:45:00 AM 20.09 68.162 0.186 7.6 3.55 8.76
8/27/2023 5:00:00 AM 20.04 68.07201 0.186 7.6 3.61 8.77
8/27/2023 5:15:00 AM 20 68 0.186 7.6 3.67 8.78
8/27/2023 5:30:00 AM 19.95 67.91 0.186 7.6 3.55 8.8
8/27/2023 5:45:00 AM 19.92 67.856 0.186 7.6 3.5 8.81
8/27/2023 6:00:00 AM 19.88 67.784 0.186 7.6 3.48 8.81
8/27/2023 6:15:00 AM 19.85 67.73 0.186 7.6 3.66 8.82
8/27/2023 6:30:00 AM 19.83 67.694 0.186 7.6 3.53 8.83
8/27/2023 6:45:00 AM 19.8 67.64 0.186 7.6 3.47 8.85
8/27/2023 7:00:00 AM 19.77 67.586 0.186 7.6 3.5 8.85
8/27/2023 7:15:00 AM 19.75 67.55 0.186 7.61 4.15 8.88
8/27/2023 7:30:00 AM 19.74 67.532 0.186 7.61 3.34 8.91
8/27/2023 7:45:00 AM 19.74 67.532 0.186 7.62 3.39 8.97
8/27/2023 8:00:00 AM 19.74 67.532 0.186 7.63 3.18 9.03
8/27/2023 8:15:00 AM 19.75 67.55 0.186 7.63 3.18 9.06
8/27/2023 8:30:00 AM 19.76 67.568 0.186 7.65 3.35 9.08
8/27/2023 8:45:00 AM 19.77 67.586 0.186 7.65 3.12 9.1
8/27/2023 9:00:00 AM 19.8 67.64 0.186 7.66 3.24 9.15
8/27/2023 9:15:00 AM 19.81 67.658 0.187 7.67 3.19 9.16
8/27/2023 9:30:00 AM 19.84 67.712 0.187 7.68 3.11 9.2
8/27/2023 9:45:00 AM 19.86 67.748 0.187 7.69 3.11 9.17
8/27/2023 10:00:00 AM 19.88 67.784 0.187 7.69 3 9.17
8/27/2023 10:15:00 AM 19.91 67.838 0.187 7.7 3.02 9.21
8/27/2023 10:30:00 AM 19.94 67.892 0.196 7.7 3.01 9.21
8/27/2023 10:45:00 AM 20 68 0.196 7.73 2.95 9.31
8/27/2023 11:00:00 AM 20.06 68.108 0.195 7.75 3.11 9.38
8/27/2023 11:15:00 AM 20.11 68.198 0.194 7.76 2.95 9.38
8/27/2023 11:30:00 AM 20.12 68.216 0.192 7.76 86.95 9.31
8/27/2023 11:45:00 AM 20.14 68.252 0.193 7.76 2.95 9.3
8/27/2023 12:00:00 PM 20.19 68.342 0.192 7.77 53.36 9.38
8/27/2023 12:15:00 PM 20.24 68.432 0.192 7.78 2.99 9.38
8/27/2023 12:30:00 PM 20.28 68.504 0.192 7.78 92.34 9.37
8/27/2023 12:45:00 PM 20.34 68.612 0.19 7.8 2.96 9.43
8/27/2023 1:00:00 PM 20.41 68.738 0.188 7.82 2.94 9.48
8/27/2023 1:15:00 PM 20.46 68.828 0.188 7.83 2.89 9.5
8/27/2023 1:30:00 PM 20.53 68.954 0.188 7.85 2.86 9.54
8/27/2023 1:45:00 PM 20.65 69.17 0.188 7.87 2.82 9.59
8/27/2023 2:00:00 PM 20.71 69.278 0.188 7.88 2.94 9.58
8/27/2023 2:15:00 PM 20.74 69.332 0.188 7.88 2.92 9.56
8/27/2023 2:30:00 PM 20.74 69.332 0.188 7.88 2.69 9.54
8/27/2023 2:45:00 PM 20.81 69.458 0.188 7.89 2.89 9.53
8/27/2023 3:00:00 PM 20.88 69.584 0.188 7.88 2.91 9.5
8/27/2023 3:15:00 PM 20.98 69.764 0.188 7.88 3 9.46
8/27/2023 3:30:00 PM 21.09 69.962 0.188 7.88 2.81 9.4
8/27/2023 3:45:00 PM 21.2 70.16 0.188 7.87 2.76 9.36
8/27/2023 4:00:00 PM 21.28 70.304 0.188 7.87 2.89 9.29
8/27/2023 4:15:00 PM 21.32 70.376 0.188 7.85 3.01 9.21
8/27/2023 4:30:00 PM 21.36 70.448 0.188 7.84 51.35 9.15
8/27/2023 4:45:00 PM 21.43 70.574 0.189 7.84 29.17 9.15
8/27/2023 5:00:00 PM 21.48 70.664 0.189 7.84 3.05 9.14
8/27/2023 5:15:00 PM 21.48 70.664 0.189 7.83 3.05 9.1
8/27/2023 5:30:00 PM 21.49 70.682 0.189 7.82 49.83 9.05
8/27/2023 5:45:00 PM 21.49 70.682 0.19 7.8 76.76 8.98
8/27/2023 6:00:00 PM 21.47 70.646 0.19 7.78 191.41 8.91
8/27/2023 6:15:00 PM 21.43 70.574 0.19 7.76 2.99 8.83
8/27/2023 6:30:00 PM 21.4 70.52 0.189 7.75 2.94 8.8
8/27/2023 6:45:00 PM 21.35 70.43 0.189 7.74 46.07 8.77
8/27/2023 7:00:00 PM 21.29 70.32201 0.189 7.72 3.03 8.73
8/27/2023 7:15:00 PM 21.23 70.214 0.189 7.71 2.99 8.71
8/27/2023 7:30:00 PM 21.16 70.088 0.19 7.7 2.84 8.68
8/27/2023 7:45:00 PM 21.1 69.98 0.19 7.69 2.91 8.66
8/27/2023 8:00:00 PM 21.02 69.836 0.19 7.68 2.96 8.64
8/27/2023 8:15:00 PM 20.95 69.71 0.19 7.67 3.04 8.63
8/27/2023 8:30:00 PM 20.88 69.584 0.19 7.67 3.09 8.63
8/27/2023 8:45:00 PM 20.81 69.458 0.19 7.66 3.09 8.62
8/27/2023 9:00:00 PM 20.75 69.35 0.19 7.66 3.12 8.63
8/27/2023 9:15:00 PM 20.7 69.26 0.19 7.65 3.06 8.63
8/27/2023 9:30:00 PM 20.65 69.17 0.19 7.65 3.06 8.64
8/27/2023 9:45:00 PM 20.61 69.098 0.19 7.65 3.27 8.64
8/27/2023 10:00:00 PM 20.57 69.026 0.19 7.65 3.43 8.65
8/27/2023 10:15:00 PM 20.53 68.954 0.19 7.64 3.38 8.66
8/27/2023 10:30:00 PM 20.5 68.9 0.191 7.64 3.01 8.66
8/27/2023 10:45:00 PM 20.46 68.828 0.191 7.64 2.99 8.66
8/27/2023 11:00:00 PM 20.42 68.756 0.199 7.64 2.99 8.66
8/27/2023 11:15:00 PM 20.37 68.666 0.196 7.63 3.01 8.67
8/27/2023 11:30:00 PM 20.33 68.594 0.194 7.63 2.99 8.68
8/27/2023 11:45:00 PM 20.28 68.504 0.193 7.63 3.01 8.69
8/28/2023 12:00:00 AM 20.23 68.414 0.192 7.63 3.11 8.71
8/28/2023 12:15:00 AM 20.19 68.342 0.192 7.62 2.95 8.72
8/28/2023 12:30:00 AM 20.14 68.252 0.191 7.62 3 8.71
8/28/2023 12:45:00 AM 20.1 68.18 0.191 7.63 2.99 8.73
8/28/2023 1:00:00 AM 20.06 68.108 0.191 7.62 2.92 8.73
8/28/2023 1:15:00 AM 20.01 68.018 0.191 7.62 2.92 8.74
8/28/2023 1:30:00 AM 19.95 67.91 0.191 7.62 3 8.75
8/28/2023 1:45:00 AM 19.9 67.82 0.191 7.62 2.8 8.77
8/28/2023 2:00:00 AM 19.84 67.712 0.191 7.62 2.83 8.79
8/28/2023 2:15:00 AM 19.78 67.604 0.191 7.62 2.94 8.8
8/28/2023 2:30:00 AM 19.72 67.496 0.191 7.62 2.92 8.8
8/28/2023 2:45:00 AM 19.66 67.388 0.191 7.62 2.77 8.81
8/28/2023 3:00:00 AM 19.61 67.298 0.191 7.61 2.84 8.82
8/28/2023 3:15:00 AM 19.56 67.208 0.191 7.61 2.96 8.85
8/28/2023 3:30:00 AM 19.51 67.118 0.191 7.61 2.78 8.86
8/28/2023 3:45:00 AM 19.47 67.046 0.191 7.61 2.77 8.87
8/28/2023 4:00:00 AM 19.43 66.974 0.191 7.62 2.7 8.89
8/28/2023 4:15:00 AM 19.38 66.884 0.191 7.61 2.91 8.9
8/28/2023 4:30:00 AM 19.34 66.812 0.191 7.61 2.63 8.9
8/28/2023 4:45:00 AM 19.3 66.74 0.191 7.61 2.82 8.89
8/28/2023 5:00:00 AM 19.27 66.686 0.192 7.61 2.71 8.91
8/28/2023 5:15:00 AM 19.25 66.65 0.192 7.61 2.75 8.91
8/28/2023 5:30:00 AM 19.23 66.614 0.192 7.61 2.49 8.92
8/28/2023 5:45:00 AM 19.2 66.56 0.192 7.62 2.74 8.92
8/28/2023 6:00:00 AM 19.19 66.542 0.192 7.61 2.59 8.92
8/28/2023 6:15:00 AM 19.17 66.506 0.192 7.62 2.61 8.93
8/28/2023 6:30:00 AM 19.15 66.47 0.192 7.61 2.7 8.94
8/28/2023 6:45:00 AM 19.15 66.47 0.192 7.61 2.9 8.95
8/28/2023 7:00:00 AM 19.14 66.452 0.192 7.62 2.78 8.98
8/28/2023 7:15:00 AM 19.13 66.434 0.192 7.62 2.64 9
8/28/2023 7:30:00 AM 19.12 66.416 0.192 7.62 2.61 9.02
8/28/2023 7:45:00 AM 19.13 66.434 0.192 7.63 2.58 9.05
8/28/2023 8:00:00 AM 19.13 66.434 0.192 7.64 2.55 9.1
8/28/2023 8:15:00 AM 19.14 66.452 0.192 7.65 2.6 9.19
8/28/2023 8:30:00 AM 19.16 66.488 0.192 7.66 2.41 9.2
8/28/2023 8:45:00 AM 19.18 66.524 0.192 7.67 2.35 9.3
8/28/2023 9:00:00 AM 19.24 66.632 0.192 7.7 2.38 9.41
8/28/2023 9:15:00 AM 19.28 66.704 0.192 7.71 2.49 9.44
8/28/2023 9:30:00 AM 19.32 66.776 0.192 7.73 2.47 9.49
8/28/2023 9:45:00 AM 19.37 66.866 0.192 7.74 2.36 9.56
8/28/2023 10:00:00 AM 19.45 67.01 0.192 7.76 2.48 9.63
8/28/2023 10:15:00 AM 19.53 67.154 0.193 7.78 2.39 9.64
8/28/2023 10:30:00 AM 19.62 67.316 0.191 7.79 2.42 9.68
8/28/2023 10:45:00 AM 19.76 67.568 0.191 7.82 2.31 9.73
8/28/2023 11:00:00 AM 19.75 67.55 0.195 7.83 2.46 9.76
8/28/2023 11:15:00 AM 19.88 67.784 0.194 7.85 2.45 9.77
8/28/2023 11:30:00 AM 19.98 67.964 0.19 7.83 2.4 9.61
8/28/2023 11:45:00 AM 20.17 68.306 0.184 7.83 2.45 9.59
8/28/2023 12:00:00 PM 20.23 68.414 0.188 7.86 2.39 9.69
8/28/2023 12:15:00 PM 20.13 68.234 0.193 7.83 2.43 9.55
8/28/2023 12:30:00 PM 20.17 68.306 0.193 7.85 2.33 9.6
8/28/2023 12:45:00 PM 20.2 68.36 0.193 7.84 2.6 9.49
8/28/2023 1:00:00 PM 20.25 68.45 0.193 7.83 2.45 9.45
8/28/2023 1:15:00 PM 20.31 68.558 0.193 7.84 2.63 9.5
8/28/2023 1:30:00 PM 20.38 68.684 0.193 7.86 2.55 9.54
8/28/2023 1:45:00 PM 20.4 68.72 0.193 7.84 2.31 9.43
8/28/2023 2:00:00 PM 20.42 68.756 0.193 7.81 2.32 9.31
8/28/2023 2:15:00 PM 20.47 68.846 0.193 7.82 2.4 9.36
8/28/2023 2:30:00 PM 20.51 68.918 0.193 7.81 2.74 9.31
8/28/2023 2:45:00 PM 20.56 69.008 0.193 7.81 3.19 9.3
8/28/2023 3:00:00 PM 20.58 69.044 0.194 7.79 3.25 9.22
8/28/2023 3:15:00 PM 20.61 69.098 0.193 7.79 2.89 9.19
8/28/2023 3:30:00 PM 20.63 69.134 0.193 7.77 2.62 9.13
8/28/2023 3:45:00 PM 20.65 69.17 0.193 7.76 2.51 9.09
8/28/2023 4:00:00 PM 20.67 69.206 0.193 7.76 2.88 9.09
8/28/2023 4:15:00 PM 20.7 69.26 0.193 7.77 3.61 9.12
8/28/2023 4:30:00 PM 20.72 69.296 0.193 7.77 3.48 9.12
8/28/2023 4:45:00 PM 20.79 69.422 0.194 7.79 3.15 9.25
8/28/2023 5:00:00 PM 20.82 69.476 0.194 7.8 3.04 9.26
8/28/2023 5:15:00 PM 20.84 69.512 0.194 7.8 3.71 9.24
8/28/2023 5:30:00 PM 20.87 69.566 0.194 7.81 3.88 9.25
8/28/2023 5:45:00 PM 20.9 69.62 0.194 7.81 3.22 9.28
8/28/2023 6:00:00 PM 20.88 69.584 0.194 7.8 2.79 9.21
8/28/2023 6:15:00 PM 20.88 69.584 0.194 7.79 2.48 9.15
8/28/2023 6:30:00 PM 20.87 69.566 0.195 7.78 2.49 9.08
8/28/2023 6:45:00 PM 20.84 69.512 0.195 7.75 2.52 8.99
8/28/2023 7:00:00 PM 20.83 69.494 0.195 7.74 2.56 8.93
8/28/2023 7:15:00 PM 20.8 69.44 0.195 7.72 2.48 8.87
8/28/2023 7:30:00 PM 20.78 69.404 0.196 7.71 2.41 8.8
8/28/2023 7:45:00 PM 20.76 69.368 0.196 7.69 2.55 8.75
8/28/2023 8:00:00 PM 20.73 69.314 0.196 7.68 2.47 8.71
8/28/2023 8:15:00 PM 20.7 69.26 0.196 7.67 2.65 8.68
8/28/2023 8:30:00 PM 20.67 69.206 0.196 7.66 2.65 8.66
8/28/2023 8:45:00 PM 20.63 69.134 0.196 7.65 2.59 8.66
8/28/2023 9:00:00 PM 20.58 69.044 0.196 7.65 2.52 8.65
8/28/2023 9:15:00 PM 20.54 68.972 0.197 7.64 2.51 8.65
8/28/2023 9:30:00 PM 20.49 68.882 0.197 7.64 2.65 8.66
8/28/2023 9:45:00 PM 20.43 68.774 0.197 7.64 2.38 8.66
8/28/2023 10:00:00 PM 20.36 68.648 0.197 7.63 2.42 8.67
8/28/2023 10:15:00 PM 20.3 68.54 0.197 7.63 2.55 8.67
8/28/2023 10:30:00 PM 20.25 68.45 0.198 7.63 2.31 8.69
8/28/2023 10:45:00 PM 20.19 68.342 0.198 7.63 2.34 8.71
8/28/2023 11:00:00 PM 20.14 68.252 0.197 7.63 2.44 8.72
8/28/2023 11:15:00 PM 20.09 68.162 0.197 7.62 2.45 8.72
8/28/2023 11:30:00 PM 20.05 68.09 0.197 7.62 2.56 8.72
8/28/2023 11:45:00 PM 20.02 68.036 0.197 7.62 2.4 8.73
8/29/2023 12:00:00 AM 19.99 67.982 0.197 7.62 2.5 8.73
8/29/2023 12:15:00 AM 19.96 67.92799 0.197 7.62 2.38 8.73
8/29/2023 12:30:00 AM 19.94 67.892 0.197 7.62 2.5 8.74
8/29/2023 12:45:00 AM 19.9 67.82 0.197 7.62 2.31 8.75
8/29/2023 1:00:00 AM 19.87 67.766 0.197 7.62 2.33 8.75
8/29/2023 1:15:00 AM 19.83 67.694 0.197 7.62 2.3 8.77
8/29/2023 1:30:00 AM 19.79 67.622 0.197 7.61 2.42 8.78
8/29/2023 1:45:00 AM 19.75 67.55 0.197 7.61 2.42 8.79
8/29/2023 2:00:00 AM 19.71 67.478 0.197 7.61 2.21 8.8
8/29/2023 2:15:00 AM 19.66 67.388 0.198 7.61 2.41 8.8
8/29/2023 2:30:00 AM 19.62 67.316 0.198 7.61 2.34 8.8
8/29/2023 2:45:00 AM 19.58 67.244 0.198 7.61 2.25 8.81
8/29/2023 3:00:00 AM 19.54 67.172 0.198 7.61 2.19 8.82
8/29/2023 3:15:00 AM 19.49 67.082 0.198 7.61 2.24 8.84
8/29/2023 3:30:00 AM 19.45 67.01 0.198 7.61 2.27 8.85
8/29/2023 3:45:00 AM 19.41 66.938 0.198 7.61 2.27 8.86
8/29/2023 4:00:00 AM 19.36 66.848 0.199 7.61 2.28 8.87
8/29/2023 4:15:00 AM 19.32 66.776 0.199 7.61 2.42 8.88
8/29/2023 4:30:00 AM 19.28 66.704 0.199 7.61 2.28 8.89
8/29/2023 4:45:00 AM 19.24 66.632 0.199 7.61 2.2 8.89
8/29/2023 5:00:00 AM 19.2 66.56 0.199 7.61 2.17 8.89
8/29/2023 5:15:00 AM 19.16 66.488 0.199 7.61 2.3 8.9
8/29/2023 5:30:00 AM 19.12 66.416 0.199 7.61 2.16 8.91
8/29/2023 5:45:00 AM 19.09 66.362 0.199 7.6 2.22 8.92
8/29/2023 6:00:00 AM 19.06 66.308 0.199 7.6 2.2 8.93
8/29/2023 6:15:00 AM 19.03 66.254 0.199 7.6 2.28 8.94
8/29/2023 6:30:00 AM 19 66.2 0.2 7.6 2.27 8.94
8/29/2023 6:45:00 AM 18.97 66.146 0.199 7.61 2.18 8.97
8/29/2023 7:00:00 AM 18.96 66.128 0.199 7.61 2.28 9
8/29/2023 7:15:00 AM 18.94 66.092 0.199 7.62 2.36 9.04
8/29/2023 7:30:00 AM 18.94 66.092 0.199 7.63 2.18 9.11
8/29/2023 7:45:00 AM 18.95 66.11 0.199 7.64 2.11 9.17
8/29/2023 8:00:00 AM 18.95 66.11 0.199 7.65 2.18 9.22
8/29/2023 8:15:00 AM 18.98 66.164 0.199 7.67 2.11 9.33
8/29/2023 8:30:00 AM 19.01 66.218 0.199 7.68 1.99 9.38
8/29/2023 8:45:00 AM 19.03 66.254 0.199 7.69 1.97 9.36
8/29/2023 9:00:00 AM 19.07 66.326 0.199 7.7 1.95 9.42
8/29/2023 9:15:00 AM 19.14 66.452 0.198 7.73 2.01 9.55
8/29/2023 9:30:00 AM 19.2 66.56 0.198 7.76 2.02 9.64
8/29/2023 9:45:00 AM 19.27 66.686 0.198 7.78 2 9.71
8/29/2023 10:00:00 AM 19.33 66.794 0.198 7.81 2.03 9.8
8/29/2023 10:15:00 AM 19.38 66.884 0.198 7.82 2 9.8
8/29/2023 10:30:00 AM 19.43 66.974 0.198 7.83 2.05 9.79
8/29/2023 10:45:00 AM 19.53 67.154 0.198 7.86 2.24 9.9
8/29/2023 11:00:00 AM 19.61 67.298 0.198 7.89 2.96 9.95
8/29/2023 11:15:00 AM 19.69 67.442 0.198 7.9 3.56 9.95
8/29/2023 11:30:00 AM 19.77 67.586 0.198 7.92 3.85 9.96
8/29/2023 11:45:00 AM 19.86 67.748 0.198 7.95 3.32 9.99
8/29/2023 12:00:00 PM 19.96 67.92799 0.198 7.97 2.91 10.03
8/29/2023 12:15:00 PM 20.03 68.054 0.198 7.97 3.23 9.97
8/29/2023 12:30:00 PM 20.13 68.234 0.198 7.98 4.09 9.99
8/29/2023 12:45:00 PM 20.24 68.432 0.198 7.99 4.96 9.95
8/29/2023 1:00:00 PM 20.36 68.648 0.198 8 4.75 9.94
8/29/2023 1:15:00 PM 20.51 68.918 0.198 8.02 4.5 10.01
8/29/2023 1:30:00 PM 20.59 69.062 0.198 8.03 5 9.99
8/29/2023 1:45:00 PM 20.67 69.206 0.198 8.04 5.83 9.93
8/29/2023 2:00:00 PM 20.72 69.296 0.198 8.02 5.46 9.85
8/29/2023 2:15:00 PM 20.78 69.404 0.198 8.04 4.68 9.89
8/29/2023 2:30:00 PM 20.81 69.458 0.198 8.02 4.24 9.79
8/29/2023 2:45:00 PM 20.86 69.548 0.198 7.99 5.05 9.71
8/29/2023 3:00:00 PM 20.89 69.602 0.198 7.98 5.61 9.62
8/29/2023 3:15:00 PM 20.97 69.746 0.198 7.98 5.12 9.64
8/29/2023 3:30:00 PM 21.04 69.872 0.197 7.99 4.28 9.67
8/29/2023 3:45:00 PM 21.09 69.962 0.197 7.99 3.61 9.65
8/29/2023 4:00:00 PM 21.15 70.07 0.197 7.99 3.29 9.64
8/29/2023 4:15:00 PM 21.21 70.17799 0.195 7.98 2.9 9.57
8/29/2023 4:30:00 PM 21.29 70.32201 0.194 7.98 2.93 9.58
8/29/2023 4:45:00 PM 21.29 70.32201 0.197 7.95 2.76 9.47
8/29/2023 5:00:00 PM 21.3 70.34 0.197 7.93 2.61 9.37
8/29/2023 5:15:00 PM 21.31 70.358 0.198 7.91 2.58 9.29
8/29/2023 5:30:00 PM 21.3 70.34 0.198 7.88 2.51 9.2
8/29/2023 5:45:00 PM 21.28 70.304 0.198 7.84 2.45 9.04
8/29/2023 6:00:00 PM 21.26 70.268 0.198 7.81 2.27 9
8/29/2023 6:15:00 PM 21.24 70.232 0.198 7.79 2.21 8.92
8/29/2023 6:30:00 PM 21.22 70.196 0.198 7.77 2.1 8.86
8/29/2023 6:45:00 PM 21.2 70.16 0.198 7.75 2.17 8.82
8/29/2023 7:00:00 PM 21.18 70.124 0.198 7.73 2.14 8.76
8/29/2023 7:15:00 PM 21.16 70.088 0.199 7.71 2.18 8.71
8/29/2023 7:30:00 PM 21.14 70.052 0.199 7.69 2.2 8.63
8/29/2023 7:45:00 PM 21.12 70.016 0.199 7.67 2.22 8.58
8/29/2023 8:00:00 PM 21.11 69.998 0.199 7.66 2.31 8.54
8/29/2023 8:15:00 PM 21.09 69.962 0.199 7.65 2.44 8.51
8/29/2023 8:30:00 PM 21.08 69.944 0.199 7.64 2.4 8.49
8/29/2023 8:45:00 PM 21.05 69.89 0.199 7.63 2.31 8.47
8/29/2023 9:00:00 PM 21.03 69.854 0.2 7.62 2.36 8.46
8/29/2023 9:15:00 PM 21.01 69.818 0.2 7.62 2.37 8.45
8/29/2023 9:30:00 PM 20.99 69.782 0.2 7.62 2.38 8.46
8/29/2023 9:45:00 PM 20.97 69.746 0.2 7.62 2.41 8.46
8/29/2023 10:00:00 PM 20.95 69.71 0.2 7.62 2.33 8.46
8/29/2023 10:15:00 PM 20.92 69.656 0.201 7.62 2.29 8.46
8/29/2023 10:30:00 PM 20.89 69.602 0.201 7.61 2.42 8.46
8/29/2023 10:45:00 PM 20.86 69.548 0.201 7.61 2.27 8.47
8/29/2023 11:00:00 PM 20.82 69.476 0.202 7.61 2.37 8.48
8/29/2023 11:15:00 PM 20.78 69.404 0.202 7.61 2.36 8.49
8/29/2023 11:30:00 PM 20.75 69.35 0.202 7.61 2.3 8.49
8/29/2023 11:45:00 PM 20.71 69.278 0.202 7.61 2.37 8.5
8/30/2023 12:00:00 AM 20.67 69.206 0.202 7.61 2.27 8.5
8/30/2023 12:15:00 AM 20.63 69.134 0.202 7.61 2.32 8.51
8/30/2023 12:30:00 AM 20.59 69.062 0.202 7.61 2.31 8.51
8/30/2023 12:45:00 AM 20.55 68.99 0.202 7.61 2.16 8.53
8/30/2023 1:00:00 AM 20.51 68.918 0.201 7.61 2.35 8.53
8/30/2023 1:15:00 AM 20.47 68.846 0.201 7.6 2.2 8.55
8/30/2023 1:30:00 AM 20.42 68.756 0.201 7.6 2.27 8.56
8/30/2023 1:45:00 AM 20.38 68.684 0.201 7.6 2.34 8.57
8/30/2023 2:00:00 AM 20.35 68.63 0.201 7.6 2.33 8.56
8/30/2023 2:15:00 AM 20.31 68.558 0.201 7.6 2.31 8.57
8/30/2023 2:30:00 AM 20.27 68.486 0.201 7.6 2.21 8.57
8/30/2023 2:45:00 AM 20.25 68.45 0.201 7.59 2.2 8.57
8/30/2023 3:00:00 AM 20.23 68.414 0.201 7.59 2.54 8.57
8/30/2023 3:15:00 AM 20.2 68.36 0.201 7.59 2.16 8.57
8/30/2023 3:30:00 AM 20.18 68.324 0.199 7.59 2.25 8.6
8/30/2023 3:45:00 AM 20.11 68.198 0.188 7.62 3.83 8.76
8/30/2023 4:00:00 AM 20.05 68.09 0.184 7.62 13.16 8.79
8/30/2023 4:15:00 AM 19.9 67.82 0.158 7.61 82.28 8.9
8/30/2023 4:30:00 AM 19.74 67.532 0.122 7.49 232 9.03
8/30/2023 4:45:00 AM 19.5 67.1 0.145 7.46 159.84 9
8/30/2023 5:00:00 AM 19.49 67.082 0.119 7.36 266.18 8.98
8/30/2023 5:15:00 AM 19.46 67.028 0.113 7.38 246.2 9.01
8/30/2023 5:30:00 AM 19.46 67.028 0.096 7.35 291.42 9.02
8/30/2023 5:45:00 AM 19.36 66.848 0.093 7.32 271.27 9.04
8/30/2023 6:00:00 AM 19.31 66.758 0.099 7.32 225.27 9.05
8/30/2023 6:15:00 AM 19.31 66.758 0.107 7.34 164.96 9.04
8/30/2023 6:30:00 AM 19.33 66.794 0.108 7.37 122.74 9.04
8/30/2023 6:45:00 AM 19.33 66.794 0.121 7.39 96.3 9.05
8/30/2023 7:00:00 AM 19.3 66.74 0.129 7.41 89.4 9.08
8/30/2023 7:15:00 AM 19.32 66.776 0.133 7.42 93.23 9.07
8/30/2023 7:30:00 AM 19.41 66.938 0.135 7.44 88.36 9.05
8/30/2023 7:45:00 AM 19.5 67.1 0.138 7.43 74.37 9.04
8/30/2023 8:00:00 AM 19.58 67.244 0.14 7.46 64.55 9.04
8/30/2023 8:15:00 AM 19.62 67.316 0.142 7.46 60.1 9.04
8/30/2023 8:30:00 AM 19.64 67.352 0.143 7.46 49.34 9.03
8/30/2023 8:45:00 AM 19.66 67.388 0.145 7.48 44.41 9.04
8/30/2023 9:00:00 AM 19.7 67.46 0.147 7.47 40.51 9.04
8/30/2023 9:15:00 AM 19.72 67.496 0.149 7.48 37.29 9.03
8/30/2023 9:30:00 AM 19.76 67.568 0.15 7.49 40.54 9.04
8/30/2023 9:45:00 AM 19.77 67.586 0.151 7.49 33.55 9.04
8/30/2023 10:00:00 AM 19.78 67.604 0.152 7.49 29.51 9.05
8/30/2023 10:15:00 AM 19.79 67.622 0.153 7.49 27.65 9.07
8/30/2023 10:30:00 AM 19.8 67.64 0.154 7.51 24.74 9.08
8/30/2023 10:45:00 AM 19.82 67.676 0.155 7.51 24.74 9.08
8/30/2023 11:00:00 AM 19.83 67.694 0.154 7.51 22.53 9.09
8/30/2023 11:15:00 AM 19.85 67.73 0.156 7.51 20.58 9.09
8/30/2023 11:30:00 AM 19.86 67.748 0.157 7.51 19.15 9.11
8/30/2023 11:45:00 AM 19.9 67.82 0.156 7.52 18.4 9.12
8/30/2023 12:00:00 PM 19.94 67.892 0.156 7.54 17.83 9.13
8/30/2023 12:15:00 PM 19.97 67.946 0.156 7.53 16.91 9.13
8/30/2023 12:30:00 PM 20.03 68.054 0.156 7.54 16.05 9.14
8/30/2023 12:45:00 PM 20.03 68.054 0.157 7.54 16.88 9.12
8/30/2023 1:00:00 PM 20.05 68.09 0.156 7.53 16.75 9.13
8/30/2023 1:15:00 PM 20.06 68.108 0.155 7.54 16.69 9.13
8/30/2023 1:30:00 PM 20.05 68.09 0.154 7.54 16.4 9.12
8/30/2023 1:45:00 PM 20.08 68.144 0.154 7.54 16.42 9.13
8/30/2023 2:00:00 PM 20.03 68.054 0.154 7.54 16.86 9.12
8/30/2023 2:15:00 PM 20.02 68.036 0.154 7.53 16.46 9.12
8/30/2023 2:30:00 PM 20.06 68.108 0.153 7.54 16.32 9.12
8/30/2023 2:45:00 PM 20.09 68.162 0.153 7.54 16.2 9.12
8/30/2023 3:00:00 PM 20.07 68.126 0.152 7.54 16.3 9.1
8/30/2023 3:15:00 PM 20.09 68.162 0.151 7.54 16.03 9.1
8/30/2023 3:30:00 PM 20.11 68.198 0.152 7.54 15.6 9.09
8/30/2023 3:45:00 PM 20.14 68.252 0.152 7.54 15.35 9.08
8/30/2023 4:00:00 PM 20.14 68.252 0.153 7.54 15.12 9.07
8/30/2023 4:15:00 PM 20.14 68.252 0.153 7.54 14.38 9.06
8/30/2023 4:30:00 PM 20.12 68.216 0.153 7.54 14.25 9.05
8/30/2023 4:45:00 PM 20.09 68.162 0.154 7.54 14.35 9.05
8/30/2023 5:00:00 PM 20.05 68.09 0.153 7.54 13.44 9.05
8/30/2023 5:15:00 PM 20.02 68.036 0.154 7.54 13.12 9.05
8/30/2023 5:30:00 PM 20.01 68.018 0.154 7.54 12.98 9.04
8/30/2023 5:45:00 PM 20 68 0.153 7.54 12.81 9.04
8/30/2023 6:00:00 PM 20.02 68.036 0.152 7.54 12.38 9.02
8/30/2023 6:15:00 PM 20.05 68.09 0.153 7.54 11.93 9
8/30/2023 6:30:00 PM 20.1 68.18 0.153 7.55 11.74 8.98
8/30/2023 6:45:00 PM 20.15 68.27 0.153 7.55 11.65 8.97
8/30/2023 7:00:00 PM 20.14 68.252 0.153 7.55 11.22 8.97
8/30/2023 7:15:00 PM 20.14 68.252 0.154 7.55 11.16 8.96
8/30/2023 7:30:00 PM 20.14 68.252 0.154 7.55 11.16 8.95
8/30/2023 7:45:00 PM 20.15 68.27 0.155 7.55 10.88 8.94
8/30/2023 8:00:00 PM 20.16 68.288 0.155 7.55 10.92 8.93
8/30/2023 8:15:00 PM 20.16 68.288 0.156 7.55 10.83 8.92
8/30/2023 8:30:00 PM 20.16 68.288 0.155 7.55 10.59 8.91
8/30/2023 8:45:00 PM 20.16 68.288 0.155 7.55 10.57 8.91
8/30/2023 9:00:00 PM 20.17 68.306 0.155 7.55 10.3 8.9
8/30/2023 9:15:00 PM 20.21 68.378 0.154 7.56 10.11 8.9
8/30/2023 9:30:00 PM 20.28 68.504 0.155 7.55 10.03 8.89
8/30/2023 9:45:00 PM 20.34 68.612 0.155 7.55 9.7 8.87
8/30/2023 10:00:00 PM 20.39 68.702 0.155 7.55 9.67 8.85
8/30/2023 10:15:00 PM 20.43 68.774 0.154 7.56 9.28 8.84
8/30/2023 10:30:00 PM 20.44 68.792 0.154 7.56 9.34 8.84
8/30/2023 10:45:00 PM 20.41 68.738 0.154 7.56 9.3 8.85
8/30/2023 11:00:00 PM 20.38 68.684 0.153 7.56 9.03 8.85
8/30/2023 11:15:00 PM 20.37 68.666 0.153 7.56 9.13 8.85
8/30/2023 11:30:00 PM 20.33 68.594 0.153 7.56 9.07 8.86
8/30/2023 11:45:00 PM 20.28 68.504 0.154 7.56 9 8.87
8/31/2023 12:00:00 AM 20.23 68.414 0.153 7.57 8.86 8.88
8/31/2023 12:15:00 AM 20.21 68.378 0.153 7.57 8.85 8.88
8/31/2023 12:30:00 AM 20.19 68.342 0.153 7.57 8.76 8.88
8/31/2023 12:45:00 AM 20.17 68.306 0.153 7.57 9.02 8.88
8/31/2023 1:00:00 AM 20.15 68.27 0.153 7.58 8.83 8.89
8/31/2023 1:15:00 AM 20.13 68.234 0.153 7.59 8.8 8.89
8/31/2023 1:30:00 AM 20.11 68.198 0.153 7.59 9.07 8.89
8/31/2023 1:45:00 AM 20.09 68.162 0.153 7.59 9.02 8.89
8/31/2023 2:00:00 AM 20.07 68.126 0.153 7.59 8.61 8.89
8/31/2023 2:15:00 AM 20.06 68.108 0.153 7.59 9.34 8.9
8/31/2023 2:30:00 AM 20.04 68.07201 0.151 7.58 9.02 8.9
8/31/2023 2:45:00 AM 20.01 68.018 0.152 7.58 8.76 8.91
8/31/2023 3:00:00 AM 19.97 67.946 0.151 7.58 8.69 8.91
8/31/2023 3:15:00 AM 19.94 67.892 0.151 7.58 9.33 8.93
8/31/2023 3:30:00 AM 19.9 67.82 0.15 7.58 8.65 8.93
8/31/2023 3:45:00 AM 19.86 67.748 0.15 7.57 8.85 8.94
8/31/2023 4:00:00 AM 19.84 67.712 0.15 7.57 10.68 8.94
8/31/2023 4:15:00 AM 19.8 67.64 0.15 7.57 8.89 8.95
8/31/2023 4:30:00 AM 19.75 67.55 0.15 7.57 9.01 8.95
8/31/2023 4:45:00 AM 19.68 67.424 0.15 7.56 8.93 8.96
8/31/2023 5:00:00 AM 19.63 67.334 0.126 7.56 9.09 8.96
8/31/2023 5:15:00 AM 19.57 67.226 0.15 7.57 8.74 8.97
8/31/2023 5:30:00 AM 19.52 67.136 0.15 7.56 8.87 8.99
8/31/2023 5:45:00 AM 19.48 67.064 0.15 7.56 8.51 9.01
8/31/2023 6:00:00 AM 19.43 66.974 0.15 7.56 8.43 9.01
8/31/2023 6:15:00 AM 19.38 66.884 0.15 7.56 8.36 9.02
8/31/2023 6:30:00 AM 19.33 66.794 0.15 7.56 8.21 9.03
8/31/2023 6:45:00 AM 19.28 66.704 0.151 7.56 8.2 9.03
8/31/2023 7:00:00 AM 19.23 66.614 0.151 7.56 8.46 9.04
8/31/2023 7:15:00 AM 19.19 66.542 0.151 7.56 8.07 9.06
8/31/2023 7:30:00 AM 19.15 66.47 0.151 7.56 8.11 9.09
8/31/2023 7:45:00 AM 19.12 66.416 0.151 7.56 7.86 9.1
8/31/2023 8:00:00 AM 19.11 66.398 0.151 7.56 7.96 9.12
8/31/2023 8:15:00 AM 19.09 66.362 0.151 7.56 7.84 9.14
8/31/2023 8:30:00 AM 19.08 66.344 0.151 7.56 8.06 9.16
8/31/2023 8:45:00 AM 19.07 66.326 0.151 7.57 7.87 9.17
8/31/2023 9:00:00 AM 19.08 66.344 0.151 7.57 8.02 9.18
8/31/2023 9:15:00 AM 19.08 66.344 0.151 7.57 7.23 9.2
8/31/2023 9:30:00 AM 19.1 66.38 0.151 7.58 7.48 9.21
8/31/2023 9:45:00 AM 19.12 66.416 0.151 7.58 7.51 9.23
8/31/2023 10:00:00 AM 19.16 66.488 0.151 7.59 7.45 9.23
8/31/2023 10:15:00 AM 19.2 66.56 0.151 7.59 7.66 9.25
8/31/2023 10:30:00 AM 19.24 66.632 0.151 7.6 7.21 9.25
8/31/2023 10:45:00 AM 19.29 66.722 0.152 7.6 7.15 9.27
8/31/2023 11:00:00 AM 19.34 66.812 0.152 7.61 7.5 9.28
8/31/2023 11:15:00 AM 19.4 66.92 0.152 7.62 7.46 9.3
8/31/2023 11:30:00 AM 19.46 67.028 0.152 7.62 7.37 9.32
8/31/2023 11:45:00 AM 19.55 67.19 0.152 7.63 7.23 9.32
8/31/2023 12:00:00 PM 19.64 67.352 0.152 7.63 7.16 9.32
8/31/2023 12:15:00 PM 19.74 67.532 0.152 7.64 6.93 9.33
8/31/2023 12:30:00 PM 19.85 67.73 0.152 7.65 6.9 9.34
8/31/2023 12:45:00 PM 19.95 67.91 0.152 7.66 6.89 9.33
8/31/2023 1:00:00 PM 20.05 68.09 0.153 7.68 6.81 9.33
8/31/2023 1:15:00 PM 20.15 68.27 0.153 7.68 6.7 9.34
8/31/2023 1:30:00 PM 20.23 68.414 0.154 7.69 6.87 9.34
8/31/2023 1:45:00 PM 20.31 68.558 0.154 7.69 6.81 9.32
8/31/2023 2:00:00 PM 20.38 68.684 0.153 7.7 6.61 9.31
8/31/2023 2:15:00 PM 20.44 68.792 0.153 7.7 6.64 9.3
8/31/2023 2:30:00 PM 20.48 68.864 0.154 7.7 6.64 9.29
8/31/2023 2:45:00 PM 20.52 68.936 0.154 7.7 6.59 9.27
8/31/2023 3:00:00 PM 20.55 68.99 0.154 7.7 6.43 9.25
8/31/2023 3:15:00 PM 20.57 69.026 0.154 7.7 6.51 9.23
8/31/2023 3:30:00 PM 20.58 69.044 0.154 7.7 6.65 9.2
8/31/2023 3:45:00 PM 20.58 69.044 0.154 7.69 6.4 9.18
8/31/2023 4:00:00 PM 20.57 69.026 0.155 7.7 6.3 9.15
8/31/2023 4:15:00 PM 20.55 68.99 0.155 7.69 6.38 9.13
8/31/2023 4:30:00 PM 20.54 68.972 0.155 7.68 6.61 9.11
8/31/2023 4:45:00 PM 20.51 68.918 0.155 7.68 6.54 9.08
8/31/2023 5:00:00 PM 20.49 68.882 0.155 7.67 6.43 9.06
8/31/2023 5:15:00 PM 20.46 68.828 0.155 7.66 6.44 9.04
8/31/2023 5:30:00 PM 20.43 68.774 0.155 7.66 6.58 9.02
8/31/2023 5:45:00 PM 20.39 68.702 0.155 7.65 6.28 8.99
8/31/2023 6:00:00 PM 20.35 68.63 0.155 7.64 6.33 8.98
8/31/2023 6:15:00 PM 20.32 68.576 0.155 7.64 6.39 8.96
8/31/2023 6:30:00 PM 20.3 68.54 0.155 7.63 6.46 8.94
8/31/2023 6:45:00 PM 20.28 68.504 0.155 7.62 6.37 8.92
8/31/2023 7:00:00 PM 20.25 68.45 0.155 7.62 6.3 8.9
8/31/2023 7:15:00 PM 20.21 68.378 0.156 7.61 6.28 8.9
8/31/2023 7:30:00 PM 20.19 68.342 0.155 7.61 6.59 8.89
8/31/2023 7:45:00 PM 20.15 68.27 0.156 7.6 6.56 8.88
8/31/2023 8:00:00 PM 20.11 68.198 0.159 7.6 6.73 8.87
8/31/2023 8:15:00 PM 20.07 68.126 0.16 7.59 6.62 8.86
8/31/2023 8:30:00 PM 20.02 68.036 0.16 7.59 6.67 8.86
8/31/2023 8:45:00 PM 19.96 67.92799 0.16 7.58 6.84 8.87
8/31/2023 9:00:00 PM 19.92 67.856 0.159 7.58 7.09 8.87
8/31/2023 9:15:00 PM 19.86 67.748 0.158 7.58 7.02 8.89
8/31/2023 9:30:00 PM 19.8 67.64 0.157 7.58 6.62 8.91
8/31/2023 9:45:00 PM 19.74 67.532 0.156 7.58 6.9 8.91
8/31/2023 10:00:00 PM 19.68 67.424 0.156 7.58 6.78 8.93
8/31/2023 10:15:00 PM 19.62 67.316 0.156 7.57 7.03 8.93
8/31/2023 10:30:00 PM 19.56 67.208 0.156 7.57 6.83 8.94
8/31/2023 10:45:00 PM 19.5 67.1 0.156 7.57 6.43 8.96
8/31/2023 11:00:00 PM 19.44 66.992 0.157 7.57 6.66 8.98
8/31/2023 11:15:00 PM 19.38 66.884 0.157 7.57 6.56 9
8/31/2023 11:30:00 PM 19.32 66.776 0.157 7.57 6.26 9.01
8/31/2023 11:45:00 PM 19.25 66.65 0.157 7.56 6.25 9.02
9/1/2023 12:00:00 AM 19.19 66.542 0.157 7.56 6.19 9.03
9/1/2023 12:15:00 AM 19.12 66.416 0.156 7.57 6.36 9.05
9/1/2023 12:30:00 AM 19.05 66.29 0.156 7.56 6.32 9.08
9/1/2023 12:45:00 AM 18.98 66.164 0.156 7.56 6.12 9.09
9/1/2023 1:00:00 AM 18.91 66.038 0.156 7.56 6.18 9.11
9/1/2023 1:15:00 AM 18.84 65.912 0.156 7.56 6.3 9.12
9/1/2023 1:30:00 AM 18.77 65.786 0.156 7.56 5.99 9.13
9/1/2023 1:45:00 AM 18.7 65.66 0.156 7.56 6.27 9.15
9/1/2023 2:00:00 AM 18.63 65.534 0.156 7.55 6.09 9.17
9/1/2023 2:15:00 AM 18.56 65.408 0.155 7.56 6.2 9.19
9/1/2023 2:30:00 AM 18.5 65.3 0.155 7.55 6.22 9.2
9/1/2023 2:45:00 AM 18.43 65.174 0.155 7.55 5.98 9.2
9/1/2023 3:00:00 AM 18.37 65.066 0.155 7.55 5.91 9.22
9/1/2023 3:15:00 AM 18.31 64.958 0.155 7.55 6.3 9.23
9/1/2023 3:30:00 AM 18.26 64.868 0.155 7.55 6.25 9.25
9/1/2023 3:45:00 AM 18.2 64.76 0.155 7.55 6.07 9.26
9/1/2023 4:00:00 AM 18.14 64.652 0.155 7.54 6.38 9.28
9/1/2023 4:15:00 AM 18.09 64.562 0.162 7.55 5.97 9.28
9/1/2023 4:30:00 AM 18.05 64.49 0.155 7.54 6.08 9.29
9/1/2023 4:45:00 AM 18 64.4 0.155 7.54 6.14 9.29
9/1/2023 5:00:00 AM 17.95 64.31 0.155 7.54 5.89 9.3
9/1/2023 5:15:00 AM 17.91 64.238 0.155 7.54 5.77 9.32
9/1/2023 5:30:00 AM 17.88 64.184 0.155 7.54 5.93 9.33
9/1/2023 5:45:00 AM 17.84 64.112 0.155 7.54 6.2 9.35
9/1/2023 6:00:00 AM 17.8 64.04 0.155 7.54 6.02 9.36
9/1/2023 6:15:00 AM 17.76 63.968 0.155 7.54 5.75 9.36
9/1/2023 6:30:00 AM 17.73 63.914 0.155 7.54 5.84 9.37
9/1/2023 6:45:00 AM 17.69 63.842 0.155 7.54 5.82 9.38
9/1/2023 7:00:00 AM 17.66 63.788 0.155 7.54 5.62 9.4
9/1/2023 7:15:00 AM 17.64 63.752 0.155 7.55 5.75 9.4
9/1/2023 7:30:00 AM 17.62 63.716 0.155 7.55 5.72 9.44
9/1/2023 7:45:00 AM 17.6 63.68 0.155 7.55 5.48 9.47
9/1/2023 8:00:00 AM 17.58 63.644 0.155 7.56 5.48 9.49
9/1/2023 8:15:00 AM 17.58 63.644 0.155 7.56 5.17 9.52
9/1/2023 8:30:00 AM 17.57 63.626 0.155 7.57 5.24 9.54
9/1/2023 8:45:00 AM 17.58 63.644 0.155 7.57 5.56 9.56
9/1/2023 9:00:00 AM 17.59 63.662 0.155 7.57 5.15 9.57
9/1/2023 9:15:00 AM 17.63 63.734 0.155 7.57 5.13 9.59
9/1/2023 9:30:00 AM 17.67 63.806 0.155 7.58 4.99 9.6
9/1/2023 9:45:00 AM 17.72 63.896 0.155 7.59 5 9.62
9/1/2023 10:00:00 AM 17.77 63.986 0.155 7.6 4.87 9.64
9/1/2023 10:15:00 AM 17.83 64.094 0.156 7.6 4.88 9.66
9/1/2023 10:30:00 AM 17.92 64.256 0.156 7.61 4.82 9.66
9/1/2023 10:45:00 AM 18 64.4 0.156 7.62 4.64 9.66
9/1/2023 11:00:00 AM 18.11 64.598 0.156 7.62 4.74 9.68
9/1/2023 11:15:00 AM 18.22 64.796 0.156 7.63 5.03 9.69
9/1/2023 11:30:00 AM 18.33 64.994 0.156 7.64 4.48 9.69
9/1/2023 11:45:00 AM 18.45 65.21 0.157 7.65 4.45 9.69
9/1/2023 12:00:00 PM 18.56 65.408 0.157 7.66 4.72 9.69
9/1/2023 12:15:00 PM 18.69 65.642 0.157 7.67 4.49 9.71
9/1/2023 12:30:00 PM 18.84 65.912 0.157 7.68 4.27 9.7
9/1/2023 12:45:00 PM 18.97 66.146 0.167 7.68 4.52 9.7
9/1/2023 1:00:00 PM 19.12 66.416 0.167 7.69 4.32 9.68
9/1/2023 1:15:00 PM 19.26 66.668 0.167 7.7 4.4 9.67
9/1/2023 1:30:00 PM 19.41 66.938 0.167 7.7 4.25 9.66
9/1/2023 1:45:00 PM 19.55 67.19 0.167 7.71 4.34 9.63
9/1/2023 2:00:00 PM 19.68 67.424 0.166 7.71 4.5 9.6
9/1/2023 2:15:00 PM 19.79 67.622 0.167 7.71 4.26 9.58
9/1/2023 2:30:00 PM 19.9 67.82 0.165 7.72 4.34 9.55
9/1/2023 2:45:00 PM 19.98 67.964 0.161 7.71 4.2 9.52
9/1/2023 3:00:00 PM 20.05 68.09 0.159 7.71 4.32 9.5
9/1/2023 3:15:00 PM 20.1 68.18 0.156 7.71 4.33 9.47
9/1/2023 3:30:00 PM 20.13 68.234 0.157 7.7 4.17 9.43
9/1/2023 3:45:00 PM 20.15 68.27 0.158 7.7 4.08 9.39
9/1/2023 4:00:00 PM 20.18 68.324 0.158 7.69 4.13 9.36
9/1/2023 4:15:00 PM 20.21 68.378 0.158 7.69 4.15 9.32
9/1/2023 4:30:00 PM 20.21 68.378 0.158 7.68 4.11 9.28
9/1/2023 4:45:00 PM 20.21 68.378 0.158 7.68 3.97 9.26
9/1/2023 5:00:00 PM 20.21 68.378 0.157 7.67 4.07 9.23
9/1/2023 5:15:00 PM 20.22 68.396 0.157 7.66 3.96 9.19
9/1/2023 5:30:00 PM 20.21 68.378 0.158 7.65 4.12 9.17
9/1/2023 5:45:00 PM 20.19 68.342 0.159 7.65 3.89 9.13
9/1/2023 6:00:00 PM 20.18 68.324 0.159 7.64 4.02 9.1
9/1/2023 6:15:00 PM 20.15 68.27 0.159 7.63 4.04 9.08
9/1/2023 6:30:00 PM 20.12 68.216 0.159 7.62 3.94 9.04
9/1/2023 6:45:00 PM 20.08 68.144 0.158 7.61 4.02 9.01
9/1/2023 7:00:00 PM 20.04 68.07201 0.158 7.61 4 8.99
9/1/2023 7:15:00 PM 19.99 67.982 0.159 7.6 4.11 8.97
9/1/2023 7:30:00 PM 19.92 67.856 0.159 7.59 4.28 8.95
9/1/2023 7:45:00 PM 19.84 67.712 0.159 7.58 4.11 8.96
9/1/2023 8:00:00 PM 19.75 67.55 0.159 7.58 4.21 8.96
9/1/2023 8:15:00 PM 19.67 67.406 0.16 7.57 4.37 8.95
9/1/2023 8:30:00 PM 19.59 67.262 0.16 7.57 4.34 8.96
9/1/2023 8:45:00 PM 19.5 67.1 0.159 7.57 4.49 8.96
9/1/2023 9:00:00 PM 19.41 66.938 0.16 7.57 3.98 8.99
9/1/2023 9:15:00 PM 19.32 66.776 0.16 7.56 4.44 9.01
9/1/2023 9:30:00 PM 19.22 66.596 0.161 7.56 4.1 9
9/1/2023 9:45:00 PM 19.13 66.434 0.16 7.56 4.2 9.03
9/1/2023 10:00:00 PM 19.04 66.272 0.16 7.56 4.34 9.05
9/1/2023 10:15:00 PM 18.95 66.11 0.16 7.55 4.07 9.07
9/1/2023 10:30:00 PM 18.87 65.966 0.16 7.55 4.25 9.09
9/1/2023 10:45:00 PM 18.79 65.82201 0.16 7.55 4.18 9.1
9/1/2023 11:00:00 PM 18.71 65.67799 0.159 7.55 4.12 9.11
9/1/2023 11:15:00 PM 18.65 65.57 0.159 7.55 4.13 9.13
9/1/2023 11:30:00 PM 18.59 65.462 0.159 7.55 3.95 9.14
9/1/2023 11:45:00 PM 18.53 65.354 0.16 7.54 6.3 9.15
9/2/2023 12:00:00 AM 18.48 65.264 0.16 7.54 4.05 9.17
9/2/2023 12:15:00 AM 18.43 65.174 0.16 7.54 3.97 9.17
9/2/2023 12:30:00 AM 18.38 65.084 0.16 7.54 3.9 9.17
9/2/2023 12:45:00 AM 18.34 65.012 0.163 7.54 3.8 9.19
9/2/2023 1:00:00 AM 18.3 64.94 0.165 7.54 3.92 9.2
9/2/2023 1:15:00 AM 18.25 64.85 0.167 7.54 3.78 9.21
9/2/2023 1:30:00 AM 18.21 64.778 0.168 7.54 3.81 9.21
9/2/2023 1:45:00 AM 18.17 64.706 0.169 7.54 3.56 9.23
9/2/2023 2:00:00 AM 18.13 64.634 0.17 7.54 3.63 9.24
9/2/2023 2:15:00 AM 18.08 64.544 0.17 7.54 3.67 9.23
9/2/2023 2:30:00 AM 18.05 64.49 0.171 7.54 3.78 9.24
9/2/2023 2:45:00 AM 18.01 64.418 0.17 7.54 3.56 9.24
9/2/2023 3:00:00 AM 17.97 64.346 0.17 7.54 3.55 9.25
9/2/2023 3:15:00 AM 17.93 64.274 0.17 7.54 3.67 9.26
9/2/2023 3:30:00 AM 17.89 64.202 0.17 7.54 3.67 9.27
9/2/2023 3:45:00 AM 17.86 64.148 0.17 7.54 3.44 9.28
9/2/2023 4:00:00 AM 17.82 64.076 0.17 7.54 3.42 9.29
9/2/2023 4:15:00 AM 17.78 64.004 0.17 7.54 3.42 9.3
9/2/2023 4:30:00 AM 17.75 63.95 0.17 7.54 3.44 9.3
9/2/2023 4:45:00 AM 17.73 63.914 0.17 7.54 3.68 9.32
9/2/2023 5:00:00 AM 17.69 63.842 0.17 7.54 3.47 9.32
9/2/2023 5:15:00 AM 17.66 63.788 0.17 7.54 3.42 9.32
9/2/2023 5:30:00 AM 17.62 63.716 0.17 7.54 3.26 9.33
9/2/2023 5:45:00 AM 17.59 63.662 0.17 7.54 3.24 9.34
9/2/2023 6:00:00 AM 17.55 63.59 0.17 7.54 3.27 9.33
9/2/2023 6:15:00 AM 17.52 63.536 0.17 7.54 3.3 9.34
9/2/2023 6:30:00 AM 17.48 63.464 0.17 7.54 3.3 9.36
9/2/2023 6:45:00 AM 17.45 63.41 0.17 7.54 3.11 9.37
9/2/2023 7:00:00 AM 17.41 63.338 0.17 7.54 3.15 9.39
9/2/2023 7:15:00 AM 17.39 63.302 0.17 7.54 3.11 9.42
9/2/2023 7:30:00 AM 17.36 63.248 0.17 7.55 3.07 9.44
9/2/2023 7:45:00 AM 17.34 63.212 0.17 7.55 3.18 9.47
9/2/2023 8:00:00 AM 17.32 63.176 0.171 7.55 3.05 9.51
9/2/2023 8:15:00 AM 17.32 63.176 0.171 7.56 2.86 9.54
9/2/2023 8:30:00 AM 17.32 63.176 0.171 7.57 2.87 9.56
9/2/2023 8:45:00 AM 17.34 63.212 0.171 7.57 2.86 9.59
9/2/2023 9:00:00 AM 17.37 63.266 0.171 7.58 3 9.62
9/2/2023 9:15:00 AM 17.41 63.338 0.171 7.58 2.75 9.63
9/2/2023 9:30:00 AM 17.48 63.464 0.171 7.59 2.82 9.64
9/2/2023 9:45:00 AM 17.54 63.572 0.171 7.6 2.65 9.66
9/2/2023 10:00:00 AM 17.63 63.734 0.171 7.62 2.61 9.71
9/2/2023 10:15:00 AM 17.72 63.896 0.17 7.63 2.75 9.77
9/2/2023 10:30:00 AM 17.8 64.04 0.171 7.65 2.63 9.8
9/2/2023 10:45:00 AM 17.89 64.202 0.171 7.66 2.53 9.78
9/2/2023 11:00:00 AM 18.03 64.454 0.171 7.67 2.66 9.8
9/2/2023 11:15:00 AM 18.15 64.67 0.171 7.68 2.58 9.81
9/2/2023 11:30:00 AM 18.27 64.886 0.171 7.69 2.62 9.82
9/2/2023 11:45:00 AM 18.42 65.156 0.171 7.71 2.62 9.82
9/2/2023 12:00:00 PM 18.56 65.408 0.171 7.71 2.64 9.8
9/2/2023 12:15:00 PM 18.71 65.67799 0.171 7.72 2.58 9.78
9/2/2023 12:30:00 PM 18.87 65.966 0.171 7.72 2.56 9.78
9/2/2023 12:45:00 PM 19.04 66.272 0.171 7.73 2.51 9.76
9/2/2023 1:00:00 PM 19.22 66.596 0.171 7.74 2.49 9.73
9/2/2023 1:15:00 PM 19.39 66.902 0.171 7.74 2.49 9.71
9/2/2023 1:30:00 PM 19.56 67.208 0.171 7.75 2.49 9.67
9/2/2023 1:45:00 PM 19.74 67.532 0.171 7.75 2.6 9.65
9/2/2023 2:00:00 PM 19.92 67.856 0.172 7.76 2.41 9.63
9/2/2023 2:15:00 PM 20.05 68.09 0.172 7.77 2.44 9.65
9/2/2023 2:30:00 PM 20.17 68.306 0.172 7.78 2.43 9.62
9/2/2023 2:45:00 PM 20.28 68.504 0.172 7.78 2.46 9.56
9/2/2023 3:00:00 PM 20.39 68.702 0.172 7.77 2.47 9.52
9/2/2023 3:15:00 PM 20.47 68.846 0.172 7.77 2.46 9.47
9/2/2023 3:30:00 PM 20.55 68.99 0.172 7.76 2.45 9.41
9/2/2023 3:45:00 PM 20.58 69.044 0.172 7.75 2.43 9.35
9/2/2023 4:00:00 PM 20.61 69.098 0.172 7.74 2.5 9.31
9/2/2023 4:15:00 PM 20.63 69.134 0.173 7.74 2.46 9.29
9/2/2023 4:30:00 PM 20.64 69.152 0.173 7.74 2.36 9.27
9/2/2023 4:45:00 PM 20.63 69.134 0.173 7.74 2.38 9.26
9/2/2023 5:00:00 PM 20.61 69.098 0.173 7.73 2.39 9.25
9/2/2023 5:15:00 PM 20.58 69.044 0.174 7.73 2.41 9.24
9/2/2023 5:30:00 PM 20.55 68.99 0.174 7.72 2.33 9.18
9/2/2023 5:45:00 PM 20.5 68.9 0.174 7.71 2.51 9.16
9/2/2023 6:00:00 PM 20.45 68.81 0.174 7.7 2.41 9.12
9/2/2023 6:15:00 PM 20.38 68.684 0.174 7.68 2.44 9.07
9/2/2023 6:30:00 PM 20.32 68.576 0.174 7.67 2.37 9.03
9/2/2023 6:45:00 PM 20.24 68.432 0.175 7.66 2.29 9
9/2/2023 7:00:00 PM 20.15 68.27 0.174 7.64 2.25 8.97
9/2/2023 7:15:00 PM 20.06 68.108 0.174 7.63 2.33 8.94
9/2/2023 7:30:00 PM 19.98 67.964 0.174 7.62 2.37 8.91
9/2/2023 7:45:00 PM 19.91 67.838 0.174 7.61 2.57 8.88
9/2/2023 8:00:00 PM 19.84 67.712 0.174 7.6 2.48 8.86
9/2/2023 8:15:00 PM 19.78 67.604 0.174 7.59 2.46 8.84
9/2/2023 8:30:00 PM 19.72 67.496 0.174 7.58 2.52 8.87
9/2/2023 8:45:00 PM 19.66 67.388 0.174 7.58 2.67 8.87
9/2/2023 9:00:00 PM 19.6 67.28 0.174 7.57 2.63 8.88
9/2/2023 9:15:00 PM 19.54 67.172 0.174 7.57 2.42 8.88
9/2/2023 9:30:00 PM 19.48 67.064 0.174 7.56 2.42 8.87
9/2/2023 9:45:00 PM 19.42 66.956 0.174 7.56 2.54 8.88
9/2/2023 10:00:00 PM 19.37 66.866 0.174 7.56 2.62 8.9
9/2/2023 10:15:00 PM 19.3 66.74 0.174 7.56 2.48 8.9
9/2/2023 10:30:00 PM 19.24 66.632 0.175 7.56 2.51 8.93
9/2/2023 10:45:00 PM 19.18 66.524 0.175 7.56 2.45 8.93
9/2/2023 11:00:00 PM 19.13 66.434 0.175 7.55 2.67 8.94
9/2/2023 11:15:00 PM 19.08 66.344 0.174 7.55 2.43 8.95
9/2/2023 11:30:00 PM 19.03 66.254 0.174 7.55 2.46 8.96
9/2/2023 11:45:00 PM 18.98 66.164 0.174 7.55 2.51 8.97
9/3/2023 12:00:00 AM 18.95 66.11 0.174 7.55 2.62 8.98
9/3/2023 12:15:00 AM 18.91 66.038 0.174 7.55 2.43 8.99
9/3/2023 12:30:00 AM 18.87 65.966 0.174 7.55 2.59 9.01
9/3/2023 12:45:00 AM 18.84 65.912 0.174 7.55 2.45 9.02
9/3/2023 1:00:00 AM 18.79 65.82201 0.174 7.54 2.39 9.01
9/3/2023 1:15:00 AM 18.75 65.75 0.174 7.54 2.46 9.02
9/3/2023 1:30:00 AM 18.71 65.67799 0.174 7.54 2.36 9.02
9/3/2023 1:45:00 AM 18.67 65.606 0.174 7.54 2.32 9.03
9/3/2023 2:00:00 AM 18.63 65.534 0.174 7.54 2.5 9.04
9/3/2023 2:15:00 AM 18.59 65.462 0.174 7.54 2.44 9.05
9/3/2023 2:30:00 AM 18.55 65.39 0.174 7.54 2.51 9.06
9/3/2023 2:45:00 AM 18.51 65.318 0.174 7.54 2.44 9.07
9/3/2023 3:00:00 AM 18.48 65.264 0.174 7.54 2.4 9.08
9/3/2023 3:15:00 AM 18.45 65.21 0.174 7.54 2.35 9.08
9/3/2023 3:30:00 AM 18.42 65.156 0.174 7.54 2.32 9.09
9/3/2023 3:45:00 AM 18.41 65.138 0.174 7.54 2.28 9.09
9/3/2023 4:00:00 AM 18.4 65.12 0.174 7.54 2.3 9.1
9/3/2023 4:15:00 AM 18.4 65.12 0.174 7.54 2.36 9.09
9/3/2023 4:30:00 AM 18.41 65.138 0.174 7.54 2.4 9.09
9/3/2023 4:45:00 AM 18.41 65.138 0.174 7.54 2.36 9.09
9/3/2023 5:00:00 AM 18.41 65.138 0.174 7.54 2.5 9.09
9/3/2023 5:15:00 AM 18.41 65.138 0.175 7.54 2.27 9.09
9/3/2023 5:30:00 AM 18.42 65.156 0.175 7.54 2.29 9.08
9/3/2023 5:45:00 AM 18.42 65.156 0.175 7.54 2.22 9.08
9/3/2023 6:00:00 AM 18.43 65.174 0.175 7.54 2.27 9.09
9/3/2023 6:15:00 AM 18.43 65.174 0.175 7.54 2.19 9.08
9/3/2023 6:30:00 AM 18.43 65.174 0.175 7.54 2.21 9.09
9/3/2023 6:45:00 AM 18.42 65.156 0.175 7.54 2.21 9.08
9/3/2023 7:00:00 AM 18.41 65.138 0.175 7.55 2.07 9.11
9/3/2023 7:15:00 AM 18.4 65.12 0.175 7.55 2.17 9.13
9/3/2023 7:30:00 AM 18.39 65.102 0.175 7.55 2.18 9.16
9/3/2023 7:45:00 AM 18.39 65.102 0.175 7.56 2.05 9.19
9/3/2023 8:00:00 AM 18.39 65.102 0.175 7.56 2.09 9.24
9/3/2023 8:15:00 AM 18.4 65.12 0.175 7.57 1.93 9.27
9/3/2023 8:30:00 AM 18.42 65.156 0.175 7.58 1.92 9.32
9/3/2023 8:45:00 AM 18.44 65.192 0.176 7.59 1.94 9.35
9/3/2023 9:00:00 AM 18.48 65.264 0.176 7.59 1.95 9.38
9/3/2023 9:15:00 AM 18.52 65.336 0.176 7.6 1.9 9.4
9/3/2023 9:30:00 AM 18.58 65.444 0.176 7.61 1.93 9.42
9/3/2023 9:45:00 AM 18.65 65.57 0.176 7.62 1.86 9.44
9/3/2023 10:00:00 AM 18.73 65.714 0.176 7.63 1.95 9.48
9/3/2023 10:15:00 AM 18.82 65.876 0.176 7.64 1.83 9.5
9/3/2023 10:30:00 AM 18.92 66.056 0.176 7.65 1.94 9.53
9/3/2023 10:45:00 AM 19.03 66.254 0.176 7.66 1.87 9.53
9/3/2023 11:00:00 AM 19.15 66.47 0.176 7.68 1.94 9.55
9/3/2023 11:15:00 AM 19.29 66.722 0.176 7.69 1.82 9.56
9/3/2023 11:30:00 AM 19.44 66.992 0.176 7.7 1.9 9.56
9/3/2023 11:45:00 AM 19.6 67.28 0.176 7.72 1.78 9.58
9/3/2023 12:00:00 PM 19.77 67.586 0.176 7.73 1.76 9.57
9/3/2023 12:15:00 PM 19.93 67.874 0.176 7.74 1.75 9.58
9/3/2023 12:30:00 PM 20.12 68.216 0.176 7.75 1.8 9.57
9/3/2023 12:45:00 PM 20.29 68.522 0.176 7.77 1.75 9.59
9/3/2023 1:00:00 PM 20.46 68.828 0.176 7.78 1.74 9.56
9/3/2023 1:15:00 PM 20.66 69.188 0.176 7.79 1.75 9.57
9/3/2023 1:30:00 PM 20.84 69.512 0.176 7.8 1.71 9.55
9/3/2023 1:45:00 PM 21.02 69.836 0.176 7.81 1.84 9.54
9/3/2023 2:00:00 PM 21.19 70.142 0.176 7.82 1.77 9.5
9/3/2023 2:15:00 PM 21.35 70.43 0.176 7.83 1.88 9.47
9/3/2023 2:30:00 PM 21.52 70.736 0.176 7.83 1.76 9.43
9/3/2023 2:45:00 PM 21.66 70.988 0.176 7.83 1.72 9.39
9/3/2023 3:00:00 PM 21.78 71.204 0.176 7.83 1.71 9.35
9/3/2023 3:15:00 PM 21.9 71.42 0.176 7.83 1.74 9.3
9/3/2023 3:30:00 PM 21.98 71.564 0.177 7.82 1.71 9.25
9/3/2023 3:45:00 PM 22.05 71.69 0.177 7.82 1.75 9.18
9/3/2023 4:00:00 PM 22.09 71.762 0.177 7.8 1.77 9.13
9/3/2023 4:15:00 PM 22.11 71.798 0.177 7.79 1.73 9.07
9/3/2023 4:30:00 PM 22.12 71.816 0.177 7.78 1.79 9.02
9/3/2023 4:45:00 PM 22.11 71.798 0.177 7.77 1.83 8.97
9/3/2023 5:00:00 PM 22.09 71.762 0.177 7.75 1.73 8.93
9/3/2023 5:15:00 PM 22.07 71.726 0.177 7.74 2.38 8.88
9/3/2023 5:30:00 PM 22.02 71.636 0.177 7.72 2.64 8.83
9/3/2023 5:45:00 PM 21.95 71.51 0.177 7.71 2.79 8.76
9/3/2023 6:00:00 PM 21.87 71.366 0.177 7.68 3.44 8.68
9/3/2023 6:15:00 PM 21.79 71.222 0.177 7.67 2.97 8.67
9/3/2023 6:30:00 PM 21.71 71.078 0.177 7.66 2.31 8.65
9/3/2023 6:45:00 PM 21.62 70.916 0.177 7.64 2.09 8.62
9/3/2023 7:00:00 PM 21.52 70.736 0.177 7.63 1.94 8.6
9/3/2023 7:15:00 PM 21.42 70.556 0.177 7.62 1.94 8.58
9/3/2023 7:30:00 PM 21.32 70.376 0.177 7.61 2.33 8.57
9/3/2023 7:45:00 PM 21.21 70.17799 0.177 7.6 2.11 8.55
9/3/2023 8:00:00 PM 21.11 69.998 0.176 7.59 2.16 8.54
9/3/2023 8:15:00 PM 21.01 69.818 0.177 7.58 1.95 8.55
9/3/2023 8:30:00 PM 20.9 69.62 0.176 7.57 2.09 8.55
9/3/2023 8:45:00 PM 20.8 69.44 0.176 7.57 2.05 8.56
9/3/2023 9:00:00 PM 20.7 69.26 0.176 7.57 2.12 8.59
9/3/2023 9:15:00 PM 20.6 69.08 0.176 7.57 2 8.61
9/3/2023 9:30:00 PM 20.5 68.9 0.176 7.56 2.18 8.61
9/3/2023 9:45:00 PM 20.42 68.756 0.176 7.56 2.57 8.63
9/3/2023 10:00:00 PM 20.34 68.612 0.176 7.56 2.05 8.64
9/3/2023 10:15:00 PM 20.27 68.486 0.175 7.56 1.97 8.66
9/3/2023 10:30:00 PM 20.2 68.36 0.176 7.56 2.03 8.67
9/3/2023 10:45:00 PM 20.13 68.234 0.176 7.56 2 8.68
9/3/2023 11:00:00 PM 20.07 68.126 0.176 7.55 1.98 8.7
9/3/2023 11:15:00 PM 20.03 68.054 0.176 7.55 1.99 8.7
9/3/2023 11:30:00 PM 19.99 67.982 0.176 7.55 2.06 8.71
9/3/2023 11:45:00 PM 19.97 67.946 0.176 7.55 1.93 8.71
9/4/2023 12:00:00 AM 19.96 67.92799 0.176 7.55 1.96 8.72
9/4/2023 12:15:00 AM 19.95 67.91 0.176 7.55 2.01 8.72
9/4/2023 12:30:00 AM 19.96 67.92799 0.177 7.55 2.04 8.71
9/4/2023 12:45:00 AM 19.97 67.946 0.176 7.55 2.01 8.71
9/4/2023 1:00:00 AM 19.99 67.982 0.177 7.55 1.91 8.7
9/4/2023 1:15:00 AM 20.02 68.036 0.177 7.55 1.97 8.7
9/4/2023 1:30:00 AM 20.05 68.09 0.176 7.55 1.9 8.69
9/4/2023 1:45:00 AM 20.09 68.162 0.177 7.55 1.89 8.69
9/4/2023 2:00:00 AM 20.11 68.198 0.177 7.54 1.88 8.67
9/4/2023 2:15:00 AM 20.14 68.252 0.177 7.54 1.92 8.67
9/4/2023 2:30:00 AM 20.16 68.288 0.177 7.54 1.87 8.66
9/4/2023 2:45:00 AM 20.17 68.306 0.177 7.54 1.93 8.66
9/4/2023 3:00:00 AM 20.17 68.306 0.177 7.54 1.85 8.66
9/4/2023 3:15:00 AM 20.17 68.306 0.177 7.54 1.88 8.66
9/4/2023 3:30:00 AM 20.16 68.288 0.178 7.54 1.81 8.67
9/4/2023 3:45:00 AM 20.16 68.288 0.178 7.54 1.81 8.67
9/4/2023 4:00:00 AM 20.16 68.288 0.178 7.54 1.85 8.67
9/4/2023 4:15:00 AM 20.16 68.288 0.178 7.53 1.8 8.66
9/4/2023 4:30:00 AM 20.16 68.288 0.177 7.53 1.87 8.67
9/4/2023 4:45:00 AM 20.16 68.288 0.177 7.53 1.75 8.67
9/4/2023 5:00:00 AM 20.17 68.306 0.177 7.53 1.9 8.66
9/4/2023 5:15:00 AM 20.17 68.306 0.177 7.53 1.84 8.67
9/4/2023 5:30:00 AM 20.17 68.306 0.176 7.53 1.7 8.67
9/4/2023 5:45:00 AM 20.16 68.288 0.176 7.53 1.79 8.67
9/4/2023 6:00:00 AM 20.16 68.288 0.176 7.53 1.86 8.67
9/4/2023 6:15:00 AM 20.15 68.27 0.176 7.53 1.84 8.67
9/4/2023 6:30:00 AM 20.15 68.27 0.177 7.53 1.87 8.66
9/4/2023 6:45:00 AM 20.15 68.27 0.177 7.53 1.8 8.67
9/4/2023 7:00:00 AM 20.14 68.252 0.177 7.53 1.86 8.7
9/4/2023 7:15:00 AM 20.15 68.27 0.177 7.53 1.83 8.72
9/4/2023 7:30:00 AM 20.16 68.288 0.176 7.54 1.75 8.77
9/4/2023 7:45:00 AM 20.16 68.288 0.176 7.54 1.66 8.79
9/4/2023 8:00:00 AM 20.18 68.324 0.176 7.55 1.73 8.84
9/4/2023 8:15:00 AM 20.21 68.378 0.176 7.56 1.72 8.89
9/4/2023 8:30:00 AM 20.27 68.486 0.175 7.58 1.76 8.99
9/4/2023 8:45:00 AM 20.29 68.522 0.176 7.58 1.61 8.98
9/4/2023 9:00:00 AM 20.33 68.594 0.176 7.59 1.65 9.01
9/4/2023 9:15:00 AM 20.39 68.702 0.175 7.6 1.62 9.07
9/4/2023 9:30:00 AM 20.46 68.828 0.175 7.62 1.61 9.12
9/4/2023 9:45:00 AM 20.51 68.918 0.176 7.63 1.57 9.17
9/4/2023 10:00:00 AM 20.57 69.026 0.176 7.64 1.54 9.19
9/4/2023 10:15:00 AM 20.65 69.17 0.176 7.65 1.53 9.23
9/4/2023 10:30:00 AM 20.74 69.332 0.178 7.67 1.56 9.25
9/4/2023 10:45:00 AM 20.84 69.512 0.176 7.69 1.56 9.29
9/4/2023 11:00:00 AM 20.94 69.692 0.177 7.71 1.63 9.32
9/4/2023 11:15:00 AM 21.06 69.908 0.176 7.73 1.6 9.34
9/4/2023 11:30:00 AM 21.18 70.124 0.177 7.75 1.7 9.37
9/4/2023 11:45:00 AM 21.32 70.376 0.177 7.77 1.53 9.42
9/4/2023 12:00:00 PM 21.46 70.628 0.177 7.78 1.49 9.4
9/4/2023 12:15:00 PM 21.63 70.934 0.177 7.8 1.58 9.42
9/4/2023 12:30:00 PM 21.79 71.222 0.177 7.82 1.47 9.42
9/4/2023 12:45:00 PM 21.93 71.474 0.177 7.84 1.57 9.49
9/4/2023 1:00:00 PM 22.07 71.726 0.177 7.86 1.58 9.48
9/4/2023 1:15:00 PM 22.25 72.05 0.177 7.88 1.56 9.52
9/4/2023 1:30:00 PM 22.42 72.356 0.178 7.9 1.54 9.49
9/4/2023 1:45:00 PM 22.59 72.662 0.179 7.92 1.49 9.51
9/4/2023 2:00:00 PM 22.76 72.968 0.179 7.95 1.44 9.54
9/4/2023 2:15:00 PM 22.92 73.256 0.179 7.96 1.58 9.55
9/4/2023 2:30:00 PM 23.04 73.472 0.179 7.97 1.6 9.5
9/4/2023 2:45:00 PM 23.12 73.616 0.179 7.97 1.58 9.47
9/4/2023 3:00:00 PM 23.12 73.616 0.179 7.95 1.47 9.37
9/4/2023 3:15:00 PM 23.18 73.724 0.179 7.94 1.59 9.31
9/4/2023 3:30:00 PM 23.23 73.814 0.179 7.93 1.61 9.25
9/4/2023 3:45:00 PM 23.31 73.958 0.18 7.93 1.48 9.27
9/4/2023 4:00:00 PM 23.39 74.102 0.18 7.93 1.55 9.21
9/4/2023 4:15:00 PM 23.42 74.156 0.179 7.9 1.55 9.08
9/4/2023 4:30:00 PM 23.43 74.174 0.18 7.87 1.48 8.98
9/4/2023 4:45:00 PM 23.44 74.192 0.18 7.84 1.56 8.88
9/4/2023 5:00:00 PM 23.46 74.228 0.18 7.82 1.54 8.83
9/4/2023 5:15:00 PM 23.46 74.228 0.18 7.79 1.67 8.73
9/4/2023 5:30:00 PM 23.45 74.21 0.18 7.77 1.58 8.69
9/4/2023 5:45:00 PM 23.41 74.138 0.18 7.75 1.82 8.62
9/4/2023 6:00:00 PM 23.35 74.03 0.181 7.73 1.66 8.56
9/4/2023 6:15:00 PM 23.28 73.904 0.181 7.72 1.51 8.52
9/4/2023 6:30:00 PM 23.2 73.76 0.181 7.7 1.65 8.47
9/4/2023 6:45:00 PM 23.11 73.598 0.181 7.67 1.83 8.41
9/4/2023 7:00:00 PM 23.01 73.418 0.181 7.65 1.74 8.35
9/4/2023 7:15:00 PM 22.89 73.202 0.182 7.63 1.74 8.33
9/4/2023 7:30:00 PM 22.78 73.004 0.182 7.61 1.64 8.28
9/4/2023 7:45:00 PM 22.67 72.806 0.181 7.6 1.77 8.26
9/4/2023 8:00:00 PM 22.57 72.626 0.181 7.58 1.68 8.25
9/4/2023 8:15:00 PM 22.48 72.464 0.181 7.57 1.75 8.24
9/4/2023 8:30:00 PM 22.4 72.32 0.181 7.56 1.78 8.24
9/4/2023 8:45:00 PM 22.31 72.158 0.181 7.56 1.73 8.25
9/4/2023 9:00:00 PM 22.22 71.996 0.181 7.55 1.74 8.25
9/4/2023 9:15:00 PM 22.14 71.852 0.181 7.55 1.72 8.26
9/4/2023 9:30:00 PM 22.05 71.69 0.181 7.54 1.85 8.28
9/4/2023 9:45:00 PM 21.97 71.546 0.181 7.54 1.81 8.29
9/4/2023 10:00:00 PM 21.89 71.402 0.181 7.54 1.66 8.3
9/4/2023 10:15:00 PM 21.82 71.276 0.181 7.54 1.87 8.31
9/4/2023 10:30:00 PM 21.75 71.15 0.181 7.54 1.92 8.32
9/4/2023 10:45:00 PM 21.7 71.06 0.181 7.54 1.68 8.33
9/4/2023 11:00:00 PM 21.65 70.97 0.181 7.54 1.7 8.34
9/4/2023 11:15:00 PM 21.61 70.898 0.181 7.54 1.72 8.35
9/4/2023 11:30:00 PM 21.59 70.862 0.18 7.54 1.76 8.35
9/4/2023 11:45:00 PM 21.58 70.844 0.18 7.54 1.79 8.35
9/5/2023 12:00:00 AM 21.59 70.862 0.18 7.54 1.71 8.35
9/5/2023 12:15:00 AM 21.61 70.898 0.181 7.54 1.75 8.34
9/5/2023 12:30:00 AM 21.63 70.934 0.18 7.54 1.64 8.33
9/5/2023 12:45:00 AM 21.66 70.988 0.18 7.54 1.67 8.33
9/5/2023 1:00:00 AM 21.7 71.06 0.18 7.54 1.72 8.31
9/5/2023 1:15:00 AM 21.72 71.096 0.18 7.54 1.64 8.32
9/5/2023 1:30:00 AM 21.74 71.132 0.18 7.54 1.68 8.3
9/5/2023 1:45:00 AM 21.75 71.15 0.18 7.54 1.71 8.31
9/5/2023 2:00:00 AM 21.76 71.168 0.18 7.54 1.73 8.31
9/5/2023 2:15:00 AM 21.75 71.15 0.181 7.54 1.65 8.31
9/5/2023 2:30:00 AM 21.75 71.15 0.181 7.54 1.81 8.31
9/5/2023 2:45:00 AM 21.74 71.132 0.181 7.54 1.69 8.32
9/5/2023 3:00:00 AM 21.73 71.114 0.181 7.54 1.76 8.32
9/5/2023 3:15:00 AM 21.72 71.096 0.181 7.54 1.68 8.31
9/5/2023 3:30:00 AM 21.72 71.096 0.18 7.54 1.74 8.32
9/5/2023 3:45:00 AM 21.71 71.078 0.18 7.54 1.66 8.32
9/5/2023 4:00:00 AM 21.71 71.078 0.181 7.54 1.67 8.32
9/5/2023 4:15:00 AM 21.7 71.06 0.181 7.54 1.63 8.33
9/5/2023 4:30:00 AM 21.7 71.06 0.181 7.54 1.65 8.32
9/5/2023 4:45:00 AM 21.68 71.024 0.18 7.54 1.64 8.34
9/5/2023 5:00:00 AM 21.68 71.024 0.18 7.54 1.58 8.32
9/5/2023 5:15:00 AM 21.67 71.006 0.18 7.54 1.62 8.33
9/5/2023 5:30:00 AM 21.66 70.988 0.18 7.54 1.69 8.35
9/5/2023 5:45:00 AM 21.66 70.988 0.18 7.54 1.67 8.36
9/5/2023 6:00:00 AM 21.64 70.952 0.18 7.54 1.7 8.34
9/5/2023 6:15:00 AM 21.63 70.934 0.18 7.54 1.68 8.34
9/5/2023 6:30:00 AM 21.63 70.934 0.18 7.54 1.69 8.35
9/5/2023 6:45:00 AM 21.62 70.916 0.179 7.54 1.72 8.36
9/5/2023 7:00:00 AM 21.62 70.916 0.179 7.54 1.74 8.39
9/5/2023 7:15:00 AM 21.6 70.88 0.179 7.55 1.55 8.43
9/5/2023 7:30:00 AM 21.61 70.898 0.179 7.55 1.66 8.49
9/5/2023 7:45:00 AM 21.61 70.898 0.179 7.56 1.61 8.55
9/5/2023 8:00:00 AM 21.63 70.934 0.179 7.57 1.46 8.64
9/5/2023 8:15:00 AM 21.66 70.988 0.179 7.59 1.54 8.73
9/5/2023 8:30:00 AM 21.69 71.042 0.179 7.6 1.49 8.78
9/5/2023 8:45:00 AM 21.69 71.042 0.179 7.6 1.49 8.78
9/5/2023 9:00:00 AM 21.73 71.114 0.198 7.37 1.39 8.52
9/5/2023 9:15:00 AM 21.76 71.168 0.198 7.39 1.33 8.59
9/5/2023 9:30:00 AM 21.79 71.222 9.985 7.53 1.26 8.34
9/5/2023 9:45:00 AM 21.83 71.294 7.476 7.51 1.37 8.45
9/5/2023 10:00:00 AM 21.87 71.366 7.386 7.54 1.23 8.5
9/5/2023 10:15:00 AM 21.92 71.456 7.339 7.56 1.21 8.56
9/5/2023 10:30:00 AM 21.98 71.564 7.355 7.58 1.28 8.6
9/5/2023 10:45:00 AM 22.04 71.672 7.22 7.61 1.2 8.66
9/5/2023 11:00:00 AM 22.11 71.798 7.359 7.63 1.2 8.69
9/5/2023 11:15:00 AM 22.21 71.978 7.278 7.66 1.23 8.73
9/5/2023 11:30:00 AM 22.29 72.122 7.395 7.66 1.24 8.72
9/5/2023 11:45:00 AM 22.41 72.338 7.339 7.69 1.21 8.77
9/5/2023 12:00:00 PM 22.57 72.626 7.33 7.75 1.22 8.85
9/5/2023 12:15:00 PM 22.75 72.95 7.312 7.78 1.33 8.91
9/5/2023 12:30:00 PM 22.87 73.166 7.258 7.82 1.16 8.94
9/5/2023 12:45:00 PM 23.05 73.49 7.296 7.86 1.17 8.98
9/5/2023 1:00:00 PM 23.2 73.76 7.298 7.86 1.17 8.92
9/5/2023 1:15:00 PM 23.34 74.012 7.298 7.87 1.17 8.89
9/5/2023 1:30:00 PM 23.43 74.174 7.286 7.86 1.17 8.83
9/5/2023 1:45:00 PM 23.55 74.39 7.288 7.89 1.1 8.86
9/5/2023 2:00:00 PM 23.73 74.714 7.258 7.93 1.09 8.9
9/5/2023 2:15:00 PM 23.82 74.876 7.297 7.91 1.14 8.8
9/5/2023 2:30:00 PM 23.89 75.002 7.296 7.9 1.12 8.73
9/5/2023 2:45:00 PM 23.98 75.164 7.339 7.89 1.15 8.71
9/5/2023 3:00:00 PM 24.05 75.29 7.282 7.86 1.09 8.66
9/5/2023 3:15:00 PM 24.11 75.398 7.287 7.86 1.13 8.58
9/5/2023 3:30:00 PM 24.18 75.524 7.263 7.86 1.1 8.54
9/5/2023 3:45:00 PM 24.25 75.65 7.263 7.85 1.08 8.5
9/5/2023 4:00:00 PM 24.33 75.794 7.308 7.84 1.17 8.47
9/5/2023 4:15:00 PM 24.38 75.884 7.268 7.81 1.13 8.39
9/5/2023 4:30:00 PM 24.41 75.938 0.202 7.71 1.07 8.5
9/5/2023 4:45:00 PM 24.45 76.01 0.2 7.71 1.16 8.51
9/5/2023 5:00:00 PM 24.48 76.064 0.2 7.7 1.19 8.49
9/5/2023 5:15:00 PM 24.49 76.082 0.2 7.67 1.11 8.42
9/5/2023 5:30:00 PM 24.46 76.028 0.2 7.62 1.17 8.3
9/5/2023 5:45:00 PM 24.41 75.938 0.2 7.58 1.1 8.2
9/5/2023 6:00:00 PM 24.35 75.83 0.2 7.54 1.18 8.12
9/5/2023 6:15:00 PM 24.28 75.704 0.2 7.5 1.1 8.04
9/5/2023 6:30:00 PM 24.21 75.578 0.2 7.47 1.1 7.97
9/5/2023 6:45:00 PM 24.14 75.452 0.203 7.47 1.2 7.91
9/5/2023 7:00:00 PM 24.07 75.326 0.2 7.42 1.11 7.88
9/5/2023 7:15:00 PM 24 75.2 7.557 7.47 1.09 7.62
9/5/2023 7:30:00 PM 23.93 75.074 7.794 7.42 1.14 7.57
9/5/2023 7:45:00 PM 23.85 74.93 7.457 7.42 1.13 7.52
9/5/2023 8:00:00 PM 23.78 74.804 7.422 7.4 1.3 7.48
9/5/2023 8:15:00 PM 23.71 74.67799 7.4 7.39 1.25 7.47
9/5/2023 8:30:00 PM 23.64 74.552 7.363 7.38 1.23 7.46
9/5/2023 8:45:00 PM 23.58 74.444 7.361 7.37 1.28 7.45
9/5/2023 9:00:00 PM 23.52 74.336 7.408 7.36 1.35 7.45
9/5/2023 9:15:00 PM 23.47 74.246 7.339 7.35 1.27 7.45
9/5/2023 9:30:00 PM 23.43 74.174 7.396 7.35 1.16 7.45
9/5/2023 9:45:00 PM 23.42 74.156 7.337 7.34 1.21 7.45
9/5/2023 10:00:00 PM 23.42 74.156 7.283 7.35 1.21 7.45
9/5/2023 10:15:00 PM 23.44 74.192 7.341 7.35 1.27 7.44
9/5/2023 10:30:00 PM 23.45 74.21 7.355 7.34 1.27 7.43
9/5/2023 10:45:00 PM 23.47 74.246 7.284 7.35 1.31 7.42
9/5/2023 11:00:00 PM 23.48 74.264 7.33 7.34 1.35 7.42
9/5/2023 11:15:00 PM 23.48 74.264 7.308 7.34 1.23 7.42
9/5/2023 11:30:00 PM 23.47 74.246 7.335 7.34 1.26 7.43
9/5/2023 11:45:00 PM 23.45 74.21 7.208 7.34 1.38 7.42
9/6/2023 12:00:00 AM 23.43 74.174 7.195 7.34 1.38 7.44
9/6/2023 12:15:00 AM 23.4 74.12 7.194 7.34 1.33 7.44
9/6/2023 12:30:00 AM 23.36 74.048 7.259 7.34 1.28 7.45
9/6/2023 12:45:00 AM 23.33 73.994 7.25 7.33 1.23 7.46
9/6/2023 1:00:00 AM 23.27 73.886 7.263 7.33 1.38 7.46
9/6/2023 1:15:00 AM 23.22 73.796 7.209 7.33 1.2 7.47
9/6/2023 1:30:00 AM 23.18 73.724 7.312 7.33 1.3 7.47
9/6/2023 1:45:00 AM 23.12 73.616 7.226 7.33 1.16 7.49
9/6/2023 2:00:00 AM 23.06 73.508 7.27 7.32 1.32 7.5
9/6/2023 2:15:00 AM 23.01 73.418 7.238 7.32 1.33 7.51
9/6/2023 2:30:00 AM 22.96 73.328 7.193 7.33 1.21 7.52
9/6/2023 2:45:00 AM 22.92 73.256 7.275 7.32 1.24 7.54
9/6/2023 3:00:00 AM 22.85 73.13 7.216 7.33 1.28 7.55
9/6/2023 3:15:00 AM 22.8 73.04 7.248 7.32 1.21 7.55
9/6/2023 3:30:00 AM 22.74 72.932 7.292 7.32 1.27 7.56
9/6/2023 3:45:00 AM 22.7 72.86 7.273 7.31 1.59 7.56
9/6/2023 4:00:00 AM 22.65 72.77 7.265 7.32 1.29 7.58
9/6/2023 4:15:00 AM 22.59 72.662 7.259 7.32 1.32 7.58
9/6/2023 4:30:00 AM 22.55 72.59 7.267 7.32 1.59 7.6
9/6/2023 4:45:00 AM 22.49 72.482 7.232 7.32 1.39 7.6
9/6/2023 5:00:00 AM 22.44 72.392 7.276 7.32 1.34 7.62
9/6/2023 5:15:00 AM 22.39 72.302 7.24 7.33 1.32 7.62
9/6/2023 5:30:00 AM 22.35 72.23 7.232 7.32 1.29 7.65
9/6/2023 5:45:00 AM 22.3 72.14 7.23 7.33 1.33 7.65
9/6/2023 6:00:00 AM 22.25 72.05 7.251 7.32 1.29 7.65
9/6/2023 6:15:00 AM 22.22 71.996 7.254 7.33 1.41 7.66
9/6/2023 6:30:00 AM 22.18 71.924 7.242 7.33 1.38 7.67
9/6/2023 6:45:00 AM 22.15 71.87 7.29 7.33 1.3 7.68
9/6/2023 7:00:00 AM 22.11 71.798 7.285 7.34 1.32 7.7
9/6/2023 7:15:00 AM 22.09 71.762 7.259 7.34 1.25 7.74
9/6/2023 7:30:00 AM 22.06 71.708 7.334 7.35 1.23 7.79
9/6/2023 7:45:00 AM 22.05 71.69 7.312 7.36 1.29 7.85
9/6/2023 8:00:00 AM 22.04 71.672 7.294 7.38 1.27 7.92
9/6/2023 8:15:00 AM 22.03 71.654 7.315 7.39 1.27 7.98
9/6/2023 8:30:00 AM 22.02 71.636 7.264 7.4 1.28 8.04
9/6/2023 8:45:00 AM 22.02 71.636 7.295 7.43 1.21 8.12
9/6/2023 9:00:00 AM 22.04 71.672 7.311 7.45 1.17 8.22
9/6/2023 9:15:00 AM 22.07 71.726 7.3 7.5 1.16 8.35
9/6/2023 9:30:00 AM 22.09 71.762 7.225 7.52 1.2 8.42
9/6/2023 9:45:00 AM 22.11 71.798 7.219 7.54 1.15 8.49
9/6/2023 10:00:00 AM 22.15 71.87 7.265 7.58 1.18 8.58
9/6/2023 10:15:00 AM 22.19 71.942 7.26 7.61 1.17 8.66
9/6/2023 10:30:00 AM 22.25 72.05 7.282 7.65 1.14 8.77
9/6/2023 10:45:00 AM 22.32 72.176 7.288 7.69 1.14 8.85
9/6/2023 11:00:00 AM 22.39 72.302 7.247 7.68 1.24 8.76
9/6/2023 11:15:00 AM 22.48 72.464 7.146 7.7 1.14 8.79
9/6/2023 11:30:00 AM 22.57 72.626 7.244 7.72 1.21 8.77
9/6/2023 11:45:00 AM 22.67 72.806 7.294 7.73 1.11 8.77
9/6/2023 12:00:00 PM 22.8 73.04 7.279 7.74 1.06 8.79
9/6/2023 12:15:00 PM 22.99 73.382 7.258 7.81 1.11 8.88
9/6/2023 12:30:00 PM 23.18 73.724 7.222 7.84 1.14 8.93
9/6/2023 12:45:00 PM 23.35 74.03 7.267 7.91 1.04 9.03
9/6/2023 1:00:00 PM 23.48 74.264 7.277 7.94 1.02 9.03
9/6/2023 1:15:00 PM 23.61 74.498 7.228 7.97 1.02 9.02
9/6/2023 1:30:00 PM 23.78 74.804 7.26 8.01 1 9.07
9/6/2023 1:45:00 PM 23.91 75.038 7.218 8 0.99 8.99
9/6/2023 2:00:00 PM 24.05 75.29 7.218 8.01 1.08 8.95
9/6/2023 2:15:00 PM 24.17 75.506 7.237 8.04 0.95 8.96
9/6/2023 2:30:00 PM 24.34 75.812 7.277 8.08 1.07 8.98
9/6/2023 2:45:00 PM 24.49 76.082 7.231 8.11 0.97 9
9/6/2023 3:00:00 PM 24.56 76.208 7.278 8.05 0.99 8.81
9/6/2023 3:15:00 PM 24.62 76.316 7.263 8.05 0.96 8.83
9/6/2023 3:30:00 PM 24.64 76.352 7.283 8.04 0.97 8.76
9/6/2023 3:45:00 PM 24.67 76.406 7.329 7.99 0.96 8.65
9/6/2023 4:00:00 PM 24.69 76.442 7.293 7.95 1.03 8.55
9/6/2023 4:15:00 PM 24.72 76.496 7.296 7.92 1.06 8.48
9/6/2023 4:30:00 PM 24.71 76.478 7.306 7.86 0.94 8.35
9/6/2023 4:45:00 PM 24.73 76.514 7.269 7.82 0.92 8.25
9/6/2023 5:00:00 PM 24.73 76.514 7.327 7.78 1.1 8.15
9/6/2023 5:15:00 PM 24.74 76.532 7.324 7.74 1.03 8.06
9/6/2023 5:30:00 PM 24.73 76.514 7.29 7.7 1.06 7.98
9/6/2023 5:45:00 PM 24.72 76.496 7.307 7.67 0.99 7.89
9/6/2023 6:00:00 PM 24.7 76.46 7.309 7.63 0.99 7.8
9/6/2023 6:15:00 PM 24.69 76.442 7.335 7.6 1.05 7.73
9/6/2023 6:30:00 PM 24.65 76.37 7.336 7.56 0.98 7.66
9/6/2023 6:45:00 PM 24.61 76.298 7.315 7.53 1.02 7.57
9/6/2023 7:00:00 PM 24.56 76.208 7.346 7.5 1.02 7.51
9/6/2023 7:15:00 PM 24.5 76.1 7.36 7.48 1.04 7.45
9/6/2023 7:30:00 PM 24.44 75.992 7.38 7.45 1 7.38
9/6/2023 7:45:00 PM 24.37 75.866 7.347 7.43 1.11 7.33
9/6/2023 8:00:00 PM 24.3 75.74 7.342 7.41 1.07 7.3
9/6/2023 8:15:00 PM 24.23 75.614 7.364 7.4 1.26 7.29
9/6/2023 8:30:00 PM 24.16 75.488 7.386 7.38 1.19 7.28
9/6/2023 8:45:00 PM 24.08 75.344 7.337 7.39 1.06 7.29
9/6/2023 9:00:00 PM 24.01 75.218 7.41 7.39 1.12 7.29
9/6/2023 9:15:00 PM 23.93 75.074 7.337 7.38 1.12 7.31
9/6/2023 9:30:00 PM 23.84 74.912 7.293 7.37 1.05 7.32
9/6/2023 9:45:00 PM 23.75 74.75 7.385 7.37 1.13 7.32
9/6/2023 10:00:00 PM 23.66 74.588 7.346 7.36 1.16 7.34
9/6/2023 10:15:00 PM 23.55 74.39 7.396 7.36 1.13 7.35
9/6/2023 10:30:00 PM 23.46 74.228 7.384 7.35 1.16 7.37
9/6/2023 10:45:00 PM 23.36 74.048 7.412 7.35 1.16 7.38
9/6/2023 11:00:00 PM 23.26 73.868 7.418 7.35 1.08 7.4
9/6/2023 11:15:00 PM 23.18 73.724 7.411 7.35 1.21 7.42
9/6/2023 11:30:00 PM 23.09 73.562 7.429 7.35 1.14 7.43
9/6/2023 11:45:00 PM 23.01 73.418 7.398 7.35 1.15 7.45
9/7/2023 12:00:00 AM 22.92 73.256 7.416 7.35 1.16 7.46
9/7/2023 12:15:00 AM 22.84 73.112 7.425 7.35 1.18 7.48
9/7/2023 12:30:00 AM 22.76 72.968 7.442 7.34 1.14 7.48
9/7/2023 12:45:00 AM 22.69 72.842 7.441 7.35 1.18 7.51
9/7/2023 1:00:00 AM 22.62 72.716 7.447 7.34 1.28 7.51
9/7/2023 1:15:00 AM 22.55 72.59 7.429 7.34 1.19 7.52
9/7/2023 1:30:00 AM 22.49 72.482 7.413 7.34 1.17 7.54
9/7/2023 1:45:00 AM 22.43 72.374 7.435 7.34 1.29 7.55
9/7/2023 2:00:00 AM 22.35 72.23 7.444 7.33 1.23 7.55
9/7/2023 2:15:00 AM 22.3 72.14 7.412 7.33 1.16 7.57
9/7/2023 2:30:00 AM 22.25 72.05 7.397 7.34 1.17 7.58
9/7/2023 2:45:00 AM 22.19 71.942 7.302 7.34 1.18 7.6
9/7/2023 3:00:00 AM 22.13 71.834 7.428 7.33 1.2 7.6
9/7/2023 3:15:00 AM 22.08 71.744 7.409 7.34 1.28 7.62
9/7/2023 3:30:00 AM 22.02 71.636 7.418 7.33 1.26 7.62
9/7/2023 3:45:00 AM 21.96 71.528 7.403 7.33 1.19 7.63
9/7/2023 4:00:00 AM 21.91 71.438 7.412 7.33 1.16 7.64
9/7/2023 4:15:00 AM 21.86 71.348 7.46 7.33 1.28 7.64
9/7/2023 4:30:00 AM 21.81 71.258 7.427 7.33 1.2 7.65
9/7/2023 4:45:00 AM 21.76 71.168 7.475 7.33 1.17 7.66
9/7/2023 5:00:00 AM 21.71 71.078 7.454 7.32 1.23 7.68
9/7/2023 5:15:00 AM 21.65 70.97 7.437 7.33 1.19 7.69
9/7/2023 5:30:00 AM 21.6 70.88 7.445 7.32 1.13 7.69
9/7/2023 5:45:00 AM 21.56 70.808 7.385 7.33 1.14 7.7
9/7/2023 6:00:00 AM 21.5 70.7 7.422 7.32 1.22 7.71
9/7/2023 6:15:00 AM 21.45 70.61 7.445 7.32 1.26 7.72
9/7/2023 6:30:00 AM 21.42 70.556 7.444 7.32 1.21 7.73
9/7/2023 6:45:00 AM 21.37 70.466 7.372 7.33 4.26 7.75
9/7/2023 7:00:00 AM 21.34 70.412 7.418 7.34 1.21 7.8
9/7/2023 7:15:00 AM 21.29 70.32201 7.478 7.33 1.23 7.85
9/7/2023 7:30:00 AM 21.27 70.286 7.473 7.35 1.09 7.91
9/7/2023 7:45:00 AM 21.25 70.25 7.455 7.35 1.16 7.98
9/7/2023 8:00:00 AM 21.26 70.268 7.457 7.39 1.1 8.15
9/7/2023 8:15:00 AM 21.26 70.268 7.442 7.41 1.21 8.19
9/7/2023 8:30:00 AM 21.27 70.286 7.489 7.42 1.17 8.29
9/7/2023 8:45:00 AM 21.32 70.376 7.445 7.48 1.17 8.48
9/7/2023 9:00:00 AM 21.35 70.43 7.502 7.49 1.05 8.51
9/7/2023 9:15:00 AM 21.41 70.538 7.513 7.51 1.02 8.56
9/7/2023 9:30:00 AM 21.47 70.646 7.453 7.53 1.08 8.62
9/7/2023 9:45:00 AM 21.54 70.772 7.436 7.57 1.13 8.7
9/7/2023 10:00:00 AM 21.63 70.934 7.429 7.59 1.12 8.76
9/7/2023 10:15:00 AM 21.72 71.096 7.492 7.62 1.16 8.81
9/7/2023 10:30:00 AM 21.82 71.276 7.461 7.66 1.07 8.87
9/7/2023 10:45:00 AM 21.93 71.474 7.489 7.69 1.11 8.91
9/7/2023 11:00:00 AM 22.05 71.69 7.49 7.73 0.97 8.94
9/7/2023 11:15:00 AM 22.19 71.942 7.465 7.78 1 9
9/7/2023 11:30:00 AM 22.31 72.158 7.459 7.81 1.01 9.01
9/7/2023 11:45:00 AM 22.45 72.41 7.451 7.85 0.98 9.05
9/7/2023 12:00:00 PM 22.61 72.698 7.483 7.88 0.96 9.09
9/7/2023 12:15:00 PM 22.79 73.022 7.499 7.97 1.04 9.2
9/7/2023 12:30:00 PM 22.96 73.328 7.489 7.98 0.97 9.17
9/7/2023 12:45:00 PM 23.15 73.67 7.481 8.02 0.92 9.18
9/7/2023 1:00:00 PM 23.34 74.012 7.442 8.07 0.96 9.21
9/7/2023 1:15:00 PM 23.55 74.39 0.207 8.05 0.94 9.46
9/7/2023 1:30:00 PM 23.73 74.714 0.207 8.09 0.91 9.45
9/7/2023 1:45:00 PM 23.91 75.038 0.208 8.12 0.96 9.45
9/7/2023 2:00:00 PM 24.09 75.362 0.208 8.15 0.95 9.42
9/7/2023 2:15:00 PM 24.2 75.56 7.723 8.15 0.92 9.02
9/7/2023 2:30:00 PM 24.33 75.794 8.076 8.22 0.89 9.08
9/7/2023 2:45:00 PM 24.32 75.776 0.183 8.15 0.86 8.91
9/7/2023 3:00:00 PM 24.4 75.92 0.207 8.08 0.96 9.15
9/7/2023 3:15:00 PM 24.48 76.064 0.208 8.12 0.89 9.2
9/7/2023 3:30:00 PM 24.54 76.172 0.208 8.09 0.92 9.1
9/7/2023 3:45:00 PM 24.6 76.28 0.208 8.08 0.93 9.06
9/7/2023 4:00:00 PM 24.59 76.262 0.208 7.95 0.91 8.79
9/7/2023 4:15:00 PM 24.58 76.244 0.209 7.82 0.91 8.52
9/7/2023 4:30:00 PM 24.52 76.136 0.21 7.69 0.91 8.18
9/7/2023 4:45:00 PM 24.24 75.632 0.208 7.59 1.19 8
9/7/2023 5:00:00 PM 24.08 75.344 0.204 7.54 1.51 7.88
9/7/2023 5:15:00 PM 23.96 75.128 0.203 7.47 2.72 7.75
9/7/2023 5:30:00 PM 23.8 74.84 0.204 7.41 7.92 7.66
9/7/2023 5:45:00 PM 23.68 74.624 0.204 7.39 13.47 7.59
9/7/2023 6:00:00 PM 23.54 74.372 0.211 7.37 10.32 7.58
9/7/2023 6:15:00 PM 23.39 74.102 0.221 7.38 8.22 7.58
9/7/2023 6:30:00 PM 23.18 73.724 0.245 7.4 8.98 7.63
9/7/2023 6:45:00 PM 22.88 73.184 0.241 7.36 19.25 7.63
9/7/2023 7:00:00 PM 22.74 72.932 0.231 7.35 21.52 7.66
9/7/2023 7:15:00 PM 22.52 72.536 0.226 7.34 28.69 7.72
9/7/2023 7:30:00 PM 22.38 72.284 0.223 7.34 21.85 7.75
9/7/2023 7:45:00 PM 22.31 72.158 0.204 7.31 20.58 7.74
9/7/2023 8:00:00 PM 22.23 72.014 0.189 7.28 21.46 7.73
9/7/2023 8:15:00 PM 22.09 71.762 0.188 7.27 25.59 7.76
9/7/2023 8:30:00 PM 21.92 71.456 0.19 7.26 23.44 7.8
9/7/2023 8:45:00 PM 21.77 71.186 0.188 7.27 23.31 7.84
9/7/2023 9:00:00 PM 21.64 70.952 0.186 7.26 23.36 7.88
9/7/2023 9:15:00 PM 21.55 70.79 0.191 7.27 23.46 7.91
9/7/2023 9:30:00 PM 21.5 70.7 0.197 7.27 23.36 7.93
9/7/2023 9:45:00 PM 21.47 70.646 0.207 7.3 21.94 7.95
9/7/2023 10:00:00 PM 21.47 70.646 0.217 7.31 19.47 7.98
9/7/2023 10:15:00 PM 21.49 70.682 0.227 7.31 18.3 7.99
9/7/2023 10:30:00 PM 21.48 70.664 0.235 7.33 15.53 7.99
9/7/2023 10:45:00 PM 21.42 70.556 0.241 7.32 15.01 8.01
9/7/2023 11:00:00 PM 21.32 70.376 0.247 7.33 14.51 8.03
9/7/2023 11:15:00 PM 21.23 70.214 0.249 7.33 13.36 8.04
9/7/2023 11:30:00 PM 21.15 70.07 0.245 7.33 11.78 8.05
9/7/2023 11:45:00 PM 21.08 69.944 0.24 7.32 11.3 8.05
9/8/2023 12:00:00 AM 21.03 69.854 0.234 7.32 10.25 8.07
9/8/2023 12:15:00 AM 20.97 69.746 0.23 7.31 9.53 8.08
9/8/2023 12:30:00 AM 20.92 69.656 0.226 7.31 9.08 8.09
9/8/2023 12:45:00 AM 20.88 69.584 0.222 7.31 7.98 8.1
9/8/2023 1:00:00 AM 20.85 69.53 0.22 7.31 8.05 8.11
9/8/2023 1:15:00 AM 20.84 69.512 0.217 7.3 7.13 8.11
9/8/2023 1:30:00 AM 20.84 69.512 0.214 7.31 6.87 8.11
9/8/2023 1:45:00 AM 20.85 69.53 0.212 7.3 6.59 8.11
9/8/2023 2:00:00 AM 20.87 69.566 0.21 7.3 6.26 8.11
9/8/2023 2:15:00 AM 20.88 69.584 0.209 7.31 5.98 8.11
9/8/2023 2:30:00 AM 20.88 69.584 0.208 7.3 5.68 8.11
9/8/2023 2:45:00 AM 20.87 69.566 0.207 7.3 5.82 8.11
9/8/2023 3:00:00 AM 20.87 69.566 0.207 7.31 5.52 8.12
9/8/2023 3:15:00 AM 20.86 69.548 0.206 7.3 5.64 8.12
9/8/2023 3:30:00 AM 20.84 69.512 0.206 7.3 5.21 8.13
9/8/2023 3:45:00 AM 20.83 69.494 0.206 7.31 5.23 8.13
9/8/2023 4:00:00 AM 20.81 69.458 0.206 7.31 5.18 8.14
9/8/2023 4:15:00 AM 20.79 69.422 0.206 7.3 4.88 8.15
9/8/2023 4:30:00 AM 20.79 69.422 0.205 7.3 4.63 8.15
9/8/2023 4:45:00 AM 20.79 69.422 0.205 7.3 4.41 8.15
9/8/2023 5:00:00 AM 20.8 69.44 0.205 7.3 4.68 8.15
9/8/2023 5:15:00 AM 20.8 69.44 0.205 7.3 4.41 8.15
9/8/2023 5:30:00 AM 20.81 69.458 0.206 7.31 4.39 8.15
9/8/2023 5:45:00 AM 20.81 69.458 0.206 7.3 4.1 8.15
9/8/2023 6:00:00 AM 20.81 69.458 0.207 7.31 4.09 8.15
9/8/2023 6:15:00 AM 20.8 69.44 0.207 7.3 4.18 8.15
9/8/2023 6:30:00 AM 20.79 69.422 0.207 7.31 3.97 8.16
9/8/2023 6:45:00 AM 20.78 69.404 0.206 7.31 4.36 8.17
9/8/2023 7:00:00 AM 20.77 69.386 0.206 7.31 3.64 8.18
9/8/2023 7:15:00 AM 20.77 69.386 0.204 7.31 3.76 8.22
9/8/2023 7:30:00 AM 20.78 69.404 0.203 7.32 3.45 8.27
9/8/2023 7:45:00 AM 20.81 69.458 0.202 7.34 3.37 8.34
9/8/2023 8:00:00 AM 20.82 69.476 0.201 7.34 3.3 8.34
9/8/2023 8:15:00 AM 20.84 69.512 0.2 7.34 3.07 8.35
9/8/2023 8:30:00 AM 20.87 69.566 0.2 7.36 3.03 8.41
9/8/2023 8:45:00 AM 20.92 69.656 0.2 7.38 2.82 8.47
9/8/2023 9:00:00 AM 20.97 69.746 0.199 7.39 2.85 8.5
9/8/2023 9:15:00 AM 21.01 69.818 0.198 7.4 2.69 8.52
9/8/2023 9:30:00 AM 21.06 69.908 0.198 7.42 2.57 8.55
9/8/2023 9:45:00 AM 21.12 70.016 0.197 7.45 2.66 8.63
9/8/2023 10:00:00 AM 21.18 70.124 0.197 7.47 2.57 8.71
9/8/2023 10:15:00 AM 21.23 70.214 0.196 7.5 2.52 8.79
9/8/2023 10:30:00 AM 21.28 70.304 0.196 7.5 2.37 8.79
9/8/2023 10:45:00 AM 21.35 70.43 0.195 7.52 2.44 8.81
9/8/2023 11:00:00 AM 21.42 70.556 0.195 7.53 2.42 8.81
9/8/2023 11:15:00 AM 21.49 70.682 0.194 7.54 2.4 8.83
9/8/2023 11:30:00 AM 21.62 70.916 0.194 7.6 2.35 8.97
9/8/2023 11:45:00 AM 21.7 71.06 0.194 7.61 2.36 8.96
9/8/2023 12:00:00 PM 21.87 71.366 0.193 7.69 2.33 9.12
9/8/2023 12:15:00 PM 22 71.6 0.192 7.71 2.29 9.12
9/8/2023 12:30:00 PM 22.07 71.726 0.192 7.72 2.31 9.09
9/8/2023 12:45:00 PM 22.21 71.978 0.192 7.76 2.33 9.15
9/8/2023 1:00:00 PM 22.31 72.158 0.192 7.75 2.34 9.09
9/8/2023 1:15:00 PM 22.37 72.266 0.191 7.74 2.28 9.02
9/8/2023 1:30:00 PM 22.45 72.41 0.191 7.78 2.22 9.09
9/8/2023 1:45:00 PM 22.51 72.518 0.191 7.79 2.16 9.08
9/8/2023 2:00:00 PM 22.56 72.608 0.192 7.79 2.14 9.06
9/8/2023 2:15:00 PM 22.55 72.59 0.192 7.72 2.06 8.88
9/8/2023 2:30:00 PM 22.61 72.698 0.192 7.75 2.11 8.95
9/8/2023 2:45:00 PM 22.68 72.824 0.192 7.76 2.14 8.95
9/8/2023 3:00:00 PM 22.77 72.986 0.192 7.75 2.17 8.9
9/8/2023 3:15:00 PM 22.89 73.202 0.192 7.78 2.29 8.93
9/8/2023 3:30:00 PM 22.97 73.346 0.192 7.78 2.02 8.9
9/8/2023 3:45:00 PM 22.99 73.382 0.192 7.74 2.01 8.8
9/8/2023 4:00:00 PM 23.02 73.436 0.193 7.72 2.04 8.74
9/8/2023 4:15:00 PM 23.07 73.526 0.193 7.72 1.97 8.75
9/8/2023 4:30:00 PM 23.12 73.616 0.193 7.7 1.97 8.68
9/8/2023 4:45:00 PM 23.17 73.706 0.193 7.68 2.01 8.62
9/8/2023 5:00:00 PM 23.19 73.742 0.193 7.66 1.98 8.55
9/8/2023 5:15:00 PM 23.19 73.742 0.196 7.62 1.94 8.44
9/8/2023 5:30:00 PM 23.19 73.742 0.196 7.59 1.99 8.38
9/8/2023 5:45:00 PM 23.19 73.742 0.194 7.57 2.01 8.32
9/8/2023 6:00:00 PM 23.2 73.76 0.194 7.55 1.98 8.26
9/8/2023 6:15:00 PM 23.18 73.724 0.197 7.52 1.96 8.17
9/8/2023 6:30:00 PM 23.16 73.688 0.194 7.49 2.04 8.1
9/8/2023 6:45:00 PM 23.13 73.634 0.194 7.46 1.97 8.03
9/8/2023 7:00:00 PM 23.08 73.544 0.194 7.43 1.96 7.97
9/8/2023 7:15:00 PM 23.04 73.472 0.194 7.41 2 7.92
9/8/2023 7:30:00 PM 22.99 73.382 0.198 7.39 2.17 7.87
9/8/2023 7:45:00 PM 22.94 73.292 0.195 7.37 2.12 7.84
9/8/2023 8:00:00 PM 22.88 73.184 0.199 7.36 2.07 7.81
9/8/2023 8:15:00 PM 22.82 73.076 0.195 7.35 2.22 7.8
9/8/2023 8:30:00 PM 22.76 72.968 0.198 7.34 2.19 7.8
9/8/2023 8:45:00 PM 22.71 72.878 0.198 7.33 2.13 7.8
9/8/2023 9:00:00 PM 22.65 72.77 0.198 7.33 2.15 7.8
9/8/2023 9:15:00 PM 22.59 72.662 0.197 7.33 2.18 7.81
9/8/2023 9:30:00 PM 22.53 72.554 0.197 7.32 2.16 7.81
9/8/2023 9:45:00 PM 22.47 72.446 0.196 7.32 2.14 7.82
9/8/2023 10:00:00 PM 22.41 72.338 0.198 7.31 2.19 7.83
9/8/2023 10:15:00 PM 22.35 72.23 0.197 7.31 2.22 7.84
9/8/2023 10:30:00 PM 22.29 72.122 0.197 7.31 2.02 7.85
9/8/2023 10:45:00 PM 22.24 72.032 0.198 7.31 2.13 7.86
9/8/2023 11:00:00 PM 22.18 71.924 0.197 7.31 2.18 7.87
9/8/2023 11:15:00 PM 22.13 71.834 0.197 7.31 2.21 7.88
9/8/2023 11:30:00 PM 22.08 71.744 0.203 7.31 2.07 7.89
9/8/2023 11:45:00 PM 22.04 71.672 0.199 7.31 2.12 7.9
9/9/2023 12:00:00 AM 22 71.6 0.201 7.3 2.16 7.9
9/9/2023 12:15:00 AM 21.97 71.546 0.205 7.3 2.05 7.91
9/9/2023 12:30:00 AM 21.92 71.456 0.202 7.31 2.06 7.94
9/9/2023 12:45:00 AM 21.88 71.384 0.2 7.31 2.02 7.97
9/9/2023 1:00:00 AM 21.83 71.294 0.2 7.3 2.18 7.97
9/9/2023 1:15:00 AM 21.79 71.222 0.202 7.29 2.51 7.98
9/9/2023 1:30:00 AM 21.75 71.15 0.2 7.29 2.46 7.98
9/9/2023 1:45:00 AM 21.69 71.042 0.2 7.28 2.86 7.97
9/9/2023 2:00:00 AM 21.64 70.952 0.201 7.29 2.92 7.98
9/9/2023 2:15:00 AM 21.6 70.88 0.201 7.29 3.1 8
9/9/2023 2:30:00 AM 21.55 70.79 0.205 7.29 2.91 8.01
9/9/2023 2:45:00 AM 21.45 70.61 0.211 7.29 3.23 8.03
9/9/2023 3:00:00 AM 21.43 70.574 0.211 7.3 3.17 8.03
9/9/2023 3:15:00 AM 21.42 70.556 0.209 7.3 2.99 8.04
9/9/2023 3:30:00 AM 21.4 70.52 0.209 7.3 3.34 8.05
9/9/2023 3:45:00 AM 21.38 70.484 0.208 7.31 3.82 8.06
9/9/2023 4:00:00 AM 21.36 70.448 0.207 7.3 3.8 8.06
9/9/2023 4:15:00 AM 21.34 70.412 0.206 7.3 3.76 8.07
9/9/2023 4:30:00 AM 21.32 70.376 0.202 7.3 3.87 8.07
9/9/2023 4:45:00 AM 21.31 70.358 0.196 7.29 4.27 8.07
9/9/2023 5:00:00 AM 21.3 70.34 0.195 7.29 4.8 8.07
9/9/2023 5:15:00 AM 21.29 70.32201 0.196 7.29 4.69 8.07
9/9/2023 5:30:00 AM 21.28 70.304 0.195 7.29 4.89 8.07
9/9/2023 5:45:00 AM 21.27 70.286 0.193 7.31 5.16 8.08
9/9/2023 6:00:00 AM 21.26 70.268 0.197 7.3 4.81 8.08
9/9/2023 6:15:00 AM 21.25 70.25 0.197 7.31 4.73 8.09
9/9/2023 6:30:00 AM 21.24 70.232 0.199 7.31 4.44 8.09
9/9/2023 6:45:00 AM 21.23 70.214 0.2 7.31 4.26 8.1
9/9/2023 7:00:00 AM 21.22 70.196 0.199 7.32 4.42 8.11
9/9/2023 7:15:00 AM 21.21 70.17799 0.205 7.32 4.19 8.12
9/9/2023 7:30:00 AM 21.21 70.17799 0.204 7.33 3.84 8.15
9/9/2023 7:45:00 AM 21.2 70.16 0.204 7.34 3.45 8.17
9/9/2023 8:00:00 AM 21.2 70.16 0.206 7.35 3.4 8.2
9/9/2023 8:15:00 AM 21.2 70.16 0.205 7.36 3.09 8.24
9/9/2023 8:30:00 AM 21.21 70.17799 0.209 7.38 2.83 8.3
9/9/2023 8:45:00 AM 21.22 70.196 0.205 7.39 2.69 8.33
9/9/2023 9:00:00 AM 21.25 70.25 0.211 7.41 2.67 8.42
9/9/2023 9:15:00 AM 21.27 70.286 0.21 7.43 2.55 8.47
9/9/2023 9:30:00 AM 21.29 70.32201 0.21 7.44 2.36 8.48
9/9/2023 9:45:00 AM 21.3 70.34 0.214 7.44 2.45 8.49
9/9/2023 10:00:00 AM 21.32 70.376 0.212 7.45 2.49 8.48
9/9/2023 10:15:00 AM 21.35 70.43 0.214 7.46 2.24 8.54
9/9/2023 10:30:00 AM 21.38 70.484 0.212 7.48 2.18 8.6
9/9/2023 10:45:00 AM 21.42 70.556 0.214 7.5 2.03 8.66
9/9/2023 11:00:00 AM 21.46 70.628 0.213 7.51 2.01 8.69
9/9/2023 11:15:00 AM 21.51 70.718 0.215 7.55 1.96 8.83
9/9/2023 11:30:00 AM 21.59 70.862 0.214 7.62 1.82 8.99
9/9/2023 11:45:00 AM 21.65 70.97 0.218 7.66 1.77 9.08
9/9/2023 12:00:00 PM 21.69 71.042 0.219 7.65 1.74 9.01
9/9/2023 12:15:00 PM 21.73 71.114 0.218 7.66 1.8 9.01
9/9/2023 12:30:00 PM 21.75 71.15 0.218 7.63 1.84 8.9
9/9/2023 12:45:00 PM 21.82 71.276 0.222 7.67 1.91 9.01
9/9/2023 1:00:00 PM 21.9 71.42 0.218 7.73 1.78 9.15
9/9/2023 1:15:00 PM 21.97 71.546 0.222 7.79 1.72 9.24
9/9/2023 1:30:00 PM 22.07 71.726 0.224 7.84 1.74 9.36
9/9/2023 1:45:00 PM 22.14 71.852 0.222 7.86 1.77 9.35
9/9/2023 2:00:00 PM 22.22 71.996 0.221 7.89 1.71 9.37
9/9/2023 2:15:00 PM 22.35 72.23 0.224 7.92 1.91 9.39
9/9/2023 2:30:00 PM 22.45 72.41 0.232 7.91 1.72 9.34
9/9/2023 2:45:00 PM 22.55 72.59 0.23 7.94 1.66 9.33
9/9/2023 3:00:00 PM 22.69 72.842 0.232 7.95 1.64 9.32
9/9/2023 3:15:00 PM 22.8 73.04 0.23 7.94 1.64 9.23
9/9/2023 3:30:00 PM 22.85 73.13 0.23 7.9 1.74 9.12
9/9/2023 3:45:00 PM 22.89 73.202 0.224 7.87 1.67 9.03
9/9/2023 4:00:00 PM 22.92 73.256 0.235 7.84 1.51 8.94
9/9/2023 4:15:00 PM 22.93 73.274 0.223 7.79 1.62 8.83
9/9/2023 4:30:00 PM 22.95 73.31 0.221 7.76 1.62 8.74
9/9/2023 4:45:00 PM 22.97 73.346 0.223 7.72 1.67 8.67
9/9/2023 5:00:00 PM 22.99 73.382 0.221 7.68 1.52 8.54
9/9/2023 5:15:00 PM 23 73.4 0.223 7.61 1.54 8.37
9/9/2023 5:30:00 PM 22.99 73.382 0.226 7.56 1.61 8.2
9/9/2023 5:45:00 PM 22.95 73.31 0.222 7.52 1.57 8.08
9/9/2023 6:00:00 PM 22.89 73.202 0.732 7.51 1.57 7.99
9/9/2023 6:15:00 PM 22.79 73.022 0.201 7.46 1.76 7.95
9/9/2023 6:30:00 PM 22.71 72.878 0.254 7.46 1.82 7.93
9/9/2023 6:45:00 PM 20.92 69.656 0.222 7.18 335.71 8.21
9/9/2023 7:00:00 PM 19.59 67.262 0.097 6.39 697.95 8.56
9/9/2023 7:15:00 PM 20.1 68.18 0.098 6.49 607.16 8.56
9/9/2023 7:30:00 PM 19.96 67.92799 0.087 6.4 620.8 8.64
9/9/2023 7:45:00 PM 19.66 67.388 0.075 6.3 722.65 8.73
9/9/2023 8:00:00 PM 19.54 67.172 0.073 6.27 758.59 8.78
9/9/2023 8:15:00 PM 19.52 67.136 0.072 6.14 701.83 8.82
9/9/2023 8:30:00 PM 19.53 67.154 0.076 6.34 626.16 8.86
9/9/2023 8:45:00 PM 19.46 67.028 0.081 6.35 593.21 8.89
9/9/2023 9:00:00 PM 19.44 66.992 0.085 6.36 612.25 8.89
9/9/2023 9:15:00 PM 19.46 67.028 0.087 6.35 636.54 8.89
9/9/2023 9:30:00 PM -99999.99 -179968 -99999.99 -99999.99 -99999.99 -99999.99
9/9/2023 9:45:00 PM -99999.99 -179968 -99999.99 -99999.99 -99999.99 -99999.99
9/9/2023 10:00:00 PM -99999.99 -179968 -99999.99 -99999.99 -99999.99 -99999.99
9/9/2023 10:15:00 PM -99999.99 -179968 -99999.99 -99999.99 -99999.99 -99999.99
9/9/2023 10:30:00 PM -99999.99 -179968 -99999.99 -99999.99 -99999.99 -99999.99
9/9/2023 10:45:00 PM -99999.99 -179968 -99999.99 -99999.99 -99999.99 -99999.99
9/9/2023 11:00:00 PM -99999.99 -179968 -99999.99 -99999.99 -99999.99 -99999.99
9/9/2023 11:15:00 PM -99999.99 -179968 -99999.99 -99999.99 -99999.99 -99999.99
9/9/2023 11:30:00 PM -99999.99 -179968 -99999.99 -99999.99 -99999.99 -99999.99
9/9/2023 11:45:00 PM -99999.99 -179968 -99999.99 -99999.99 -99999.99 -99999.99
9/10/2023 12:00:00 AM -99999.99 -179968 -99999.99 -99999.99 -99999.99 -99999.99
9/10/2023 12:15:00 AM -99999.99 -179968 -99999.99 -99999.99 -99999.99 -99999.99
9/10/2023 12:30:00 AM -99999.99 -179968 -99999.99 -99999.99 -99999.99 -99999.99
9/10/2023 12:45:00 AM -99999.99 -179968 -99999.99 -99999.99 -99999.99 -99999.99
9/10/2023 1:00:00 AM -99999.99 -179968 -99999.99 -99999.99 -99999.99 -99999.99
9/10/2023 1:15:00 AM -99999.99 -179968 -99999.99 -99999.99 -99999.99 -99999.99
9/10/2023 1:30:00 AM -99999.99 -179968 -99999.99 -99999.99 -99999.99 -99999.99
9/10/2023 1:45:00 AM -99999.99 -179968 -99999.99 -99999.99 -99999.99 -99999.99
9/10/2023 2:00:00 AM -99999.99 -179968 -99999.99 -99999.99 -99999.99 -99999.99
9/10/2023 2:15:00 AM -99999.99 -179968 -99999.99 -99999.99 -99999.99 -99999.99
9/10/2023 2:30:00 AM -99999.99 -179968 -99999.99 -99999.99 -99999.99 -99999.99
9/10/2023 2:45:00 AM -99999.99 -179968 -99999.99 -99999.99 -99999.99 -99999.99
9/10/2023 3:00:00 AM -99999.99 -179968 -99999.99 -99999.99 -99999.99 -99999.99
9/10/2023 3:15:00 AM -99999.99 -179968 -99999.99 -99999.99 -99999.99 -99999.99
9/10/2023 3:30:00 AM -99999.99 -179968 -99999.99 -99999.99 -99999.99 -99999.99
9/10/2023 3:45:00 AM -99999.99 -179968 -99999.99 -99999.99 -99999.99 -99999.99
9/10/2023 4:00:00 AM -99999.99 -179968 -99999.99 -99999.99 -99999.99 -99999.99
9/10/2023 4:15:00 AM -99999.99 -179968 -99999.99 -99999.99 -99999.99 -99999.99
9/10/2023 4:30:00 AM -99999.99 -179968 -99999.99 -99999.99 -99999.99 -99999.99
9/10/2023 4:45:00 AM -99999.99 -179968 -99999.99 -99999.99 -99999.99 -99999.99
9/10/2023 5:00:00 AM -99999.99 -179968 -99999.99 -99999.99 -99999.99 -99999.99
9/10/2023 5:15:00 AM -99999.99 -179968 -99999.99 -99999.99 -99999.99 -99999.99
9/10/2023 5:30:00 AM -99999.99 -179968 -99999.99 -99999.99 -99999.99 -99999.99
9/10/2023 5:45:00 AM -99999.99 -179968 -99999.99 -99999.99 -99999.99 -99999.99
9/10/2023 6:00:00 AM -99999.99 -179968 -99999.99 -99999.99 -99999.99 -99999.99
9/10/2023 6:15:00 AM -99999.99 -179968 -99999.99 -99999.99 -99999.99 -99999.99
9/10/2023 6:30:00 AM -99999.99 -179968 -99999.99 -99999.99 -99999.99 -99999.99
9/10/2023 6:45:00 AM -99999.99 -179968 -99999.99 -99999.99 -99999.99 -99999.99
9/10/2023 7:00:00 AM -99999.99 -179968 -99999.99 -99999.99 -99999.99 -99999.99
9/10/2023 7:15:00 AM -99999.99 -179968 -99999.99 -99999.99 -99999.99 -99999.99
9/10/2023 7:30:00 AM -99999.99 -179968 -99999.99 -99999.99 -99999.99 -99999.99
9/10/2023 7:45:00 AM -99999.99 -179968 -99999.99 -99999.99 -99999.99 -99999.99
9/10/2023 8:00:00 AM -99999.99 -179968 -99999.99 -99999.99 -99999.99 -99999.99
9/10/2023 8:15:00 AM -99999.99 -179968 -99999.99 -99999.99 -99999.99 -99999.99
9/10/2023 8:30:00 AM -99999.99 -179968 -99999.99 -99999.99 -99999.99 -99999.99
9/10/2023 8:45:00 AM -99999.99 -179968 -99999.99 -99999.99 -99999.99 -99999.99
9/10/2023 9:00:00 AM -99999.99 -179968 -99999.99 -99999.99 -99999.99 -99999.99
9/10/2023 9:15:00 AM -99999.99 -179968 -99999.99 -99999.99 -99999.99 -99999.99
9/10/2023 9:30:00 AM -99999.99 -179968 -99999.99 -99999.99 -99999.99 -99999.99
9/10/2023 9:45:00 AM -99999.99 -179968 -99999.99 -99999.99 -99999.99 -99999.99
9/10/2023 10:00:00 AM -99999.99 -179968 -99999.99 -99999.99 -99999.99 -99999.99
9/10/2023 10:15:00 AM -99999.99 -179968 -99999.99 -99999.99 -99999.99 -99999.99
9/10/2023 10:30:00 AM -99999.99 -179968 -99999.99 -99999.99 -99999.99 -99999.99
9/10/2023 10:45:00 AM -99999.99 -179968 -99999.99 -99999.99 -99999.99 -99999.99
9/10/2023 11:00:00 AM -99999.99 -179968 -99999.99 -99999.99 -99999.99 -99999.99
9/10/2023 11:15:00 AM -99999.99 -179968 -99999.99 -99999.99 -99999.99 -99999.99
9/10/2023 11:30:00 AM -99999.99 -179968 -99999.99 -99999.99 -99999.99 -99999.99
9/10/2023 11:45:00 AM -99999.99 -179968 -99999.99 -99999.99 -99999.99 -99999.99
9/10/2023 12:00:00 PM -99999.99 -179968 -99999.99 -99999.99 -99999.99 -99999.99
9/10/2023 12:15:00 PM -99999.99 -179968 -99999.99 -99999.99 -99999.99 -99999.99
9/10/2023 12:30:00 PM -99999.99 -179968 -99999.99 -99999.99 -99999.99 -99999.99
9/10/2023 12:45:00 PM -99999.99 -179968 -99999.99 -99999.99 -99999.99 -99999.99
9/10/2023 1:00:00 PM -99999.99 -179968 -99999.99 -99999.99 -99999.99 -99999.99
9/10/2023 1:15:00 PM -99999.99 -179968 -99999.99 -99999.99 -99999.99 -99999.99
9/10/2023 1:30:00 PM -99999.99 -179968 -99999.99 -99999.99 -99999.99 -99999.99
9/10/2023 1:45:00 PM -99999.99 -179968 -99999.99 -99999.99 -99999.99 -99999.99
9/10/2023 2:00:00 PM -99999.99 -179968 -99999.99 -99999.99 -99999.99 -99999.99
9/10/2023 2:15:00 PM -99999.99 -179968 -99999.99 -99999.99 -99999.99 -99999.99
9/10/2023 2:30:00 PM -99999.99 -179968 -99999.99 -99999.99 -99999.99 -99999.99
9/10/2023 2:45:00 PM -99999.99 -179968 -99999.99 -99999.99 -99999.99 -99999.99
9/10/2023 3:00:00 PM -99999.99 -179968 -99999.99 -99999.99 -99999.99 -99999.99
9/10/2023 3:15:00 PM -99999.99 -179968 -99999.99 -99999.99 -99999.99 -99999.99
9/10/2023 3:30:00 PM -99999.99 -179968 -99999.99 -99999.99 -99999.99 -99999.99
9/10/2023 3:45:00 PM -99999.99 -179968 -99999.99 -99999.99 -99999.99 -99999.99
9/10/2023 4:00:00 PM -99999.99 -179968 -99999.99 -99999.99 -99999.99 -99999.99
9/10/2023 4:15:00 PM -99999.99 -179968 -99999.99 -99999.99 -99999.99 -99999.99
9/10/2023 4:30:00 PM -99999.99 -179968 -99999.99 -99999.99 -99999.99 -99999.99
9/10/2023 4:45:00 PM -99999.99 -179968 -99999.99 -99999.99 -99999.99 -99999.99
9/10/2023 5:00:00 PM -99999.99 -179968 -99999.99 -99999.99 -99999.99 -99999.99
9/10/2023 5:15:00 PM -99999.99 -179968 -99999.99 -99999.99 -99999.99 -99999.99
9/10/2023 5:30:00 PM -99999.99 -179968 -99999.99 -99999.99 -99999.99 -99999.99
9/10/2023 5:45:00 PM -99999.99 -179968 -99999.99 -99999.99 -99999.99 -99999.99
9/10/2023 6:00:00 PM -99999.99 -179968 -99999.99 -99999.99 -99999.99 -99999.99
9/10/2023 6:15:00 PM -99999.99 -179968 -99999.99 -99999.99 -99999.99 -99999.99
9/10/2023 6:30:00 PM -99999.99 -179968 -99999.99 -99999.99 -99999.99 -99999.99
9/10/2023 6:45:00 PM -99999.99 -179968 -99999.99 -99999.99 -99999.99 -99999.99
9/10/2023 7:00:00 PM -99999.99 -179968 -99999.99 -99999.99 -99999.99 -99999.99
9/10/2023 7:15:00 PM -99999.99 -179968 -99999.99 -99999.99 -99999.99 -99999.99
9/10/2023 7:30:00 PM -99999.99 -179968 -99999.99 -99999.99 -99999.99 -99999.99
9/10/2023 7:45:00 PM -99999.99 -179968 -99999.99 -99999.99 -99999.99 -99999.99
9/10/2023 8:00:00 PM -99999.99 -179968 -99999.99 -99999.99 -99999.99 -99999.99
9/10/2023 8:15:00 PM -99999.99 -179968 -99999.99 -99999.99 -99999.99 -99999.99
9/10/2023 8:30:00 PM -99999.99 -179968 -99999.99 -99999.99 -99999.99 -99999.99
9/10/2023 8:45:00 PM -99999.99 -179968 -99999.99 -99999.99 -99999.99 -99999.99
9/10/2023 9:00:00 PM -99999.99 -179968 -99999.99 -99999.99 -99999.99 -99999.99
9/10/2023 9:15:00 PM -99999.99 -179968 -99999.99 -99999.99 -99999.99 -99999.99
9/10/2023 9:30:00 PM -99999.99 -179968 -99999.99 -99999.99 -99999.99 -99999.99
9/10/2023 9:45:00 PM -99999.99 -179968 -99999.99 -99999.99 -99999.99 -99999.99
9/10/2023 10:00:00 PM -99999.99 -179968 -99999.99 -99999.99 -99999.99 -99999.99
9/10/2023 10:15:00 PM -99999.99 -179968 -99999.99 -99999.99 -99999.99 -99999.99
9/10/2023 10:30:00 PM -99999.99 -179968 -99999.99 -99999.99 -99999.99 -99999.99
9/10/2023 10:45:00 PM -99999.99 -179968 -99999.99 -99999.99 -99999.99 -99999.99
9/10/2023 11:00:00 PM -99999.99 -179968 -99999.99 -99999.99 -99999.99 -99999.99
9/10/2023 11:15:00 PM -99999.99 -179968 -99999.99 -99999.99 -99999.99 -99999.99
9/10/2023 11:30:00 PM -99999.99 -179968 -99999.99 -99999.99 -99999.99 -99999.99
9/10/2023 11:45:00 PM -99999.99 -179968 -99999.99 -99999.99 -99999.99 -99999.99
9/11/2023 12:00:00 AM -99999.99 -179968 -99999.99 -99999.99 -99999.99 -99999.99
9/11/2023 12:15:00 AM -99999.99 -179968 -99999.99 -99999.99 -99999.99 -99999.99
9/11/2023 12:30:00 AM -99999.99 -179968 -99999.99 -99999.99 -99999.99 -99999.99
9/11/2023 12:45:00 AM -99999.99 -179968 -99999.99 -99999.99 -99999.99 -99999.99
9/11/2023 1:00:00 AM -99999.99 -179968 -99999.99 -99999.99 -99999.99 -99999.99
9/11/2023 1:15:00 AM -99999.99 -179968 -99999.99 -99999.99 -99999.99 -99999.99
9/11/2023 1:30:00 AM -99999.99 -179968 -99999.99 -99999.99 -99999.99 -99999.99
9/11/2023 1:45:00 AM -99999.99 -179968 -99999.99 -99999.99 -99999.99 -99999.99
9/11/2023 2:00:00 AM -99999.99 -179968 -99999.99 -99999.99 -99999.99 -99999.99
9/11/2023 2:15:00 AM -99999.99 -179968 -99999.99 -99999.99 -99999.99 -99999.99
9/11/2023 2:30:00 AM -99999.99 -179968 -99999.99 -99999.99 -99999.99 -99999.99
9/11/2023 2:45:00 AM -99999.99 -179968 -99999.99 -99999.99 -99999.99 -99999.99
9/11/2023 3:00:00 AM -99999.99 -179968 -99999.99 -99999.99 -99999.99 -99999.99
9/11/2023 3:15:00 AM -99999.99 -179968 -99999.99 -99999.99 -99999.99 -99999.99
9/11/2023 3:30:00 AM -99999.99 -179968 -99999.99 -99999.99 -99999.99 -99999.99
9/11/2023 3:45:00 AM -99999.99 -179968 -99999.99 -99999.99 -99999.99 -99999.99
9/11/2023 4:00:00 AM -99999.99 -179968 -99999.99 -99999.99 -99999.99 -99999.99
9/11/2023 4:15:00 AM -99999.99 -179968 -99999.99 -99999.99 -99999.99 -99999.99
9/11/2023 4:30:00 AM -99999.99 -179968 -99999.99 -99999.99 -99999.99 -99999.99
9/11/2023 4:45:00 AM -99999.99 -179968 -99999.99 -99999.99 -99999.99 -99999.99
9/11/2023 5:00:00 AM -99999.99 -179968 -99999.99 -99999.99 -99999.99 -99999.99
9/11/2023 5:15:00 AM -99999.99 -179968 -99999.99 -99999.99 -99999.99 -99999.99
9/11/2023 5:30:00 AM -99999.99 -179968 -99999.99 -99999.99 -99999.99 -99999.99
9/11/2023 5:45:00 AM -99999.99 -179968 -99999.99 -99999.99 -99999.99 -99999.99
9/11/2023 6:00:00 AM -99999.99 -179968 -99999.99 -99999.99 -99999.99 -99999.99
9/11/2023 6:15:00 AM -99999.99 -179968 -99999.99 -99999.99 -99999.99 -99999.99
9/11/2023 6:30:00 AM -99999.99 -179968 -99999.99 -99999.99 -99999.99 -99999.99
9/11/2023 6:45:00 AM -99999.99 -179968 -99999.99 -99999.99 -99999.99 -99999.99
9/11/2023 7:00:00 AM -99999.99 -179968 -99999.99 -99999.99 -99999.99 -99999.99
9/11/2023 7:15:00 AM -99999.99 -179968 -99999.99 -99999.99 -99999.99 -99999.99
9/11/2023 7:30:00 AM -99999.99 -179968 -99999.99 -99999.99 -99999.99 -99999.99
9/11/2023 7:45:00 AM -99999.99 -179968 -99999.99 -99999.99 -99999.99 -99999.99
9/11/2023 8:00:00 AM -99999.99 -179968 -99999.99 -99999.99 -99999.99 -99999.99
9/11/2023 8:15:00 AM -99999.99 -179968 -99999.99 -99999.99 -99999.99 -99999.99
9/11/2023 8:30:00 AM -99999.99 -179968 -99999.99 -99999.99 -99999.99 -99999.99
9/11/2023 8:45:00 AM -99999.99 -179968 -99999.99 -99999.99 -99999.99 -99999.99
9/11/2023 9:00:00 AM -99999.99 -179968 -99999.99 -99999.99 -99999.99 -99999.99
9/11/2023 9:15:00 AM -99999.99 -179968 -99999.99 -99999.99 -99999.99 -99999.99
9/11/2023 9:30:00 AM -99999.99 -179968 -99999.99 -99999.99 -99999.99 -99999.99
9/11/2023 9:45:00 AM -99999.99 -179968 -99999.99 -99999.99 -99999.99 -99999.99
9/11/2023 10:00:00 AM -99999.99 -179968 -99999.99 -99999.99 -99999.99 -99999.99
9/11/2023 10:15:00 AM -99999.99 -179968 -99999.99 -99999.99 -99999.99 -99999.99
9/11/2023 10:30:00 AM -99999.99 -179968 -99999.99 -99999.99 -99999.99 -99999.99
9/11/2023 10:45:00 AM -99999.99 -179968 -99999.99 -99999.99 -99999.99 -99999.99
9/11/2023 11:00:00 AM -99999.99 -179968 -99999.99 -99999.99 -99999.99 -99999.99
9/11/2023 11:15:00 AM -99999.99 -179968 -99999.99 -99999.99 -99999.99 -99999.99
9/11/2023 11:30:00 AM -99999.99 -179968 -99999.99 -99999.99 -99999.99 -99999.99
9/11/2023 11:45:00 AM -99999.99 -179968 -99999.99 -99999.99 -99999.99 -99999.99
9/11/2023 12:00:00 PM -99999.99 -179968 -99999.99 -99999.99 -99999.99 -99999.99
9/11/2023 12:15:00 PM -99999.99 -179968 -99999.99 -99999.99 -99999.99 -99999.99
9/11/2023 12:30:00 PM -99999.99 -179968 -99999.99 -99999.99 -99999.99 -99999.99
9/11/2023 12:45:00 PM -99999.99 -179968 -99999.99 -99999.99 -99999.99 -99999.99
9/11/2023 1:00:00 PM -99999.99 -179968 -99999.99 -99999.99 -99999.99 -99999.99
9/11/2023 1:15:00 PM -99999.99 -179968 -99999.99 -99999.99 -99999.99 -99999.99
9/11/2023 1:30:00 PM -99999.99 -179968 -99999.99 -99999.99 -99999.99 -99999.99
9/11/2023 1:45:00 PM -99999.99 -179968 -99999.99 -99999.99 -99999.99 -99999.99
9/11/2023 2:00:00 PM -99999.99 -179968 -99999.99 -99999.99 -99999.99 -99999.99
9/11/2023 2:15:00 PM -99999.99 -179968 -99999.99 -99999.99 -99999.99 -99999.99
9/11/2023 2:30:00 PM -99999.99 -179968 -99999.99 -99999.99 -99999.99 -99999.99
9/11/2023 2:45:00 PM -99999.99 -179968 -99999.99 -99999.99 -99999.99 -99999.99
9/11/2023 3:00:00 PM -99999.99 -179968 -99999.99 -99999.99 -99999.99 -99999.99
9/11/2023 3:15:00 PM -99999.99 -179968 -99999.99 -99999.99 -99999.99 -99999.99
9/11/2023 3:30:00 PM -99999.99 -179968 -99999.99 -99999.99 -99999.99 -99999.99
9/11/2023 3:45:00 PM -99999.99 -179968 -99999.99 -99999.99 -99999.99 -99999.99
9/11/2023 4:00:00 PM -99999.99 -179968 -99999.99 -99999.99 -99999.99 -99999.99
9/11/2023 4:15:00 PM -99999.99 -179968 -99999.99 -99999.99 -99999.99 -99999.99
9/11/2023 4:30:00 PM -99999.99 -179968 -99999.99 -99999.99 -99999.99 -99999.99
9/11/2023 4:45:00 PM -99999.99 -179968 -99999.99 -99999.99 -99999.99 -99999.99
9/11/2023 5:00:00 PM -99999.99 -179968 -99999.99 -99999.99 -99999.99 -99999.99
9/11/2023 5:15:00 PM -99999.99 -179968 -99999.99 -99999.99 -99999.99 -99999.99
9/11/2023 5:30:00 PM -99999.99 -179968 -99999.99 -99999.99 -99999.99 -99999.99
9/11/2023 5:45:00 PM -99999.99 -179968 -99999.99 -99999.99 -99999.99 -99999.99
9/11/2023 6:00:00 PM -99999.99 -179968 -99999.99 -99999.99 -99999.99 -99999.99
9/11/2023 6:15:00 PM -99999.99 -179968 -99999.99 -99999.99 -99999.99 -99999.99
9/11/2023 6:30:00 PM -99999.99 -179968 -99999.99 -99999.99 -99999.99 -99999.99
9/11/2023 6:45:00 PM -99999.99 -179968 -99999.99 -99999.99 -99999.99 -99999.99
9/11/2023 7:00:00 PM -99999.99 -179968 -99999.99 -99999.99 -99999.99 -99999.99

These are provisional data and have not been subject to a quality assurance process, but rather are the raw data reported by the instrument.
H: value is above sensor operating range
L: value is below sensor operating range
Offline: station is not reporting data
NC: parameter is not collected at site

Data Availability & Limitations

Uncertainty and potential for error can be associated with environmental monitoring data. Provisional data have not been subject to a quality assurance process, but rather are the raw data reported by the instrument. Data users are cautioned to consider carefully the provisional nature of the information before using it for decisions that concern personal or public safety or the conduct of business that involves substantial monetary or operational consequences.

Approved data are currently available by request by emailing: [email protected]. Approved data have been subject to a quality assurance process to correct for equipment or fouling drift. Data recorded during equipment malfunctions have been removed.

View Historical Stations that have been discontinued.